<?xml version="1.0" encoding="UTF-8" standalone="no" ?>
<gpx xmlns="http://www.topografix.com/GPX/1/1" xmlns:xsi="http://www.w3.org/2001/XMLSchema-instance" xsi:schemaLocation="http://www.topografix.com/GPX/1/1 http://www.topografix.com/GPX/1/1/gpx.xsd" version="1.1" creator="VisuGPX - https://www.visugpx.com">
  <metadata>
    <name>Etang des Noues du 11 08 2018</name>
    <desc><![CDATA[Pour une bonne partie a couvert ds la foret; agréable et facile.]]></desc>
  </metadata>
  <trk>
    <name><![CDATA[Etang des Noues du 11 08 2018_1]]></name>
    <trkseg>
      <trkpt lat="47.06705" lon="-0.81361">
        <ele>130.6</ele>
        <time>2018-08-11T12:26:56Z</time>
      </trkpt>
      <trkpt lat="47.06705" lon="-0.81361">
        <ele>193.616</ele>
        <time>2018-08-11T12:27:00Z</time>
      </trkpt>
      <trkpt lat="47.06707" lon="-0.81355">
        <ele>190.51</ele>
        <time>2018-08-11T12:27:05Z</time>
      </trkpt>
      <trkpt lat="47.06707" lon="-0.81345">
        <ele>191.404</ele>
        <time>2018-08-11T12:27:11Z</time>
      </trkpt>
      <trkpt lat="47.06708" lon="-0.81341">
        <ele>191.461</ele>
        <time>2018-08-11T12:27:14Z</time>
      </trkpt>
      <trkpt lat="47.0671" lon="-0.81334">
        <ele>191.448</ele>
        <time>2018-08-11T12:27:18Z</time>
      </trkpt>
      <trkpt lat="47.06711" lon="-0.81327">
        <ele>191.421</ele>
        <time>2018-08-11T12:27:21Z</time>
      </trkpt>
      <trkpt lat="47.06712" lon="-0.81323">
        <ele>191.536</ele>
        <time>2018-08-11T12:27:23Z</time>
      </trkpt>
      <trkpt lat="47.06713" lon="-0.81317">
        <ele>191.561</ele>
        <time>2018-08-11T12:27:26Z</time>
      </trkpt>
      <trkpt lat="47.06716" lon="-0.81311">
        <ele>191.532</ele>
        <time>2018-08-11T12:27:30Z</time>
      </trkpt>
      <trkpt lat="47.06719" lon="-0.81304">
        <ele>191.454</ele>
        <time>2018-08-11T12:27:34Z</time>
      </trkpt>
      <trkpt lat="47.06721" lon="-0.81299">
        <ele>191.37</ele>
        <time>2018-08-11T12:27:37Z</time>
      </trkpt>
      <trkpt lat="47.06723" lon="-0.81295">
        <ele>191.273</ele>
        <time>2018-08-11T12:27:40Z</time>
      </trkpt>
      <trkpt lat="47.06725" lon="-0.81286">
        <ele>191.094</ele>
        <time>2018-08-11T12:27:45Z</time>
      </trkpt>
      <trkpt lat="47.06727" lon="-0.81278">
        <ele>190.914</ele>
        <time>2018-08-11T12:27:50Z</time>
      </trkpt>
      <trkpt lat="47.06727" lon="-0.81271">
        <ele>190.772</ele>
        <time>2018-08-11T12:27:54Z</time>
      </trkpt>
      <trkpt lat="47.06727" lon="-0.81265">
        <ele>190.635</ele>
        <time>2018-08-11T12:27:58Z</time>
      </trkpt>
      <trkpt lat="47.06728" lon="-0.81258">
        <ele>190.528</ele>
        <time>2018-08-11T12:28:01Z</time>
      </trkpt>
      <trkpt lat="47.06732" lon="-0.81253">
        <ele>190.409</ele>
        <time>2018-08-11T12:28:04Z</time>
      </trkpt>
      <trkpt lat="47.06737" lon="-0.81249">
        <ele>190.283</ele>
        <time>2018-08-11T12:28:07Z</time>
      </trkpt>
      <trkpt lat="47.0674" lon="-0.81242">
        <ele>190.123</ele>
        <time>2018-08-11T12:28:11Z</time>
      </trkpt>
      <trkpt lat="47.06745" lon="-0.81238">
        <ele>189.967</ele>
        <time>2018-08-11T12:28:15Z</time>
      </trkpt>
      <trkpt lat="47.06747" lon="-0.81235">
        <ele>189.893</ele>
        <time>2018-08-11T12:28:17Z</time>
      </trkpt>
      <trkpt lat="47.06749" lon="-0.81229">
        <ele>189.755</ele>
        <time>2018-08-11T12:28:21Z</time>
      </trkpt>
      <trkpt lat="47.0675" lon="-0.81222">
        <ele>189.665</ele>
        <time>2018-08-11T12:28:24Z</time>
      </trkpt>
      <trkpt lat="47.06752" lon="-0.81215">
        <ele>189.589</ele>
        <time>2018-08-11T12:28:27Z</time>
      </trkpt>
      <trkpt lat="47.06754" lon="-0.81208">
        <ele>189.526</ele>
        <time>2018-08-11T12:28:30Z</time>
      </trkpt>
      <trkpt lat="47.06758" lon="-0.812">
        <ele>189.454</ele>
        <time>2018-08-11T12:28:34Z</time>
      </trkpt>
      <trkpt lat="47.0676" lon="-0.81196">
        <ele>189.414</ele>
        <time>2018-08-11T12:28:37Z</time>
      </trkpt>
      <trkpt lat="47.06763" lon="-0.81191">
        <ele>189.378</ele>
        <time>2018-08-11T12:28:40Z</time>
      </trkpt>
      <trkpt lat="47.06766" lon="-0.81184">
        <ele>189.341</ele>
        <time>2018-08-11T12:28:44Z</time>
      </trkpt>
      <trkpt lat="47.0677" lon="-0.81178">
        <ele>189.319</ele>
        <time>2018-08-11T12:28:48Z</time>
      </trkpt>
      <trkpt lat="47.06773" lon="-0.81171">
        <ele>189.312</ele>
        <time>2018-08-11T12:28:52Z</time>
      </trkpt>
      <trkpt lat="47.06775" lon="-0.81164">
        <ele>189.312</ele>
        <time>2018-08-11T12:28:57Z</time>
      </trkpt>
      <trkpt lat="47.06777" lon="-0.81157">
        <ele>189.315</ele>
        <time>2018-08-11T12:29:01Z</time>
      </trkpt>
      <trkpt lat="47.06779" lon="-0.81149">
        <ele>189.32</ele>
        <time>2018-08-11T12:29:05Z</time>
      </trkpt>
      <trkpt lat="47.06782" lon="-0.81142">
        <ele>189.328</ele>
        <time>2018-08-11T12:29:09Z</time>
      </trkpt>
      <trkpt lat="47.06785" lon="-0.81136">
        <ele>189.34</ele>
        <time>2018-08-11T12:29:13Z</time>
      </trkpt>
      <trkpt lat="47.06791" lon="-0.81129">
        <ele>189.347</ele>
        <time>2018-08-11T12:29:17Z</time>
      </trkpt>
      <trkpt lat="47.06795" lon="-0.81123">
        <ele>189.354</ele>
        <time>2018-08-11T12:29:20Z</time>
      </trkpt>
      <trkpt lat="47.06797" lon="-0.8112">
        <ele>189.357</ele>
        <time>2018-08-11T12:29:22Z</time>
      </trkpt>
      <trkpt lat="47.068" lon="-0.81114">
        <ele>189.353</ele>
        <time>2018-08-11T12:29:27Z</time>
      </trkpt>
      <trkpt lat="47.06802" lon="-0.81111">
        <ele>189.35</ele>
        <time>2018-08-11T12:29:29Z</time>
      </trkpt>
      <trkpt lat="47.06803" lon="-0.81103">
        <ele>189.34</ele>
        <time>2018-08-11T12:29:32Z</time>
      </trkpt>
      <trkpt lat="47.06803" lon="-0.81099">
        <ele>189.333</ele>
        <time>2018-08-11T12:29:34Z</time>
      </trkpt>
      <trkpt lat="47.06803" lon="-0.81095">
        <ele>189.325</ele>
        <time>2018-08-11T12:29:36Z</time>
      </trkpt>
      <trkpt lat="47.06802" lon="-0.81088">
        <ele>189.315</ele>
        <time>2018-08-11T12:29:40Z</time>
      </trkpt>
      <trkpt lat="47.06803" lon="-0.81078">
        <ele>189.304</ele>
        <time>2018-08-11T12:29:45Z</time>
      </trkpt>
      <trkpt lat="47.06803" lon="-0.81071">
        <ele>189.298</ele>
        <time>2018-08-11T12:29:48Z</time>
      </trkpt>
      <trkpt lat="47.06803" lon="-0.81062">
        <ele>189.291</ele>
        <time>2018-08-11T12:29:51Z</time>
      </trkpt>
      <trkpt lat="47.06805" lon="-0.81055">
        <ele>189.271</ele>
        <time>2018-08-11T12:29:55Z</time>
      </trkpt>
      <trkpt lat="47.0681" lon="-0.8105">
        <ele>189.246</ele>
        <time>2018-08-11T12:29:59Z</time>
      </trkpt>
      <trkpt lat="47.06813" lon="-0.81042">
        <ele>189.223</ele>
        <time>2018-08-11T12:30:02Z</time>
      </trkpt>
      <trkpt lat="47.06815" lon="-0.81039">
        <ele>189.206</ele>
        <time>2018-08-11T12:30:04Z</time>
      </trkpt>
      <trkpt lat="47.06817" lon="-0.81034">
        <ele>189.19</ele>
        <time>2018-08-11T12:30:06Z</time>
      </trkpt>
      <trkpt lat="47.06818" lon="-0.81028">
        <ele>189.133</ele>
        <time>2018-08-11T12:30:13Z</time>
      </trkpt>
      <trkpt lat="47.06816" lon="-0.81021">
        <ele>189.062</ele>
        <time>2018-08-11T12:30:19Z</time>
      </trkpt>
      <trkpt lat="47.06817" lon="-0.81013">
        <ele>189.039</ele>
        <time>2018-08-11T12:30:21Z</time>
      </trkpt>
      <trkpt lat="47.06818" lon="-0.81009">
        <ele>189.006</ele>
        <time>2018-08-11T12:30:24Z</time>
      </trkpt>
      <trkpt lat="47.0682" lon="-0.81001">
        <ele>188.938</ele>
        <time>2018-08-11T12:30:30Z</time>
      </trkpt>
      <trkpt lat="47.06821" lon="-0.80997">
        <ele>188.926</ele>
        <time>2018-08-11T12:30:31Z</time>
      </trkpt>
      <trkpt lat="47.06823" lon="-0.80992">
        <ele>188.903</ele>
        <time>2018-08-11T12:30:33Z</time>
      </trkpt>
      <trkpt lat="47.06824" lon="-0.80988">
        <ele>188.893</ele>
        <time>2018-08-11T12:30:34Z</time>
      </trkpt>
      <trkpt lat="47.06826" lon="-0.80981">
        <ele>188.864</ele>
        <time>2018-08-11T12:30:37Z</time>
      </trkpt>
      <trkpt lat="47.06828" lon="-0.80972">
        <ele>188.805</ele>
        <time>2018-08-11T12:30:43Z</time>
      </trkpt>
      <trkpt lat="47.0683" lon="-0.80966">
        <ele>188.753</ele>
        <time>2018-08-11T12:30:48Z</time>
      </trkpt>
      <trkpt lat="47.06833" lon="-0.80959">
        <ele>188.708</ele>
        <time>2018-08-11T12:30:52Z</time>
      </trkpt>
      <trkpt lat="47.06835" lon="-0.80955">
        <ele>188.681</ele>
        <time>2018-08-11T12:30:54Z</time>
      </trkpt>
      <trkpt lat="47.06836" lon="-0.8095">
        <ele>188.636</ele>
        <time>2018-08-11T12:30:57Z</time>
      </trkpt>
      <trkpt lat="47.06838" lon="-0.80944">
        <ele>188.587</ele>
        <time>2018-08-11T12:31:00Z</time>
      </trkpt>
      <trkpt lat="47.06841" lon="-0.80938">
        <ele>188.53</ele>
        <time>2018-08-11T12:31:03Z</time>
      </trkpt>
      <trkpt lat="47.06842" lon="-0.80931">
        <ele>188.457</ele>
        <time>2018-08-11T12:31:07Z</time>
      </trkpt>
      <trkpt lat="47.06845" lon="-0.80924">
        <ele>188.383</ele>
        <time>2018-08-11T12:31:11Z</time>
      </trkpt>
      <trkpt lat="47.06849" lon="-0.80915">
        <ele>188.32</ele>
        <time>2018-08-11T12:31:14Z</time>
      </trkpt>
      <trkpt lat="47.06853" lon="-0.80911">
        <ele>188.276</ele>
        <time>2018-08-11T12:31:16Z</time>
      </trkpt>
      <trkpt lat="47.06856" lon="-0.80905">
        <ele>188.21</ele>
        <time>2018-08-11T12:31:19Z</time>
      </trkpt>
      <trkpt lat="47.06862" lon="-0.80902">
        <ele>188.141</ele>
        <time>2018-08-11T12:31:22Z</time>
      </trkpt>
      <trkpt lat="47.06865" lon="-0.80895">
        <ele>188.075</ele>
        <time>2018-08-11T12:31:25Z</time>
      </trkpt>
      <trkpt lat="47.0687" lon="-0.8089">
        <ele>187.964</ele>
        <time>2018-08-11T12:31:30Z</time>
      </trkpt>
      <trkpt lat="47.06872" lon="-0.80888">
        <ele>187.922</ele>
        <time>2018-08-11T12:31:32Z</time>
      </trkpt>
      <trkpt lat="47.06875" lon="-0.80882">
        <ele>187.862</ele>
        <time>2018-08-11T12:31:35Z</time>
      </trkpt>
      <trkpt lat="47.06875" lon="-0.80875">
        <ele>187.78</ele>
        <time>2018-08-11T12:31:39Z</time>
      </trkpt>
      <trkpt lat="47.06875" lon="-0.80875">
        <ele>132</ele>
        <time>2018-08-11T12:31:47Z</time>
      </trkpt>
      <trkpt lat="47.06875" lon="-0.80875">
        <ele>132</ele>
        <time>2018-08-11T12:31:52Z</time>
      </trkpt>
      <trkpt lat="47.06879" lon="-0.80864">
        <ele>187.525</ele>
        <time>2018-08-11T12:31:52Z</time>
      </trkpt>
      <trkpt lat="47.06881" lon="-0.80859">
        <ele>187.484</ele>
        <time>2018-08-11T12:31:54Z</time>
      </trkpt>
      <trkpt lat="47.06883" lon="-0.80854">
        <ele>187.441</ele>
        <time>2018-08-11T12:31:56Z</time>
      </trkpt>
      <trkpt lat="47.06885" lon="-0.80851">
        <ele>187.395</ele>
        <time>2018-08-11T12:31:58Z</time>
      </trkpt>
      <trkpt lat="47.06888" lon="-0.80845">
        <ele>187.274</ele>
        <time>2018-08-11T12:32:03Z</time>
      </trkpt>
      <trkpt lat="47.06888" lon="-0.80845">
        <ele>187.274</ele>
        <time>2018-08-11T12:32:10Z</time>
      </trkpt>
      <trkpt lat="47.06888" lon="-0.80845">
        <ele>132</ele>
        <time>2018-08-11T12:32:10Z</time>
      </trkpt>
      <trkpt lat="47.06888" lon="-0.80845">
        <ele>132</ele>
        <time>2018-08-11T12:32:18Z</time>
      </trkpt>
      <trkpt lat="47.06903" lon="-0.80824">
        <ele>186.902</ele>
        <time>2018-08-11T12:32:18Z</time>
      </trkpt>
      <trkpt lat="47.06905" lon="-0.80822">
        <ele>186.874</ele>
        <time>2018-08-11T12:32:19Z</time>
      </trkpt>
      <trkpt lat="47.0691" lon="-0.80817">
        <ele>186.791</ele>
        <time>2018-08-11T12:32:22Z</time>
      </trkpt>
      <trkpt lat="47.06912" lon="-0.80809">
        <ele>186.706</ele>
        <time>2018-08-11T12:32:25Z</time>
      </trkpt>
      <trkpt lat="47.06912" lon="-0.80809">
        <ele>132</ele>
        <time>2018-08-11T12:32:30Z</time>
      </trkpt>
      <trkpt lat="47.06912" lon="-0.80809">
        <ele>132</ele>
        <time>2018-08-11T12:32:44Z</time>
      </trkpt>
      <trkpt lat="47.06918" lon="-0.80785">
        <ele>186.084</ele>
        <time>2018-08-11T12:32:44Z</time>
      </trkpt>
      <trkpt lat="47.06921" lon="-0.80779">
        <ele>185.856</ele>
        <time>2018-08-11T12:32:50Z</time>
      </trkpt>
      <trkpt lat="47.06922" lon="-0.8077">
        <ele>185.697</ele>
        <time>2018-08-11T12:32:54Z</time>
      </trkpt>
      <trkpt lat="47.06927" lon="-0.80765">
        <ele>185.573</ele>
        <time>2018-08-11T12:32:57Z</time>
      </trkpt>
      <trkpt lat="47.0693" lon="-0.80761">
        <ele>185.531</ele>
        <time>2018-08-11T12:32:58Z</time>
      </trkpt>
      <trkpt lat="47.06941" lon="-0.80757">
        <ele>185.403</ele>
        <time>2018-08-11T12:33:01Z</time>
      </trkpt>
      <trkpt lat="47.06944" lon="-0.80756">
        <ele>185.36</ele>
        <time>2018-08-11T12:33:02Z</time>
      </trkpt>
      <trkpt lat="47.06949" lon="-0.8075">
        <ele>185.276</ele>
        <time>2018-08-11T12:33:04Z</time>
      </trkpt>
      <trkpt lat="47.06955" lon="-0.80747">
        <ele>185.154</ele>
        <time>2018-08-11T12:33:07Z</time>
      </trkpt>
      <trkpt lat="47.06959" lon="-0.80745">
        <ele>185.073</ele>
        <time>2018-08-11T12:33:09Z</time>
      </trkpt>
      <trkpt lat="47.06964" lon="-0.80741">
        <ele>184.995</ele>
        <time>2018-08-11T12:33:11Z</time>
      </trkpt>
      <trkpt lat="47.0697" lon="-0.8074">
        <ele>184.919</ele>
        <time>2018-08-11T12:33:13Z</time>
      </trkpt>
      <trkpt lat="47.06973" lon="-0.80739">
        <ele>184.881</ele>
        <time>2018-08-11T12:33:14Z</time>
      </trkpt>
      <trkpt lat="47.06978" lon="-0.80736">
        <ele>184.811</ele>
        <time>2018-08-11T12:33:16Z</time>
      </trkpt>
      <trkpt lat="47.06981" lon="-0.80734">
        <ele>184.746</ele>
        <time>2018-08-11T12:33:18Z</time>
      </trkpt>
      <trkpt lat="47.06984" lon="-0.80731">
        <ele>184.684</ele>
        <time>2018-08-11T12:33:20Z</time>
      </trkpt>
      <trkpt lat="47.06989" lon="-0.80728">
        <ele>184.57</ele>
        <time>2018-08-11T12:33:24Z</time>
      </trkpt>
      <trkpt lat="47.06994" lon="-0.80726">
        <ele>184.461</ele>
        <time>2018-08-11T12:33:28Z</time>
      </trkpt>
      <trkpt lat="47.06998" lon="-0.80723">
        <ele>184.411</ele>
        <time>2018-08-11T12:33:30Z</time>
      </trkpt>
      <trkpt lat="47.07002" lon="-0.80719">
        <ele>184.339</ele>
        <time>2018-08-11T12:33:33Z</time>
      </trkpt>
      <trkpt lat="47.07007" lon="-0.80717">
        <ele>184.271</ele>
        <time>2018-08-11T12:33:36Z</time>
      </trkpt>
      <trkpt lat="47.07012" lon="-0.80716">
        <ele>184.182</ele>
        <time>2018-08-11T12:33:40Z</time>
      </trkpt>
      <trkpt lat="47.07017" lon="-0.80714">
        <ele>184.1</ele>
        <time>2018-08-11T12:33:44Z</time>
      </trkpt>
      <trkpt lat="47.0702" lon="-0.80708">
        <ele>184.043</ele>
        <time>2018-08-11T12:33:47Z</time>
      </trkpt>
      <trkpt lat="47.07023" lon="-0.80703">
        <ele>183.989</ele>
        <time>2018-08-11T12:33:50Z</time>
      </trkpt>
      <trkpt lat="47.07026" lon="-0.80698">
        <ele>183.911</ele>
        <time>2018-08-11T12:33:55Z</time>
      </trkpt>
      <trkpt lat="47.07024" lon="-0.8069">
        <ele>183.826</ele>
        <time>2018-08-11T12:34:02Z</time>
      </trkpt>
      <trkpt lat="47.07026" lon="-0.80684">
        <ele>183.781</ele>
        <time>2018-08-11T12:34:05Z</time>
      </trkpt>
      <trkpt lat="47.0703" lon="-0.80679">
        <ele>183.712</ele>
        <time>2018-08-11T12:34:09Z</time>
      </trkpt>
      <trkpt lat="47.07032" lon="-0.80676">
        <ele>183.656</ele>
        <time>2018-08-11T12:34:12Z</time>
      </trkpt>
      <trkpt lat="47.07035" lon="-0.8067">
        <ele>183.578</ele>
        <time>2018-08-11T12:34:16Z</time>
      </trkpt>
      <trkpt lat="47.07037" lon="-0.80666">
        <ele>183.539</ele>
        <time>2018-08-11T12:34:18Z</time>
      </trkpt>
      <trkpt lat="47.07039" lon="-0.8066">
        <ele>183.46</ele>
        <time>2018-08-11T12:34:22Z</time>
      </trkpt>
      <trkpt lat="47.07043" lon="-0.80654">
        <ele>183.336</ele>
        <time>2018-08-11T12:34:29Z</time>
      </trkpt>
      <trkpt lat="47.07048" lon="-0.80652">
        <ele>183.264</ele>
        <time>2018-08-11T12:34:33Z</time>
      </trkpt>
      <trkpt lat="47.07054" lon="-0.80646">
        <ele>183.192</ele>
        <time>2018-08-11T12:34:37Z</time>
      </trkpt>
      <trkpt lat="47.07056" lon="-0.80644">
        <ele>183.174</ele>
        <time>2018-08-11T12:34:38Z</time>
      </trkpt>
      <trkpt lat="47.07059" lon="-0.80639">
        <ele>183.137</ele>
        <time>2018-08-11T12:34:40Z</time>
      </trkpt>
      <trkpt lat="47.07064" lon="-0.80632">
        <ele>183.081</ele>
        <time>2018-08-11T12:34:43Z</time>
      </trkpt>
      <trkpt lat="47.07065" lon="-0.80629">
        <ele>183.062</ele>
        <time>2018-08-11T12:34:44Z</time>
      </trkpt>
      <trkpt lat="47.07071" lon="-0.80628">
        <ele>183.024</ele>
        <time>2018-08-11T12:34:46Z</time>
      </trkpt>
      <trkpt lat="47.07075" lon="-0.80624">
        <ele>182.968</ele>
        <time>2018-08-11T12:34:49Z</time>
      </trkpt>
      <trkpt lat="47.0708" lon="-0.80623">
        <ele>182.899</ele>
        <time>2018-08-11T12:34:53Z</time>
      </trkpt>
      <trkpt lat="47.07085" lon="-0.80621">
        <ele>182.852</ele>
        <time>2018-08-11T12:34:56Z</time>
      </trkpt>
      <trkpt lat="47.07089" lon="-0.80616">
        <ele>182.802</ele>
        <time>2018-08-11T12:35:00Z</time>
      </trkpt>
      <trkpt lat="47.07093" lon="-0.80612">
        <ele>182.756</ele>
        <time>2018-08-11T12:35:03Z</time>
      </trkpt>
      <trkpt lat="47.07096" lon="-0.80606">
        <ele>182.729</ele>
        <time>2018-08-11T12:35:05Z</time>
      </trkpt>
      <trkpt lat="47.071" lon="-0.80602">
        <ele>182.677</ele>
        <time>2018-08-11T12:35:10Z</time>
      </trkpt>
      <trkpt lat="47.071" lon="-0.80602">
        <ele>132.7</ele>
        <time>2018-08-11T12:35:15Z</time>
      </trkpt>
      <trkpt lat="47.071" lon="-0.80602">
        <ele>132.7</ele>
        <time>2018-08-11T12:35:20Z</time>
      </trkpt>
      <trkpt lat="47.07106" lon="-0.80591">
        <ele>182.57</ele>
        <time>2018-08-11T12:35:20Z</time>
      </trkpt>
      <trkpt lat="47.07106" lon="-0.80591">
        <ele>132.9</ele>
        <time>2018-08-11T12:35:28Z</time>
      </trkpt>
      <trkpt lat="47.07106" lon="-0.80591">
        <ele>132.9</ele>
        <time>2018-08-11T12:37:55Z</time>
      </trkpt>
      <trkpt lat="47.07126" lon="-0.80595">
        <ele>183.518</ele>
        <time>2018-08-11T12:37:56Z</time>
      </trkpt>
      <trkpt lat="47.07131" lon="-0.80591">
        <ele>183.848</ele>
        <time>2018-08-11T12:38:00Z</time>
      </trkpt>
      <trkpt lat="47.07136" lon="-0.80588">
        <ele>184.295</ele>
        <time>2018-08-11T12:38:06Z</time>
      </trkpt>
      <trkpt lat="47.07139" lon="-0.80583">
        <ele>184.557</ele>
        <time>2018-08-11T12:38:10Z</time>
      </trkpt>
      <trkpt lat="47.07141" lon="-0.80576">
        <ele>184.792</ele>
        <time>2018-08-11T12:38:14Z</time>
      </trkpt>
      <trkpt lat="47.07142" lon="-0.80573">
        <ele>184.952</ele>
        <time>2018-08-11T12:38:17Z</time>
      </trkpt>
      <trkpt lat="47.07144" lon="-0.80569">
        <ele>185.1</ele>
        <time>2018-08-11T12:38:20Z</time>
      </trkpt>
      <trkpt lat="47.07148" lon="-0.80563">
        <ele>185.317</ele>
        <time>2018-08-11T12:38:25Z</time>
      </trkpt>
      <trkpt lat="47.07151" lon="-0.80558">
        <ele>185.502</ele>
        <time>2018-08-11T12:38:30Z</time>
      </trkpt>
      <trkpt lat="47.07156" lon="-0.8055">
        <ele>185.599</ele>
        <time>2018-08-11T12:38:33Z</time>
      </trkpt>
      <trkpt lat="47.07158" lon="-0.80547">
        <ele>185.629</ele>
        <time>2018-08-11T12:38:34Z</time>
      </trkpt>
      <trkpt lat="47.0716" lon="-0.80541">
        <ele>185.687</ele>
        <time>2018-08-11T12:38:36Z</time>
      </trkpt>
      <trkpt lat="47.07162" lon="-0.80533">
        <ele>185.797</ele>
        <time>2018-08-11T12:38:42Z</time>
      </trkpt>
      <trkpt lat="47.07164" lon="-0.80527">
        <ele>185.868</ele>
        <time>2018-08-11T12:38:45Z</time>
      </trkpt>
      <trkpt lat="47.07172" lon="-0.80518">
        <ele>185.954</ele>
        <time>2018-08-11T12:38:49Z</time>
      </trkpt>
      <trkpt lat="47.07175" lon="-0.8051">
        <ele>186.013</ele>
        <time>2018-08-11T12:38:52Z</time>
      </trkpt>
      <trkpt lat="47.07178" lon="-0.80504">
        <ele>186.049</ele>
        <time>2018-08-11T12:38:54Z</time>
      </trkpt>
      <trkpt lat="47.0718" lon="-0.80498">
        <ele>186.101</ele>
        <time>2018-08-11T12:38:57Z</time>
      </trkpt>
      <trkpt lat="47.07184" lon="-0.80491">
        <ele>186.164</ele>
        <time>2018-08-11T12:39:01Z</time>
      </trkpt>
      <trkpt lat="47.07186" lon="-0.80482">
        <ele>186.208</ele>
        <time>2018-08-11T12:39:04Z</time>
      </trkpt>
      <trkpt lat="47.07186" lon="-0.80473">
        <ele>186.264</ele>
        <time>2018-08-11T12:39:08Z</time>
      </trkpt>
      <trkpt lat="47.07185" lon="-0.80467">
        <ele>186.29</ele>
        <time>2018-08-11T12:39:10Z</time>
      </trkpt>
      <trkpt lat="47.07186" lon="-0.80459">
        <ele>186.328</ele>
        <time>2018-08-11T12:39:13Z</time>
      </trkpt>
      <trkpt lat="47.07186" lon="-0.80454">
        <ele>186.365</ele>
        <time>2018-08-11T12:39:16Z</time>
      </trkpt>
      <trkpt lat="47.07184" lon="-0.80447">
        <ele>186.398</ele>
        <time>2018-08-11T12:39:19Z</time>
      </trkpt>
      <trkpt lat="47.07183" lon="-0.8044">
        <ele>186.43</ele>
        <time>2018-08-11T12:39:22Z</time>
      </trkpt>
      <trkpt lat="47.07184" lon="-0.80434">
        <ele>186.468</ele>
        <time>2018-08-11T12:39:26Z</time>
      </trkpt>
      <trkpt lat="47.07184" lon="-0.8043">
        <ele>186.493</ele>
        <time>2018-08-11T12:39:29Z</time>
      </trkpt>
      <trkpt lat="47.07184" lon="-0.80423">
        <ele>186.523</ele>
        <time>2018-08-11T12:39:33Z</time>
      </trkpt>
      <trkpt lat="47.07184" lon="-0.80418">
        <ele>186.536</ele>
        <time>2018-08-11T12:39:36Z</time>
      </trkpt>
      <trkpt lat="47.07184" lon="-0.8041">
        <ele>186.557</ele>
        <time>2018-08-11T12:39:40Z</time>
      </trkpt>
      <trkpt lat="47.07185" lon="-0.80402">
        <ele>186.571</ele>
        <time>2018-08-11T12:39:43Z</time>
      </trkpt>
      <trkpt lat="47.07185" lon="-0.80399">
        <ele>186.576</ele>
        <time>2018-08-11T12:39:44Z</time>
      </trkpt>
      <trkpt lat="47.07185" lon="-0.80394">
        <ele>186.586</ele>
        <time>2018-08-11T12:39:46Z</time>
      </trkpt>
      <trkpt lat="47.07185" lon="-0.80386">
        <ele>186.602</ele>
        <time>2018-08-11T12:39:49Z</time>
      </trkpt>
      <trkpt lat="47.07183" lon="-0.80379">
        <ele>186.619</ele>
        <time>2018-08-11T12:39:52Z</time>
      </trkpt>
      <trkpt lat="47.07184" lon="-0.80371">
        <ele>186.637</ele>
        <time>2018-08-11T12:39:55Z</time>
      </trkpt>
      <trkpt lat="47.07185" lon="-0.80365">
        <ele>186.65</ele>
        <time>2018-08-11T12:39:57Z</time>
      </trkpt>
      <trkpt lat="47.07186" lon="-0.80358">
        <ele>186.67</ele>
        <time>2018-08-11T12:40:00Z</time>
      </trkpt>
      <trkpt lat="47.07186" lon="-0.80352">
        <ele>186.699</ele>
        <time>2018-08-11T12:40:04Z</time>
      </trkpt>
      <trkpt lat="47.07185" lon="-0.80344">
        <ele>186.731</ele>
        <time>2018-08-11T12:40:09Z</time>
      </trkpt>
      <trkpt lat="47.07185" lon="-0.80337">
        <ele>186.748</ele>
        <time>2018-08-11T12:40:12Z</time>
      </trkpt>
      <trkpt lat="47.07184" lon="-0.8033">
        <ele>186.77</ele>
        <time>2018-08-11T12:40:16Z</time>
      </trkpt>
      <trkpt lat="47.07184" lon="-0.80323">
        <ele>186.786</ele>
        <time>2018-08-11T12:40:19Z</time>
      </trkpt>
      <trkpt lat="47.07183" lon="-0.80317">
        <ele>186.799</ele>
        <time>2018-08-11T12:40:22Z</time>
      </trkpt>
      <trkpt lat="47.07183" lon="-0.8031">
        <ele>186.81</ele>
        <time>2018-08-11T12:40:25Z</time>
      </trkpt>
      <trkpt lat="47.07183" lon="-0.80305">
        <ele>186.816</ele>
        <time>2018-08-11T12:40:27Z</time>
      </trkpt>
      <trkpt lat="47.07184" lon="-0.80297">
        <ele>186.828</ele>
        <time>2018-08-11T12:40:31Z</time>
      </trkpt>
      <trkpt lat="47.07187" lon="-0.80291">
        <ele>186.837</ele>
        <time>2018-08-11T12:40:34Z</time>
      </trkpt>
      <trkpt lat="47.07189" lon="-0.80286">
        <ele>186.844</ele>
        <time>2018-08-11T12:40:36Z</time>
      </trkpt>
      <trkpt lat="47.07192" lon="-0.80281">
        <ele>186.858</ele>
        <time>2018-08-11T12:40:40Z</time>
      </trkpt>
      <trkpt lat="47.07194" lon="-0.80277">
        <ele>186.868</ele>
        <time>2018-08-11T12:40:43Z</time>
      </trkpt>
      <trkpt lat="47.07196" lon="-0.8027">
        <ele>186.882</ele>
        <time>2018-08-11T12:40:47Z</time>
      </trkpt>
      <trkpt lat="47.07197" lon="-0.80262">
        <ele>186.897</ele>
        <time>2018-08-11T12:40:50Z</time>
      </trkpt>
      <trkpt lat="47.07197" lon="-0.80257">
        <ele>186.908</ele>
        <time>2018-08-11T12:40:52Z</time>
      </trkpt>
      <trkpt lat="47.07198" lon="-0.80253">
        <ele>186.918</ele>
        <time>2018-08-11T12:40:54Z</time>
      </trkpt>
      <trkpt lat="47.07199" lon="-0.80245">
        <ele>186.946</ele>
        <time>2018-08-11T12:40:59Z</time>
      </trkpt>
      <trkpt lat="47.07199" lon="-0.80238">
        <ele>186.964</ele>
        <time>2018-08-11T12:41:02Z</time>
      </trkpt>
      <trkpt lat="47.07198" lon="-0.80228">
        <ele>186.989</ele>
        <time>2018-08-11T12:41:06Z</time>
      </trkpt>
      <trkpt lat="47.07198" lon="-0.80225">
        <ele>186.996</ele>
        <time>2018-08-11T12:41:07Z</time>
      </trkpt>
      <trkpt lat="47.07197" lon="-0.80218">
        <ele>187.021</ele>
        <time>2018-08-11T12:41:11Z</time>
      </trkpt>
      <trkpt lat="47.07197" lon="-0.80214">
        <ele>187.033</ele>
        <time>2018-08-11T12:41:13Z</time>
      </trkpt>
      <trkpt lat="47.07198" lon="-0.80206">
        <ele>187.059</ele>
        <time>2018-08-11T12:41:17Z</time>
      </trkpt>
      <trkpt lat="47.072" lon="-0.80198">
        <ele>187.084</ele>
        <time>2018-08-11T12:41:21Z</time>
      </trkpt>
      <trkpt lat="47.07201" lon="-0.80191">
        <ele>187.105</ele>
        <time>2018-08-11T12:41:24Z</time>
      </trkpt>
      <trkpt lat="47.07201" lon="-0.80183">
        <ele>187.139</ele>
        <time>2018-08-11T12:41:29Z</time>
      </trkpt>
      <trkpt lat="47.07202" lon="-0.80175">
        <ele>187.171</ele>
        <time>2018-08-11T12:41:34Z</time>
      </trkpt>
      <trkpt lat="47.07202" lon="-0.80171">
        <ele>187.185</ele>
        <time>2018-08-11T12:41:36Z</time>
      </trkpt>
      <trkpt lat="47.07203" lon="-0.80162">
        <ele>187.22</ele>
        <time>2018-08-11T12:41:41Z</time>
      </trkpt>
      <trkpt lat="47.07204" lon="-0.80155">
        <ele>187.243</ele>
        <time>2018-08-11T12:41:44Z</time>
      </trkpt>
      <trkpt lat="47.07204" lon="-0.80147">
        <ele>187.263</ele>
        <time>2018-08-11T12:41:47Z</time>
      </trkpt>
      <trkpt lat="47.07205" lon="-0.80141">
        <ele>187.282</ele>
        <time>2018-08-11T12:41:50Z</time>
      </trkpt>
      <trkpt lat="47.07204" lon="-0.80134">
        <ele>187.309</ele>
        <time>2018-08-11T12:41:54Z</time>
      </trkpt>
      <trkpt lat="47.07205" lon="-0.80126">
        <ele>187.338</ele>
        <time>2018-08-11T12:41:59Z</time>
      </trkpt>
      <trkpt lat="47.07205" lon="-0.80122">
        <ele>187.349</ele>
        <time>2018-08-11T12:42:01Z</time>
      </trkpt>
      <trkpt lat="47.07205" lon="-0.80115">
        <ele>187.367</ele>
        <time>2018-08-11T12:42:04Z</time>
      </trkpt>
      <trkpt lat="47.07206" lon="-0.80109">
        <ele>187.385</ele>
        <time>2018-08-11T12:42:07Z</time>
      </trkpt>
      <trkpt lat="47.07207" lon="-0.80103">
        <ele>187.402</ele>
        <time>2018-08-11T12:42:10Z</time>
      </trkpt>
      <trkpt lat="47.07208" lon="-0.80096">
        <ele>187.419</ele>
        <time>2018-08-11T12:42:13Z</time>
      </trkpt>
      <trkpt lat="47.07208" lon="-0.80087">
        <ele>187.443</ele>
        <time>2018-08-11T12:42:17Z</time>
      </trkpt>
      <trkpt lat="47.07208" lon="-0.80082">
        <ele>187.462</ele>
        <time>2018-08-11T12:42:20Z</time>
      </trkpt>
      <trkpt lat="47.07207" lon="-0.80074">
        <ele>187.494</ele>
        <time>2018-08-11T12:42:24Z</time>
      </trkpt>
      <trkpt lat="47.07208" lon="-0.80065">
        <ele>187.534</ele>
        <time>2018-08-11T12:42:28Z</time>
      </trkpt>
      <trkpt lat="47.07208" lon="-0.80061">
        <ele>187.555</ele>
        <time>2018-08-11T12:42:30Z</time>
      </trkpt>
      <trkpt lat="47.07208" lon="-0.80057">
        <ele>187.586</ele>
        <time>2018-08-11T12:42:33Z</time>
      </trkpt>
      <trkpt lat="47.07208" lon="-0.80053">
        <ele>187.606</ele>
        <time>2018-08-11T12:42:35Z</time>
      </trkpt>
      <trkpt lat="47.0721" lon="-0.80047">
        <ele>187.638</ele>
        <time>2018-08-11T12:42:38Z</time>
      </trkpt>
      <trkpt lat="47.07211" lon="-0.80043">
        <ele>187.659</ele>
        <time>2018-08-11T12:42:40Z</time>
      </trkpt>
      <trkpt lat="47.07213" lon="-0.80037">
        <ele>187.702</ele>
        <time>2018-08-11T12:42:44Z</time>
      </trkpt>
      <trkpt lat="47.07213" lon="-0.80029">
        <ele>187.734</ele>
        <time>2018-08-11T12:42:47Z</time>
      </trkpt>
      <trkpt lat="47.07213" lon="-0.80024">
        <ele>187.756</ele>
        <time>2018-08-11T12:42:49Z</time>
      </trkpt>
      <trkpt lat="47.07213" lon="-0.80018">
        <ele>187.79</ele>
        <time>2018-08-11T12:42:52Z</time>
      </trkpt>
      <trkpt lat="47.07212" lon="-0.80012">
        <ele>187.814</ele>
        <time>2018-08-11T12:42:54Z</time>
      </trkpt>
      <trkpt lat="47.07212" lon="-0.80008">
        <ele>187.838</ele>
        <time>2018-08-11T12:42:56Z</time>
      </trkpt>
      <trkpt lat="47.07214" lon="-0.80001">
        <ele>187.884</ele>
        <time>2018-08-11T12:43:00Z</time>
      </trkpt>
      <trkpt lat="47.07214" lon="-0.79993">
        <ele>187.937</ele>
        <time>2018-08-11T12:43:05Z</time>
      </trkpt>
      <trkpt lat="47.07213" lon="-0.79986">
        <ele>187.967</ele>
        <time>2018-08-11T12:43:08Z</time>
      </trkpt>
      <trkpt lat="47.07212" lon="-0.79982">
        <ele>187.986</ele>
        <time>2018-08-11T12:43:10Z</time>
      </trkpt>
      <trkpt lat="47.07209" lon="-0.79975">
        <ele>188.034</ele>
        <time>2018-08-11T12:43:15Z</time>
      </trkpt>
      <trkpt lat="47.0721" lon="-0.79967">
        <ele>188.071</ele>
        <time>2018-08-11T12:43:19Z</time>
      </trkpt>
      <trkpt lat="47.07212" lon="-0.7996">
        <ele>188.111</ele>
        <time>2018-08-11T12:43:24Z</time>
      </trkpt>
      <trkpt lat="47.07215" lon="-0.79954">
        <ele>188.132</ele>
        <time>2018-08-11T12:43:27Z</time>
      </trkpt>
      <trkpt lat="47.07216" lon="-0.79946">
        <ele>188.16</ele>
        <time>2018-08-11T12:43:31Z</time>
      </trkpt>
      <trkpt lat="47.07215" lon="-0.79939">
        <ele>188.179</ele>
        <time>2018-08-11T12:43:34Z</time>
      </trkpt>
      <trkpt lat="47.07215" lon="-0.79933">
        <ele>188.192</ele>
        <time>2018-08-11T12:43:36Z</time>
      </trkpt>
      <trkpt lat="47.07213" lon="-0.79925">
        <ele>188.212</ele>
        <time>2018-08-11T12:43:39Z</time>
      </trkpt>
      <trkpt lat="47.07212" lon="-0.79917">
        <ele>188.233</ele>
        <time>2018-08-11T12:43:42Z</time>
      </trkpt>
      <trkpt lat="47.07211" lon="-0.79911">
        <ele>188.262</ele>
        <time>2018-08-11T12:43:46Z</time>
      </trkpt>
      <trkpt lat="47.0721" lon="-0.79906">
        <ele>188.277</ele>
        <time>2018-08-11T12:43:48Z</time>
      </trkpt>
      <trkpt lat="47.07208" lon="-0.79899">
        <ele>188.315</ele>
        <time>2018-08-11T12:43:53Z</time>
      </trkpt>
      <trkpt lat="47.07206" lon="-0.79892">
        <ele>188.353</ele>
        <time>2018-08-11T12:43:58Z</time>
      </trkpt>
      <trkpt lat="47.07202" lon="-0.79884">
        <ele>188.374</ele>
        <time>2018-08-11T12:44:01Z</time>
      </trkpt>
      <trkpt lat="47.072" lon="-0.79879">
        <ele>188.394</ele>
        <time>2018-08-11T12:44:04Z</time>
      </trkpt>
      <trkpt lat="47.07198" lon="-0.79873">
        <ele>188.412</ele>
        <time>2018-08-11T12:44:07Z</time>
      </trkpt>
      <trkpt lat="47.07197" lon="-0.79866">
        <ele>188.424</ele>
        <time>2018-08-11T12:44:09Z</time>
      </trkpt>
      <trkpt lat="47.07197" lon="-0.7986">
        <ele>188.443</ele>
        <time>2018-08-11T12:44:12Z</time>
      </trkpt>
      <trkpt lat="47.07199" lon="-0.79852">
        <ele>188.46</ele>
        <time>2018-08-11T12:44:15Z</time>
      </trkpt>
      <trkpt lat="47.07202" lon="-0.79844">
        <ele>188.481</ele>
        <time>2018-08-11T12:44:19Z</time>
      </trkpt>
      <trkpt lat="47.07203" lon="-0.79836">
        <ele>188.495</ele>
        <time>2018-08-11T12:44:22Z</time>
      </trkpt>
      <trkpt lat="47.07203" lon="-0.79829">
        <ele>188.509</ele>
        <time>2018-08-11T12:44:25Z</time>
      </trkpt>
      <trkpt lat="47.07205" lon="-0.7982">
        <ele>188.525</ele>
        <time>2018-08-11T12:44:28Z</time>
      </trkpt>
      <trkpt lat="47.07205" lon="-0.79812">
        <ele>188.554</ele>
        <time>2018-08-11T12:44:34Z</time>
      </trkpt>
      <trkpt lat="47.07206" lon="-0.79805">
        <ele>188.571</ele>
        <time>2018-08-11T12:44:37Z</time>
      </trkpt>
      <trkpt lat="47.07206" lon="-0.79802">
        <ele>188.582</ele>
        <time>2018-08-11T12:44:39Z</time>
      </trkpt>
      <trkpt lat="47.07207" lon="-0.79791">
        <ele>188.604</ele>
        <time>2018-08-11T12:44:43Z</time>
      </trkpt>
      <trkpt lat="47.07209" lon="-0.79784">
        <ele>188.613</ele>
        <time>2018-08-11T12:44:46Z</time>
      </trkpt>
      <trkpt lat="47.07211" lon="-0.79779">
        <ele>188.616</ele>
        <time>2018-08-11T12:44:48Z</time>
      </trkpt>
      <trkpt lat="47.07212" lon="-0.79772">
        <ele>188.625</ele>
        <time>2018-08-11T12:44:52Z</time>
      </trkpt>
      <trkpt lat="47.07213" lon="-0.79765">
        <ele>188.635</ele>
        <time>2018-08-11T12:44:57Z</time>
      </trkpt>
      <trkpt lat="47.07213" lon="-0.7976">
        <ele>188.639</ele>
        <time>2018-08-11T12:44:59Z</time>
      </trkpt>
      <trkpt lat="47.0721" lon="-0.79755">
        <ele>188.649</ele>
        <time>2018-08-11T12:45:03Z</time>
      </trkpt>
      <trkpt lat="47.07208" lon="-0.79749">
        <ele>188.665</ele>
        <time>2018-08-11T12:45:08Z</time>
      </trkpt>
      <trkpt lat="47.07207" lon="-0.79742">
        <ele>188.679</ele>
        <time>2018-08-11T12:45:12Z</time>
      </trkpt>
      <trkpt lat="47.07209" lon="-0.79733">
        <ele>188.688</ele>
        <time>2018-08-11T12:45:16Z</time>
      </trkpt>
      <trkpt lat="47.07209" lon="-0.7973">
        <ele>188.691</ele>
        <time>2018-08-11T12:45:17Z</time>
      </trkpt>
      <trkpt lat="47.07211" lon="-0.79722">
        <ele>188.706</ele>
        <time>2018-08-11T12:45:22Z</time>
      </trkpt>
      <trkpt lat="47.07212" lon="-0.79718">
        <ele>188.714</ele>
        <time>2018-08-11T12:45:24Z</time>
      </trkpt>
      <trkpt lat="47.07213" lon="-0.79712">
        <ele>188.726</ele>
        <time>2018-08-11T12:45:27Z</time>
      </trkpt>
      <trkpt lat="47.07213" lon="-0.79709">
        <ele>188.73</ele>
        <time>2018-08-11T12:45:28Z</time>
      </trkpt>
      <trkpt lat="47.07213" lon="-0.79699">
        <ele>188.744</ele>
        <time>2018-08-11T12:45:33Z</time>
      </trkpt>
      <trkpt lat="47.07214" lon="-0.79692">
        <ele>188.752</ele>
        <time>2018-08-11T12:45:36Z</time>
      </trkpt>
      <trkpt lat="47.07216" lon="-0.79683">
        <ele>188.76</ele>
        <time>2018-08-11T12:45:38Z</time>
      </trkpt>
      <trkpt lat="47.07219" lon="-0.79675">
        <ele>188.783</ele>
        <time>2018-08-11T12:45:43Z</time>
      </trkpt>
      <trkpt lat="47.0722" lon="-0.7967">
        <ele>188.809</ele>
        <time>2018-08-11T12:45:47Z</time>
      </trkpt>
      <trkpt lat="47.0722" lon="-0.79662">
        <ele>188.832</ele>
        <time>2018-08-11T12:45:50Z</time>
      </trkpt>
      <trkpt lat="47.07222" lon="-0.79655">
        <ele>188.867</ele>
        <time>2018-08-11T12:45:54Z</time>
      </trkpt>
      <trkpt lat="47.07226" lon="-0.79649">
        <ele>188.918</ele>
        <time>2018-08-11T12:46:00Z</time>
      </trkpt>
      <trkpt lat="47.07228" lon="-0.79642">
        <ele>188.945</ele>
        <time>2018-08-11T12:46:03Z</time>
      </trkpt>
      <trkpt lat="47.07233" lon="-0.79637">
        <ele>188.969</ele>
        <time>2018-08-11T12:46:06Z</time>
      </trkpt>
      <trkpt lat="47.07235" lon="-0.79635">
        <ele>188.983</ele>
        <time>2018-08-11T12:46:08Z</time>
      </trkpt>
      <trkpt lat="47.0724" lon="-0.79632">
        <ele>189.003</ele>
        <time>2018-08-11T12:46:11Z</time>
      </trkpt>
      <trkpt lat="47.07246" lon="-0.79626">
        <ele>189.031</ele>
        <time>2018-08-11T12:46:15Z</time>
      </trkpt>
      <trkpt lat="47.0725" lon="-0.79621">
        <ele>189.056</ele>
        <time>2018-08-11T12:46:18Z</time>
      </trkpt>
      <trkpt lat="47.07253" lon="-0.79616">
        <ele>189.081</ele>
        <time>2018-08-11T12:46:21Z</time>
      </trkpt>
      <trkpt lat="47.07256" lon="-0.79611">
        <ele>189.105</ele>
        <time>2018-08-11T12:46:24Z</time>
      </trkpt>
      <trkpt lat="47.07262" lon="-0.79607">
        <ele>189.127</ele>
        <time>2018-08-11T12:46:27Z</time>
      </trkpt>
      <trkpt lat="47.07265" lon="-0.79601">
        <ele>189.159</ele>
        <time>2018-08-11T12:46:32Z</time>
      </trkpt>
      <trkpt lat="47.07267" lon="-0.79597">
        <ele>189.179</ele>
        <time>2018-08-11T12:46:35Z</time>
      </trkpt>
      <trkpt lat="47.07269" lon="-0.79593">
        <ele>189.198</ele>
        <time>2018-08-11T12:46:37Z</time>
      </trkpt>
      <trkpt lat="47.07273" lon="-0.79589">
        <ele>189.257</ele>
        <time>2018-08-11T12:46:43Z</time>
      </trkpt>
      <trkpt lat="47.07277" lon="-0.79583">
        <ele>189.286</ele>
        <time>2018-08-11T12:46:46Z</time>
      </trkpt>
      <trkpt lat="47.07282" lon="-0.79577">
        <ele>189.309</ele>
        <time>2018-08-11T12:46:48Z</time>
      </trkpt>
      <trkpt lat="47.07284" lon="-0.79575">
        <ele>189.32</ele>
        <time>2018-08-11T12:46:49Z</time>
      </trkpt>
      <trkpt lat="47.07288" lon="-0.79568">
        <ele>189.357</ele>
        <time>2018-08-11T12:46:52Z</time>
      </trkpt>
      <trkpt lat="47.07291" lon="-0.79563">
        <ele>189.382</ele>
        <time>2018-08-11T12:46:54Z</time>
      </trkpt>
      <trkpt lat="47.07294" lon="-0.79555">
        <ele>189.409</ele>
        <time>2018-08-11T12:46:56Z</time>
      </trkpt>
      <trkpt lat="47.07298" lon="-0.79549">
        <ele>189.462</ele>
        <time>2018-08-11T12:47:00Z</time>
      </trkpt>
      <trkpt lat="47.073" lon="-0.79546">
        <ele>189.489</ele>
        <time>2018-08-11T12:47:02Z</time>
      </trkpt>
      <trkpt lat="47.07302" lon="-0.79543">
        <ele>189.557</ele>
        <time>2018-08-11T12:47:07Z</time>
      </trkpt>
      <trkpt lat="47.07301" lon="-0.79536">
        <ele>189.621</ele>
        <time>2018-08-11T12:47:12Z</time>
      </trkpt>
      <trkpt lat="47.07301" lon="-0.79528">
        <ele>189.685</ele>
        <time>2018-08-11T12:47:17Z</time>
      </trkpt>
      <trkpt lat="47.07303" lon="-0.79521">
        <ele>189.75</ele>
        <time>2018-08-11T12:47:25Z</time>
      </trkpt>
      <trkpt lat="47.07309" lon="-0.79516">
        <ele>189.769</ele>
        <time>2018-08-11T12:47:28Z</time>
      </trkpt>
      <trkpt lat="47.07312" lon="-0.79514">
        <ele>189.777</ele>
        <time>2018-08-11T12:47:29Z</time>
      </trkpt>
      <trkpt lat="47.07319" lon="-0.7951">
        <ele>189.795</ele>
        <time>2018-08-11T12:47:31Z</time>
      </trkpt>
      <trkpt lat="47.07325" lon="-0.79502">
        <ele>189.833</ele>
        <time>2018-08-11T12:47:35Z</time>
      </trkpt>
      <trkpt lat="47.0733" lon="-0.79498">
        <ele>189.876</ele>
        <time>2018-08-11T12:47:39Z</time>
      </trkpt>
      <trkpt lat="47.07333" lon="-0.79491">
        <ele>189.941</ele>
        <time>2018-08-11T12:47:44Z</time>
      </trkpt>
      <trkpt lat="47.07334" lon="-0.79488">
        <ele>189.969</ele>
        <time>2018-08-11T12:47:46Z</time>
      </trkpt>
      <trkpt lat="47.07338" lon="-0.79483">
        <ele>190.043</ele>
        <time>2018-08-11T12:47:51Z</time>
      </trkpt>
      <trkpt lat="47.0734" lon="-0.79477">
        <ele>190.074</ele>
        <time>2018-08-11T12:47:53Z</time>
      </trkpt>
      <trkpt lat="47.07342" lon="-0.79469">
        <ele>190.122</ele>
        <time>2018-08-11T12:47:56Z</time>
      </trkpt>
      <trkpt lat="47.07345" lon="-0.79464">
        <ele>190.19</ele>
        <time>2018-08-11T12:48:00Z</time>
      </trkpt>
      <trkpt lat="47.07348" lon="-0.79458">
        <ele>190.279</ele>
        <time>2018-08-11T12:48:05Z</time>
      </trkpt>
      <trkpt lat="47.0735" lon="-0.79453">
        <ele>190.315</ele>
        <time>2018-08-11T12:48:07Z</time>
      </trkpt>
      <trkpt lat="47.07353" lon="-0.79448">
        <ele>190.395</ele>
        <time>2018-08-11T12:48:11Z</time>
      </trkpt>
      <trkpt lat="47.07356" lon="-0.79441">
        <ele>190.474</ele>
        <time>2018-08-11T12:48:15Z</time>
      </trkpt>
      <trkpt lat="47.07359" lon="-0.79435">
        <ele>190.552</ele>
        <time>2018-08-11T12:48:19Z</time>
      </trkpt>
      <trkpt lat="47.07361" lon="-0.79432">
        <ele>190.593</ele>
        <time>2018-08-11T12:48:21Z</time>
      </trkpt>
      <trkpt lat="47.07365" lon="-0.79426">
        <ele>190.67</ele>
        <time>2018-08-11T12:48:25Z</time>
      </trkpt>
      <trkpt lat="47.07367" lon="-0.79419">
        <ele>190.726</ele>
        <time>2018-08-11T12:48:28Z</time>
      </trkpt>
      <trkpt lat="47.07368" lon="-0.79412">
        <ele>190.819</ele>
        <time>2018-08-11T12:48:35Z</time>
      </trkpt>
      <trkpt lat="47.07372" lon="-0.79407">
        <ele>190.868</ele>
        <time>2018-08-11T12:48:38Z</time>
      </trkpt>
      <trkpt lat="47.07374" lon="-0.79401">
        <ele>190.917</ele>
        <time>2018-08-11T12:48:41Z</time>
      </trkpt>
      <trkpt lat="47.07378" lon="-0.79398">
        <ele>190.967</ele>
        <time>2018-08-11T12:48:44Z</time>
      </trkpt>
      <trkpt lat="47.07383" lon="-0.79397">
        <ele>191.032</ele>
        <time>2018-08-11T12:48:48Z</time>
      </trkpt>
      <trkpt lat="47.07386" lon="-0.79391">
        <ele>191.126</ele>
        <time>2018-08-11T12:48:54Z</time>
      </trkpt>
      <trkpt lat="47.07391" lon="-0.79384">
        <ele>191.169</ele>
        <time>2018-08-11T12:48:57Z</time>
      </trkpt>
      <trkpt lat="47.07394" lon="-0.79379">
        <ele>191.196</ele>
        <time>2018-08-11T12:48:59Z</time>
      </trkpt>
      <trkpt lat="47.07396" lon="-0.79374">
        <ele>191.248</ele>
        <time>2018-08-11T12:49:03Z</time>
      </trkpt>
      <trkpt lat="47.074" lon="-0.7937">
        <ele>191.283</ele>
        <time>2018-08-11T12:49:06Z</time>
      </trkpt>
      <trkpt lat="47.07403" lon="-0.79368">
        <ele>191.307</ele>
        <time>2018-08-11T12:49:08Z</time>
      </trkpt>
      <trkpt lat="47.07406" lon="-0.79363">
        <ele>191.354</ele>
        <time>2018-08-11T12:49:12Z</time>
      </trkpt>
      <trkpt lat="47.07408" lon="-0.79357">
        <ele>191.4</ele>
        <time>2018-08-11T12:49:16Z</time>
      </trkpt>
      <trkpt lat="47.07409" lon="-0.79353">
        <ele>191.433</ele>
        <time>2018-08-11T12:49:19Z</time>
      </trkpt>
      <trkpt lat="47.07414" lon="-0.79349">
        <ele>191.479</ele>
        <time>2018-08-11T12:49:23Z</time>
      </trkpt>
      <trkpt lat="47.07416" lon="-0.79347">
        <ele>191.491</ele>
        <time>2018-08-11T12:49:24Z</time>
      </trkpt>
      <trkpt lat="47.0742" lon="-0.79341">
        <ele>191.524</ele>
        <time>2018-08-11T12:49:27Z</time>
      </trkpt>
      <trkpt lat="47.07424" lon="-0.79337">
        <ele>191.557</ele>
        <time>2018-08-11T12:49:30Z</time>
      </trkpt>
      <trkpt lat="47.07426" lon="-0.7933">
        <ele>191.589</ele>
        <time>2018-08-11T12:49:33Z</time>
      </trkpt>
      <trkpt lat="47.0743" lon="-0.79323">
        <ele>191.66</ele>
        <time>2018-08-11T12:49:40Z</time>
      </trkpt>
      <trkpt lat="47.07433" lon="-0.79319">
        <ele>191.678</ele>
        <time>2018-08-11T12:49:42Z</time>
      </trkpt>
      <trkpt lat="47.07437" lon="-0.79313">
        <ele>191.701</ele>
        <time>2018-08-11T12:49:45Z</time>
      </trkpt>
      <trkpt lat="47.07439" lon="-0.7931">
        <ele>191.714</ele>
        <time>2018-08-11T12:49:47Z</time>
      </trkpt>
      <trkpt lat="47.07439" lon="-0.79303">
        <ele>191.745</ele>
        <time>2018-08-11T12:49:53Z</time>
      </trkpt>
      <trkpt lat="47.07443" lon="-0.79297">
        <ele>191.765</ele>
        <time>2018-08-11T12:49:56Z</time>
      </trkpt>
      <trkpt lat="47.07446" lon="-0.79292">
        <ele>191.79</ele>
        <time>2018-08-11T12:49:59Z</time>
      </trkpt>
      <trkpt lat="47.07449" lon="-0.79288">
        <ele>191.809</ele>
        <time>2018-08-11T12:50:01Z</time>
      </trkpt>
      <trkpt lat="47.07451" lon="-0.79278">
        <ele>191.84</ele>
        <time>2018-08-11T12:50:04Z</time>
      </trkpt>
      <trkpt lat="47.07454" lon="-0.79271">
        <ele>191.861</ele>
        <time>2018-08-11T12:50:06Z</time>
      </trkpt>
      <trkpt lat="47.07459" lon="-0.79265">
        <ele>191.933</ele>
        <time>2018-08-11T12:50:12Z</time>
      </trkpt>
      <trkpt lat="47.07462" lon="-0.79258">
        <ele>191.983</ele>
        <time>2018-08-11T12:50:16Z</time>
      </trkpt>
      <trkpt lat="47.07463" lon="-0.79255">
        <ele>191.997</ele>
        <time>2018-08-11T12:50:17Z</time>
      </trkpt>
      <trkpt lat="47.07465" lon="-0.79249">
        <ele>192.065</ele>
        <time>2018-08-11T12:50:22Z</time>
      </trkpt>
      <trkpt lat="47.07471" lon="-0.79244">
        <ele>192.123</ele>
        <time>2018-08-11T12:50:26Z</time>
      </trkpt>
      <trkpt lat="47.07475" lon="-0.79238">
        <ele>192.196</ele>
        <time>2018-08-11T12:50:31Z</time>
      </trkpt>
      <trkpt lat="47.07482" lon="-0.79231">
        <ele>192.237</ele>
        <time>2018-08-11T12:50:34Z</time>
      </trkpt>
      <trkpt lat="47.07485" lon="-0.79227">
        <ele>192.253</ele>
        <time>2018-08-11T12:50:35Z</time>
      </trkpt>
      <trkpt lat="47.07488" lon="-0.79221">
        <ele>192.288</ele>
        <time>2018-08-11T12:50:37Z</time>
      </trkpt>
      <trkpt lat="47.0749" lon="-0.79217">
        <ele>192.329</ele>
        <time>2018-08-11T12:50:39Z</time>
      </trkpt>
      <trkpt lat="47.07491" lon="-0.79214">
        <ele>192.353</ele>
        <time>2018-08-11T12:50:40Z</time>
      </trkpt>
      <trkpt lat="47.07494" lon="-0.79207">
        <ele>192.495</ele>
        <time>2018-08-11T12:50:45Z</time>
      </trkpt>
      <trkpt lat="47.07498" lon="-0.79201">
        <ele>192.59</ele>
        <time>2018-08-11T12:50:48Z</time>
      </trkpt>
      <trkpt lat="47.075" lon="-0.79198">
        <ele>192.686</ele>
        <time>2018-08-11T12:50:51Z</time>
      </trkpt>
      <trkpt lat="47.07501" lon="-0.79192">
        <ele>192.829</ele>
        <time>2018-08-11T12:50:55Z</time>
      </trkpt>
      <trkpt lat="47.07506" lon="-0.79187">
        <ele>193.012</ele>
        <time>2018-08-11T12:51:00Z</time>
      </trkpt>
      <trkpt lat="47.07509" lon="-0.7918">
        <ele>193.145</ele>
        <time>2018-08-11T12:51:04Z</time>
      </trkpt>
      <trkpt lat="47.07516" lon="-0.79171">
        <ele>193.405</ele>
        <time>2018-08-11T12:51:13Z</time>
      </trkpt>
      <trkpt lat="47.07519" lon="-0.79166">
        <ele>193.479</ele>
        <time>2018-08-11T12:51:16Z</time>
      </trkpt>
      <trkpt lat="47.07522" lon="-0.79161">
        <ele>193.526</ele>
        <time>2018-08-11T12:51:18Z</time>
      </trkpt>
      <trkpt lat="47.07525" lon="-0.79155">
        <ele>193.595</ele>
        <time>2018-08-11T12:51:21Z</time>
      </trkpt>
      <trkpt lat="47.07525" lon="-0.79155">
        <ele>156</ele>
        <time>2018-08-11T12:51:27Z</time>
      </trkpt>
      <trkpt lat="47.07525" lon="-0.79155">
        <ele>156</ele>
        <time>2018-08-11T12:51:33Z</time>
      </trkpt>
      <trkpt lat="47.07533" lon="-0.79148">
        <ele>193.832</ele>
        <time>2018-08-11T12:51:33Z</time>
      </trkpt>
      <trkpt lat="47.07539" lon="-0.79143">
        <ele>193.904</ele>
        <time>2018-08-11T12:51:37Z</time>
      </trkpt>
      <trkpt lat="47.07543" lon="-0.79138">
        <ele>193.988</ele>
        <time>2018-08-11T12:51:42Z</time>
      </trkpt>
      <trkpt lat="47.07542" lon="-0.79131">
        <ele>194.05</ele>
        <time>2018-08-11T12:51:49Z</time>
      </trkpt>
      <trkpt lat="47.07544" lon="-0.79119">
        <ele>194.085</ele>
        <time>2018-08-11T12:51:53Z</time>
      </trkpt>
      <trkpt lat="47.07546" lon="-0.79111">
        <ele>194.093</ele>
        <time>2018-08-11T12:51:55Z</time>
      </trkpt>
      <trkpt lat="47.0755" lon="-0.79106">
        <ele>194.119</ele>
        <time>2018-08-11T12:51:58Z</time>
      </trkpt>
      <trkpt lat="47.07554" lon="-0.79102">
        <ele>194.147</ele>
        <time>2018-08-11T12:52:02Z</time>
      </trkpt>
      <trkpt lat="47.07557" lon="-0.79097">
        <ele>194.164</ele>
        <time>2018-08-11T12:52:05Z</time>
      </trkpt>
      <trkpt lat="47.07559" lon="-0.7909">
        <ele>194.176</ele>
        <time>2018-08-11T12:52:09Z</time>
      </trkpt>
      <trkpt lat="47.0756" lon="-0.79085">
        <ele>194.196</ele>
        <time>2018-08-11T12:52:12Z</time>
      </trkpt>
      <trkpt lat="47.0756" lon="-0.79077">
        <ele>194.216</ele>
        <time>2018-08-11T12:52:15Z</time>
      </trkpt>
      <trkpt lat="47.0756" lon="-0.79077">
        <ele>156</ele>
        <time>2018-08-11T12:52:22Z</time>
      </trkpt>
      <trkpt lat="47.0756" lon="-0.79077">
        <ele>156</ele>
        <time>2018-08-11T12:53:25Z</time>
      </trkpt>
      <trkpt lat="47.07572" lon="-0.79055">
        <ele>194.807</ele>
        <time>2018-08-11T12:53:25Z</time>
      </trkpt>
      <trkpt lat="47.07574" lon="-0.79045">
        <ele>194.835</ele>
        <time>2018-08-11T12:53:28Z</time>
      </trkpt>
      <trkpt lat="47.07577" lon="-0.79039">
        <ele>194.849</ele>
        <time>2018-08-11T12:53:30Z</time>
      </trkpt>
      <trkpt lat="47.07579" lon="-0.79034">
        <ele>194.87</ele>
        <time>2018-08-11T12:53:33Z</time>
      </trkpt>
      <trkpt lat="47.07581" lon="-0.79032">
        <ele>194.877</ele>
        <time>2018-08-11T12:53:34Z</time>
      </trkpt>
      <trkpt lat="47.07585" lon="-0.79028">
        <ele>194.897</ele>
        <time>2018-08-11T12:53:37Z</time>
      </trkpt>
      <trkpt lat="47.07588" lon="-0.79021">
        <ele>194.919</ele>
        <time>2018-08-11T12:53:41Z</time>
      </trkpt>
      <trkpt lat="47.07592" lon="-0.79014">
        <ele>194.928</ele>
        <time>2018-08-11T12:53:44Z</time>
      </trkpt>
      <trkpt lat="47.07595" lon="-0.79009">
        <ele>194.93</ele>
        <time>2018-08-11T12:53:45Z</time>
      </trkpt>
      <trkpt lat="47.076" lon="-0.79006">
        <ele>194.934</ele>
        <time>2018-08-11T12:53:47Z</time>
      </trkpt>
      <trkpt lat="47.07606" lon="-0.78999">
        <ele>194.941</ele>
        <time>2018-08-11T12:53:50Z</time>
      </trkpt>
      <trkpt lat="47.07611" lon="-0.78993">
        <ele>194.951</ele>
        <time>2018-08-11T12:53:53Z</time>
      </trkpt>
      <trkpt lat="47.07614" lon="-0.7899">
        <ele>194.957</ele>
        <time>2018-08-11T12:53:55Z</time>
      </trkpt>
      <trkpt lat="47.07617" lon="-0.78986">
        <ele>194.964</ele>
        <time>2018-08-11T12:53:57Z</time>
      </trkpt>
      <trkpt lat="47.0762" lon="-0.78979">
        <ele>194.982</ele>
        <time>2018-08-11T12:54:00Z</time>
      </trkpt>
      <trkpt lat="47.07624" lon="-0.78973">
        <ele>195.006</ele>
        <time>2018-08-11T12:54:03Z</time>
      </trkpt>
      <trkpt lat="47.07626" lon="-0.7897">
        <ele>195.024</ele>
        <time>2018-08-11T12:54:05Z</time>
      </trkpt>
      <trkpt lat="47.07628" lon="-0.78964">
        <ele>195.066</ele>
        <time>2018-08-11T12:54:10Z</time>
      </trkpt>
      <trkpt lat="47.07633" lon="-0.78962">
        <ele>195.094</ele>
        <time>2018-08-11T12:54:14Z</time>
      </trkpt>
      <trkpt lat="47.07636" lon="-0.78954">
        <ele>195.113</ele>
        <time>2018-08-11T12:54:17Z</time>
      </trkpt>
      <trkpt lat="47.07639" lon="-0.78947">
        <ele>195.134</ele>
        <time>2018-08-11T12:54:20Z</time>
      </trkpt>
      <trkpt lat="47.07641" lon="-0.78942">
        <ele>195.148</ele>
        <time>2018-08-11T12:54:22Z</time>
      </trkpt>
      <trkpt lat="47.07643" lon="-0.78938">
        <ele>195.156</ele>
        <time>2018-08-11T12:54:23Z</time>
      </trkpt>
      <trkpt lat="47.07645" lon="-0.78936">
        <ele>195.174</ele>
        <time>2018-08-11T12:54:27Z</time>
      </trkpt>
      <trkpt lat="47.07649" lon="-0.7893">
        <ele>195.196</ele>
        <time>2018-08-11T12:54:30Z</time>
      </trkpt>
      <trkpt lat="47.07653" lon="-0.78924">
        <ele>195.214</ele>
        <time>2018-08-11T12:54:33Z</time>
      </trkpt>
      <trkpt lat="47.07655" lon="-0.78919">
        <ele>195.242</ele>
        <time>2018-08-11T12:54:37Z</time>
      </trkpt>
      <trkpt lat="47.07659" lon="-0.78913">
        <ele>195.262</ele>
        <time>2018-08-11T12:54:41Z</time>
      </trkpt>
      <trkpt lat="47.07665" lon="-0.78904">
        <ele>195.28</ele>
        <time>2018-08-11T12:54:44Z</time>
      </trkpt>
      <trkpt lat="47.0767" lon="-0.78899">
        <ele>195.294</ele>
        <time>2018-08-11T12:54:46Z</time>
      </trkpt>
      <trkpt lat="47.07671" lon="-0.78892">
        <ele>195.308</ele>
        <time>2018-08-11T12:54:48Z</time>
      </trkpt>
      <trkpt lat="47.07672" lon="-0.78888">
        <ele>195.313</ele>
        <time>2018-08-11T12:54:49Z</time>
      </trkpt>
      <trkpt lat="47.07673" lon="-0.78885">
        <ele>195.318</ele>
        <time>2018-08-11T12:54:50Z</time>
      </trkpt>
      <trkpt lat="47.07674" lon="-0.78882">
        <ele>195.322</ele>
        <time>2018-08-11T12:54:51Z</time>
      </trkpt>
      <trkpt lat="47.07676" lon="-0.78875">
        <ele>195.338</ele>
        <time>2018-08-11T12:54:54Z</time>
      </trkpt>
      <trkpt lat="47.0768" lon="-0.78867">
        <ele>195.357</ele>
        <time>2018-08-11T12:54:58Z</time>
      </trkpt>
      <trkpt lat="47.07683" lon="-0.7886">
        <ele>195.372</ele>
        <time>2018-08-11T12:55:02Z</time>
      </trkpt>
      <trkpt lat="47.07689" lon="-0.78853">
        <ele>195.382</ele>
        <time>2018-08-11T12:55:05Z</time>
      </trkpt>
      <trkpt lat="47.07691" lon="-0.7885">
        <ele>195.39</ele>
        <time>2018-08-11T12:55:07Z</time>
      </trkpt>
      <trkpt lat="47.07694" lon="-0.78842">
        <ele>195.415</ele>
        <time>2018-08-11T12:55:11Z</time>
      </trkpt>
      <trkpt lat="47.07696" lon="-0.78836">
        <ele>195.435</ele>
        <time>2018-08-11T12:55:13Z</time>
      </trkpt>
      <trkpt lat="47.07702" lon="-0.78827">
        <ele>195.488</ele>
        <time>2018-08-11T12:55:17Z</time>
      </trkpt>
      <trkpt lat="47.07704" lon="-0.78824">
        <ele>195.517</ele>
        <time>2018-08-11T12:55:19Z</time>
      </trkpt>
      <trkpt lat="47.07708" lon="-0.7882">
        <ele>195.543</ele>
        <time>2018-08-11T12:55:23Z</time>
      </trkpt>
      <trkpt lat="47.07708" lon="-0.7882">
        <ele>156.5</ele>
        <time>2018-08-11T12:55:28Z</time>
      </trkpt>
      <trkpt lat="47.07708" lon="-0.7882">
        <ele>156.5</ele>
        <time>2018-08-11T12:55:32Z</time>
      </trkpt>
      <trkpt lat="47.07717" lon="-0.78809">
        <ele>195.567</ele>
        <time>2018-08-11T12:55:32Z</time>
      </trkpt>
      <trkpt lat="47.0772" lon="-0.78801">
        <ele>195.574</ele>
        <time>2018-08-11T12:55:35Z</time>
      </trkpt>
      <trkpt lat="47.07721" lon="-0.78798">
        <ele>195.59</ele>
        <time>2018-08-11T12:55:37Z</time>
      </trkpt>
      <trkpt lat="47.07723" lon="-0.7879">
        <ele>195.645</ele>
        <time>2018-08-11T12:55:40Z</time>
      </trkpt>
      <trkpt lat="47.07724" lon="-0.78786">
        <ele>195.689</ele>
        <time>2018-08-11T12:55:42Z</time>
      </trkpt>
      <trkpt lat="47.07725" lon="-0.78782">
        <ele>195.763</ele>
        <time>2018-08-11T12:55:45Z</time>
      </trkpt>
      <trkpt lat="47.0773" lon="-0.7878">
        <ele>195.882</ele>
        <time>2018-08-11T12:55:49Z</time>
      </trkpt>
      <trkpt lat="47.07734" lon="-0.78778">
        <ele>195.992</ele>
        <time>2018-08-11T12:55:53Z</time>
      </trkpt>
      <trkpt lat="47.07738" lon="-0.78774">
        <ele>196.063</ele>
        <time>2018-08-11T12:55:56Z</time>
      </trkpt>
      <trkpt lat="47.07741" lon="-0.78767">
        <ele>196.144</ele>
        <time>2018-08-11T12:55:59Z</time>
      </trkpt>
      <trkpt lat="47.07745" lon="-0.78762">
        <ele>196.234</ele>
        <time>2018-08-11T12:56:02Z</time>
      </trkpt>
      <trkpt lat="47.07748" lon="-0.78755">
        <ele>196.362</ele>
        <time>2018-08-11T12:56:06Z</time>
      </trkpt>
      <trkpt lat="47.07752" lon="-0.78749">
        <ele>196.481</ele>
        <time>2018-08-11T12:56:10Z</time>
      </trkpt>
      <trkpt lat="47.07756" lon="-0.78745">
        <ele>196.602</ele>
        <time>2018-08-11T12:56:14Z</time>
      </trkpt>
      <trkpt lat="47.07761" lon="-0.78737">
        <ele>196.807</ele>
        <time>2018-08-11T12:56:21Z</time>
      </trkpt>
      <trkpt lat="47.07765" lon="-0.78733">
        <ele>196.882</ele>
        <time>2018-08-11T12:56:24Z</time>
      </trkpt>
      <trkpt lat="47.07768" lon="-0.78728">
        <ele>196.947</ele>
        <time>2018-08-11T12:56:27Z</time>
      </trkpt>
      <trkpt lat="47.07773" lon="-0.78725">
        <ele>197.03</ele>
        <time>2018-08-11T12:56:31Z</time>
      </trkpt>
      <trkpt lat="47.07777" lon="-0.78718">
        <ele>197.103</ele>
        <time>2018-08-11T12:56:35Z</time>
      </trkpt>
      <trkpt lat="47.07779" lon="-0.78711">
        <ele>197.181</ele>
        <time>2018-08-11T12:56:39Z</time>
      </trkpt>
      <trkpt lat="47.07781" lon="-0.78707">
        <ele>197.222</ele>
        <time>2018-08-11T12:56:41Z</time>
      </trkpt>
      <trkpt lat="47.07783" lon="-0.78702">
        <ele>197.268</ele>
        <time>2018-08-11T12:56:43Z</time>
      </trkpt>
      <trkpt lat="47.07786" lon="-0.78698">
        <ele>197.349</ele>
        <time>2018-08-11T12:56:46Z</time>
      </trkpt>
      <trkpt lat="47.07788" lon="-0.78695">
        <ele>197.404</ele>
        <time>2018-08-11T12:56:48Z</time>
      </trkpt>
      <trkpt lat="47.0779" lon="-0.78689">
        <ele>197.522</ele>
        <time>2018-08-11T12:56:52Z</time>
      </trkpt>
      <trkpt lat="47.07793" lon="-0.78682">
        <ele>197.681</ele>
        <time>2018-08-11T12:56:57Z</time>
      </trkpt>
      <trkpt lat="47.07795" lon="-0.78676">
        <ele>197.74</ele>
        <time>2018-08-11T12:56:59Z</time>
      </trkpt>
      <trkpt lat="47.078" lon="-0.78671">
        <ele>197.825</ele>
        <time>2018-08-11T12:57:02Z</time>
      </trkpt>
      <trkpt lat="47.07802" lon="-0.78667">
        <ele>197.88</ele>
        <time>2018-08-11T12:57:04Z</time>
      </trkpt>
      <trkpt lat="47.07806" lon="-0.78661">
        <ele>197.966</ele>
        <time>2018-08-11T12:57:07Z</time>
      </trkpt>
      <trkpt lat="47.07809" lon="-0.78653">
        <ele>198.064</ele>
        <time>2018-08-11T12:57:10Z</time>
      </trkpt>
      <trkpt lat="47.07814" lon="-0.78648">
        <ele>198.234</ele>
        <time>2018-08-11T12:57:15Z</time>
      </trkpt>
      <trkpt lat="47.07818" lon="-0.78641">
        <ele>198.376</ele>
        <time>2018-08-11T12:57:19Z</time>
      </trkpt>
      <trkpt lat="47.07821" lon="-0.78636">
        <ele>198.492</ele>
        <time>2018-08-11T12:57:22Z</time>
      </trkpt>
      <trkpt lat="47.07823" lon="-0.78631">
        <ele>198.609</ele>
        <time>2018-08-11T12:57:25Z</time>
      </trkpt>
      <trkpt lat="47.07825" lon="-0.78624">
        <ele>198.763</ele>
        <time>2018-08-11T12:57:29Z</time>
      </trkpt>
      <trkpt lat="47.07827" lon="-0.78617">
        <ele>198.882</ele>
        <time>2018-08-11T12:57:32Z</time>
      </trkpt>
      <trkpt lat="47.07829" lon="-0.78614">
        <ele>198.962</ele>
        <time>2018-08-11T12:57:34Z</time>
      </trkpt>
      <trkpt lat="47.07832" lon="-0.7861">
        <ele>199.12</ele>
        <time>2018-08-11T12:57:38Z</time>
      </trkpt>
      <trkpt lat="47.07836" lon="-0.78604">
        <ele>199.279</ele>
        <time>2018-08-11T12:57:42Z</time>
      </trkpt>
      <trkpt lat="47.07839" lon="-0.78601">
        <ele>199.398</ele>
        <time>2018-08-11T12:57:45Z</time>
      </trkpt>
      <trkpt lat="47.0784" lon="-0.78598">
        <ele>199.477</ele>
        <time>2018-08-11T12:57:47Z</time>
      </trkpt>
      <trkpt lat="47.07844" lon="-0.78592">
        <ele>199.659</ele>
        <time>2018-08-11T12:57:52Z</time>
      </trkpt>
      <trkpt lat="47.07849" lon="-0.78586">
        <ele>199.765</ele>
        <time>2018-08-11T12:57:55Z</time>
      </trkpt>
      <trkpt lat="47.0785" lon="-0.78578">
        <ele>199.91</ele>
        <time>2018-08-11T12:57:59Z</time>
      </trkpt>
      <trkpt lat="47.07853" lon="-0.78571">
        <ele>200.02</ele>
        <time>2018-08-11T12:58:02Z</time>
      </trkpt>
      <trkpt lat="47.07858" lon="-0.78565">
        <ele>200.215</ele>
        <time>2018-08-11T12:58:07Z</time>
      </trkpt>
      <trkpt lat="47.07862" lon="-0.78561">
        <ele>200.337</ele>
        <time>2018-08-11T12:58:10Z</time>
      </trkpt>
      <trkpt lat="47.07866" lon="-0.78555">
        <ele>200.528</ele>
        <time>2018-08-11T12:58:15Z</time>
      </trkpt>
      <trkpt lat="47.07871" lon="-0.7855">
        <ele>200.654</ele>
        <time>2018-08-11T12:58:18Z</time>
      </trkpt>
      <trkpt lat="47.07873" lon="-0.78546">
        <ele>200.779</ele>
        <time>2018-08-11T12:58:21Z</time>
      </trkpt>
      <trkpt lat="47.07877" lon="-0.78539">
        <ele>200.941</ele>
        <time>2018-08-11T12:58:25Z</time>
      </trkpt>
      <trkpt lat="47.0788" lon="-0.78534">
        <ele>201.057</ele>
        <time>2018-08-11T12:58:28Z</time>
      </trkpt>
      <trkpt lat="47.07884" lon="-0.7853">
        <ele>201.273</ele>
        <time>2018-08-11T12:58:35Z</time>
      </trkpt>
      <trkpt lat="47.07889" lon="-0.78524">
        <ele>201.381</ele>
        <time>2018-08-11T12:58:38Z</time>
      </trkpt>
      <trkpt lat="47.0789" lon="-0.78522">
        <ele>201.416</ele>
        <time>2018-08-11T12:58:39Z</time>
      </trkpt>
      <trkpt lat="47.07892" lon="-0.78519">
        <ele>201.451</ele>
        <time>2018-08-11T12:58:40Z</time>
      </trkpt>
      <trkpt lat="47.07893" lon="-0.78517">
        <ele>201.486</ele>
        <time>2018-08-11T12:58:41Z</time>
      </trkpt>
      <trkpt lat="47.07895" lon="-0.78514">
        <ele>201.52</ele>
        <time>2018-08-11T12:58:42Z</time>
      </trkpt>
      <trkpt lat="47.07897" lon="-0.78511">
        <ele>201.589</ele>
        <time>2018-08-11T12:58:44Z</time>
      </trkpt>
      <trkpt lat="47.07901" lon="-0.78503">
        <ele>201.687</ele>
        <time>2018-08-11T12:58:47Z</time>
      </trkpt>
      <trkpt lat="47.07902" lon="-0.78499">
        <ele>201.817</ele>
        <time>2018-08-11T12:58:51Z</time>
      </trkpt>
      <trkpt lat="47.07907" lon="-0.7849">
        <ele>201.977</ele>
        <time>2018-08-11T12:58:57Z</time>
      </trkpt>
      <trkpt lat="47.0791" lon="-0.78482">
        <ele>202.1</ele>
        <time>2018-08-11T12:59:01Z</time>
      </trkpt>
      <trkpt lat="47.07912" lon="-0.78469">
        <ele>202.229</ele>
        <time>2018-08-11T12:59:05Z</time>
      </trkpt>
      <trkpt lat="47.07916" lon="-0.78463">
        <ele>202.361</ele>
        <time>2018-08-11T12:59:09Z</time>
      </trkpt>
      <trkpt lat="47.07918" lon="-0.7846">
        <ele>202.427</ele>
        <time>2018-08-11T12:59:11Z</time>
      </trkpt>
      <trkpt lat="47.0792" lon="-0.78457">
        <ele>202.495</ele>
        <time>2018-08-11T12:59:13Z</time>
      </trkpt>
      <trkpt lat="47.07925" lon="-0.78448">
        <ele>202.621</ele>
        <time>2018-08-11T12:59:17Z</time>
      </trkpt>
      <trkpt lat="47.0793" lon="-0.78449">
        <ele>202.715</ele>
        <time>2018-08-11T12:59:20Z</time>
      </trkpt>
      <trkpt lat="47.07932" lon="-0.7845">
        <ele>202.745</ele>
        <time>2018-08-11T12:59:21Z</time>
      </trkpt>
      <trkpt lat="47.07935" lon="-0.7845">
        <ele>202.773</ele>
        <time>2018-08-11T12:59:22Z</time>
      </trkpt>
      <trkpt lat="47.07939" lon="-0.7845">
        <ele>202.829</ele>
        <time>2018-08-11T12:59:24Z</time>
      </trkpt>
      <trkpt lat="47.07939" lon="-0.7845">
        <ele>202.829</ele>
        <time>2018-08-11T12:59:29Z</time>
      </trkpt>
      <trkpt lat="47.07939" lon="-0.7845">
        <ele>157.6</ele>
        <time>2018-08-11T12:59:29Z</time>
      </trkpt>
      <trkpt lat="47.07939" lon="-0.7845">
        <ele>157.6</ele>
        <time>2018-08-11T12:59:41Z</time>
      </trkpt>
      <trkpt lat="47.07952" lon="-0.78468">
        <ele>203.498</ele>
        <time>2018-08-11T12:59:41Z</time>
      </trkpt>
      <trkpt lat="47.07955" lon="-0.78471">
        <ele>203.565</ele>
        <time>2018-08-11T12:59:43Z</time>
      </trkpt>
      <trkpt lat="47.07961" lon="-0.78473">
        <ele>203.688</ele>
        <time>2018-08-11T12:59:47Z</time>
      </trkpt>
      <trkpt lat="47.07966" lon="-0.78479">
        <ele>203.832</ele>
        <time>2018-08-11T12:59:52Z</time>
      </trkpt>
      <trkpt lat="47.07971" lon="-0.78483">
        <ele>203.971</ele>
        <time>2018-08-11T12:59:57Z</time>
      </trkpt>
      <trkpt lat="47.07974" lon="-0.78486">
        <ele>204.056</ele>
        <time>2018-08-11T13:00:00Z</time>
      </trkpt>
      <trkpt lat="47.07978" lon="-0.78489">
        <ele>204.147</ele>
        <time>2018-08-11T13:00:03Z</time>
      </trkpt>
      <trkpt lat="47.07981" lon="-0.7849">
        <ele>204.237</ele>
        <time>2018-08-11T13:00:06Z</time>
      </trkpt>
      <trkpt lat="47.07986" lon="-0.78494">
        <ele>204.328</ele>
        <time>2018-08-11T13:00:09Z</time>
      </trkpt>
      <trkpt lat="47.0799" lon="-0.78497">
        <ele>204.421</ele>
        <time>2018-08-11T13:00:12Z</time>
      </trkpt>
      <trkpt lat="47.07993" lon="-0.78502">
        <ele>204.555</ele>
        <time>2018-08-11T13:00:16Z</time>
      </trkpt>
      <trkpt lat="47.07995" lon="-0.78504">
        <ele>204.627</ele>
        <time>2018-08-11T13:00:18Z</time>
      </trkpt>
      <trkpt lat="47.07998" lon="-0.78508">
        <ele>204.775</ele>
        <time>2018-08-11T13:00:22Z</time>
      </trkpt>
      <trkpt lat="47.08" lon="-0.78511">
        <ele>204.962</ele>
        <time>2018-08-11T13:00:27Z</time>
      </trkpt>
      <trkpt lat="47.08003" lon="-0.78515">
        <ele>205.113</ele>
        <time>2018-08-11T13:00:31Z</time>
      </trkpt>
      <trkpt lat="47.08005" lon="-0.78518">
        <ele>205.185</ele>
        <time>2018-08-11T13:00:34Z</time>
      </trkpt>
      <trkpt lat="47.0801" lon="-0.78523">
        <ele>205.34</ele>
        <time>2018-08-11T13:00:39Z</time>
      </trkpt>
      <trkpt lat="47.08015" lon="-0.78528">
        <ele>205.454</ele>
        <time>2018-08-11T13:00:43Z</time>
      </trkpt>
      <trkpt lat="47.0802" lon="-0.78532">
        <ele>205.533</ele>
        <time>2018-08-11T13:00:46Z</time>
      </trkpt>
      <trkpt lat="47.08026" lon="-0.78535">
        <ele>205.586</ele>
        <time>2018-08-11T13:00:48Z</time>
      </trkpt>
      <trkpt lat="47.08029" lon="-0.78537">
        <ele>205.615</ele>
        <time>2018-08-11T13:00:49Z</time>
      </trkpt>
      <trkpt lat="47.08031" lon="-0.78538">
        <ele>205.675</ele>
        <time>2018-08-11T13:00:51Z</time>
      </trkpt>
      <trkpt lat="47.08037" lon="-0.78543">
        <ele>205.795</ele>
        <time>2018-08-11T13:00:55Z</time>
      </trkpt>
      <trkpt lat="47.08041" lon="-0.78546">
        <ele>205.886</ele>
        <time>2018-08-11T13:00:58Z</time>
      </trkpt>
      <trkpt lat="47.08045" lon="-0.78551">
        <ele>206.01</ele>
        <time>2018-08-11T13:01:02Z</time>
      </trkpt>
      <trkpt lat="47.0805" lon="-0.78555">
        <ele>206.132</ele>
        <time>2018-08-11T13:01:06Z</time>
      </trkpt>
      <trkpt lat="47.08052" lon="-0.78558">
        <ele>206.194</ele>
        <time>2018-08-11T13:01:08Z</time>
      </trkpt>
      <trkpt lat="47.08054" lon="-0.7856">
        <ele>206.256</ele>
        <time>2018-08-11T13:01:10Z</time>
      </trkpt>
      <trkpt lat="47.08061" lon="-0.78564">
        <ele>206.383</ele>
        <time>2018-08-11T13:01:14Z</time>
      </trkpt>
      <trkpt lat="47.08064" lon="-0.78566">
        <ele>206.415</ele>
        <time>2018-08-11T13:01:15Z</time>
      </trkpt>
      <trkpt lat="47.08068" lon="-0.78569">
        <ele>206.509</ele>
        <time>2018-08-11T13:01:18Z</time>
      </trkpt>
      <trkpt lat="47.0807" lon="-0.78571">
        <ele>206.541</ele>
        <time>2018-08-11T13:01:19Z</time>
      </trkpt>
      <trkpt lat="47.08075" lon="-0.78574">
        <ele>206.636</ele>
        <time>2018-08-11T13:01:22Z</time>
      </trkpt>
      <trkpt lat="47.08078" lon="-0.78576">
        <ele>206.702</ele>
        <time>2018-08-11T13:01:24Z</time>
      </trkpt>
      <trkpt lat="47.08081" lon="-0.78578">
        <ele>206.77</ele>
        <time>2018-08-11T13:01:26Z</time>
      </trkpt>
      <trkpt lat="47.08085" lon="-0.78582">
        <ele>206.942</ele>
        <time>2018-08-11T13:01:31Z</time>
      </trkpt>
      <trkpt lat="47.08088" lon="-0.78587">
        <ele>207.087</ele>
        <time>2018-08-11T13:01:35Z</time>
      </trkpt>
      <trkpt lat="47.08092" lon="-0.78593">
        <ele>207.224</ele>
        <time>2018-08-11T13:01:39Z</time>
      </trkpt>
      <trkpt lat="47.08097" lon="-0.78598">
        <ele>207.353</ele>
        <time>2018-08-11T13:01:43Z</time>
      </trkpt>
      <trkpt lat="47.08103" lon="-0.78601">
        <ele>207.45</ele>
        <time>2018-08-11T13:01:46Z</time>
      </trkpt>
      <trkpt lat="47.08107" lon="-0.78606">
        <ele>207.571</ele>
        <time>2018-08-11T13:01:50Z</time>
      </trkpt>
      <trkpt lat="47.08111" lon="-0.78612">
        <ele>207.729</ele>
        <time>2018-08-11T13:01:55Z</time>
      </trkpt>
      <trkpt lat="47.08115" lon="-0.78616">
        <ele>207.831</ele>
        <time>2018-08-11T13:01:58Z</time>
      </trkpt>
      <trkpt lat="47.0812" lon="-0.78619">
        <ele>207.972</ele>
        <time>2018-08-11T13:02:02Z</time>
      </trkpt>
      <trkpt lat="47.08123" lon="-0.78622">
        <ele>208.044</ele>
        <time>2018-08-11T13:02:04Z</time>
      </trkpt>
      <trkpt lat="47.08127" lon="-0.78624">
        <ele>208.117</ele>
        <time>2018-08-11T13:02:06Z</time>
      </trkpt>
      <trkpt lat="47.08131" lon="-0.78629">
        <ele>208.226</ele>
        <time>2018-08-11T13:02:09Z</time>
      </trkpt>
      <trkpt lat="47.0813" lon="-0.78637">
        <ele>208.401</ele>
        <time>2018-08-11T13:02:14Z</time>
      </trkpt>
      <trkpt lat="47.08126" lon="-0.78643">
        <ele>208.545</ele>
        <time>2018-08-11T13:02:18Z</time>
      </trkpt>
      <trkpt lat="47.08121" lon="-0.78648">
        <ele>208.649</ele>
        <time>2018-08-11T13:02:21Z</time>
      </trkpt>
      <trkpt lat="47.08117" lon="-0.78652">
        <ele>208.804</ele>
        <time>2018-08-11T13:02:26Z</time>
      </trkpt>
      <trkpt lat="47.08113" lon="-0.78658">
        <ele>208.94</ele>
        <time>2018-08-11T13:02:31Z</time>
      </trkpt>
      <trkpt lat="47.0811" lon="-0.78662">
        <ele>209.061</ele>
        <time>2018-08-11T13:02:36Z</time>
      </trkpt>
      <trkpt lat="47.08106" lon="-0.78665">
        <ele>209.107</ele>
        <time>2018-08-11T13:02:38Z</time>
      </trkpt>
      <trkpt lat="47.08102" lon="-0.78668">
        <ele>209.153</ele>
        <time>2018-08-11T13:02:40Z</time>
      </trkpt>
      <trkpt lat="47.08098" lon="-0.78673">
        <ele>209.221</ele>
        <time>2018-08-11T13:02:43Z</time>
      </trkpt>
      <trkpt lat="47.08095" lon="-0.78678">
        <ele>209.31</ele>
        <time>2018-08-11T13:02:47Z</time>
      </trkpt>
      <trkpt lat="47.08093" lon="-0.78681">
        <ele>209.354</ele>
        <time>2018-08-11T13:02:49Z</time>
      </trkpt>
      <trkpt lat="47.0809" lon="-0.78687">
        <ele>209.418</ele>
        <time>2018-08-11T13:02:52Z</time>
      </trkpt>
      <trkpt lat="47.08088" lon="-0.78692">
        <ele>209.463</ele>
        <time>2018-08-11T13:02:54Z</time>
      </trkpt>
      <trkpt lat="47.08086" lon="-0.78696">
        <ele>209.51</ele>
        <time>2018-08-11T13:02:56Z</time>
      </trkpt>
      <trkpt lat="47.08085" lon="-0.78699">
        <ele>209.556</ele>
        <time>2018-08-11T13:02:58Z</time>
      </trkpt>
      <trkpt lat="47.0808" lon="-0.78705">
        <ele>209.626</ele>
        <time>2018-08-11T13:03:01Z</time>
      </trkpt>
      <trkpt lat="47.08076" lon="-0.78709">
        <ele>209.691</ele>
        <time>2018-08-11T13:03:04Z</time>
      </trkpt>
      <trkpt lat="47.08073" lon="-0.78716">
        <ele>209.773</ele>
        <time>2018-08-11T13:03:08Z</time>
      </trkpt>
      <trkpt lat="47.0807" lon="-0.78721">
        <ele>209.834</ele>
        <time>2018-08-11T13:03:11Z</time>
      </trkpt>
      <trkpt lat="47.08068" lon="-0.78724">
        <ele>209.876</ele>
        <time>2018-08-11T13:03:13Z</time>
      </trkpt>
      <trkpt lat="47.08065" lon="-0.78727">
        <ele>209.918</ele>
        <time>2018-08-11T13:03:15Z</time>
      </trkpt>
      <trkpt lat="47.08063" lon="-0.78733">
        <ele>209.983</ele>
        <time>2018-08-11T13:03:18Z</time>
      </trkpt>
      <trkpt lat="47.0806" lon="-0.7874">
        <ele>210.071</ele>
        <time>2018-08-11T13:03:22Z</time>
      </trkpt>
      <trkpt lat="47.08058" lon="-0.78748">
        <ele>210.156</ele>
        <time>2018-08-11T13:03:26Z</time>
      </trkpt>
      <trkpt lat="47.08055" lon="-0.78754">
        <ele>210.219</ele>
        <time>2018-08-11T13:03:29Z</time>
      </trkpt>
      <trkpt lat="47.08051" lon="-0.78758">
        <ele>210.281</ele>
        <time>2018-08-11T13:03:32Z</time>
      </trkpt>
      <trkpt lat="47.08049" lon="-0.78766">
        <ele>210.366</ele>
        <time>2018-08-11T13:03:36Z</time>
      </trkpt>
      <trkpt lat="47.08045" lon="-0.78773">
        <ele>210.446</ele>
        <time>2018-08-11T13:03:40Z</time>
      </trkpt>
      <trkpt lat="47.08042" lon="-0.78778">
        <ele>210.485</ele>
        <time>2018-08-11T13:03:42Z</time>
      </trkpt>
      <trkpt lat="47.08039" lon="-0.78785">
        <ele>210.559</ele>
        <time>2018-08-11T13:03:46Z</time>
      </trkpt>
      <trkpt lat="47.08036" lon="-0.78792">
        <ele>210.648</ele>
        <time>2018-08-11T13:03:51Z</time>
      </trkpt>
      <trkpt lat="47.08034" lon="-0.78798">
        <ele>210.708</ele>
        <time>2018-08-11T13:03:54Z</time>
      </trkpt>
      <trkpt lat="47.08032" lon="-0.78801">
        <ele>210.771</ele>
        <time>2018-08-11T13:03:57Z</time>
      </trkpt>
      <trkpt lat="47.0803" lon="-0.78805">
        <ele>210.833</ele>
        <time>2018-08-11T13:04:00Z</time>
      </trkpt>
      <trkpt lat="47.08028" lon="-0.78809">
        <ele>210.915</ele>
        <time>2018-08-11T13:04:04Z</time>
      </trkpt>
      <trkpt lat="47.08026" lon="-0.78817">
        <ele>211.014</ele>
        <time>2018-08-11T13:04:09Z</time>
      </trkpt>
      <trkpt lat="47.08022" lon="-0.78824">
        <ele>211.095</ele>
        <time>2018-08-11T13:04:13Z</time>
      </trkpt>
      <trkpt lat="47.08021" lon="-0.78827">
        <ele>211.114</ele>
        <time>2018-08-11T13:04:14Z</time>
      </trkpt>
      <trkpt lat="47.0802" lon="-0.78834">
        <ele>211.173</ele>
        <time>2018-08-11T13:04:17Z</time>
      </trkpt>
      <trkpt lat="47.08017" lon="-0.7884">
        <ele>211.249</ele>
        <time>2018-08-11T13:04:21Z</time>
      </trkpt>
      <trkpt lat="47.08015" lon="-0.78846">
        <ele>211.306</ele>
        <time>2018-08-11T13:04:24Z</time>
      </trkpt>
      <trkpt lat="47.08013" lon="-0.78849">
        <ele>211.343</ele>
        <time>2018-08-11T13:04:26Z</time>
      </trkpt>
      <trkpt lat="47.0801" lon="-0.78856">
        <ele>211.414</ele>
        <time>2018-08-11T13:04:30Z</time>
      </trkpt>
      <trkpt lat="47.08007" lon="-0.7886">
        <ele>211.448</ele>
        <time>2018-08-11T13:04:32Z</time>
      </trkpt>
      <trkpt lat="47.08005" lon="-0.78866">
        <ele>211.549</ele>
        <time>2018-08-11T13:04:38Z</time>
      </trkpt>
      <trkpt lat="47.08001" lon="-0.78876">
        <ele>211.647</ele>
        <time>2018-08-11T13:04:44Z</time>
      </trkpt>
      <trkpt lat="47.07997" lon="-0.7888">
        <ele>211.691</ele>
        <time>2018-08-11T13:04:47Z</time>
      </trkpt>
      <trkpt lat="47.07995" lon="-0.78883">
        <ele>211.718</ele>
        <time>2018-08-11T13:04:49Z</time>
      </trkpt>
      <trkpt lat="47.07993" lon="-0.78885">
        <ele>211.745</ele>
        <time>2018-08-11T13:04:51Z</time>
      </trkpt>
      <trkpt lat="47.0799" lon="-0.78891">
        <ele>211.797</ele>
        <time>2018-08-11T13:04:55Z</time>
      </trkpt>
      <trkpt lat="47.07984" lon="-0.78903">
        <ele>211.858</ele>
        <time>2018-08-11T13:05:00Z</time>
      </trkpt>
      <trkpt lat="47.07981" lon="-0.7891">
        <ele>211.896</ele>
        <time>2018-08-11T13:05:03Z</time>
      </trkpt>
      <trkpt lat="47.07977" lon="-0.78915">
        <ele>211.945</ele>
        <time>2018-08-11T13:05:07Z</time>
      </trkpt>
      <trkpt lat="47.07974" lon="-0.78917">
        <ele>211.967</ele>
        <time>2018-08-11T13:05:09Z</time>
      </trkpt>
      <trkpt lat="47.0797" lon="-0.78924">
        <ele>212.023</ele>
        <time>2018-08-11T13:05:14Z</time>
      </trkpt>
      <trkpt lat="47.07968" lon="-0.78931">
        <ele>212.054</ele>
        <time>2018-08-11T13:05:17Z</time>
      </trkpt>
      <trkpt lat="47.07966" lon="-0.78935">
        <ele>212.075</ele>
        <time>2018-08-11T13:05:19Z</time>
      </trkpt>
      <trkpt lat="47.07963" lon="-0.78942">
        <ele>212.105</ele>
        <time>2018-08-11T13:05:22Z</time>
      </trkpt>
      <trkpt lat="47.0796" lon="-0.78949">
        <ele>212.152</ele>
        <time>2018-08-11T13:05:27Z</time>
      </trkpt>
      <trkpt lat="47.07956" lon="-0.78955">
        <ele>212.189</ele>
        <time>2018-08-11T13:05:31Z</time>
      </trkpt>
      <trkpt lat="47.07954" lon="-0.78959">
        <ele>212.209</ele>
        <time>2018-08-11T13:05:33Z</time>
      </trkpt>
      <trkpt lat="47.0795" lon="-0.78967">
        <ele>212.238</ele>
        <time>2018-08-11T13:05:36Z</time>
      </trkpt>
      <trkpt lat="47.07948" lon="-0.78972">
        <ele>212.257</ele>
        <time>2018-08-11T13:05:38Z</time>
      </trkpt>
      <trkpt lat="47.07947" lon="-0.78975">
        <ele>212.275</ele>
        <time>2018-08-11T13:05:40Z</time>
      </trkpt>
      <trkpt lat="47.07943" lon="-0.78981">
        <ele>212.318</ele>
        <time>2018-08-11T13:05:45Z</time>
      </trkpt>
      <trkpt lat="47.07942" lon="-0.78985">
        <ele>212.334</ele>
        <time>2018-08-11T13:05:48Z</time>
      </trkpt>
      <trkpt lat="47.07939" lon="-0.78992">
        <ele>212.372</ele>
        <time>2018-08-11T13:05:53Z</time>
      </trkpt>
      <trkpt lat="47.07937" lon="-0.78999">
        <ele>212.407</ele>
        <time>2018-08-11T13:05:58Z</time>
      </trkpt>
      <trkpt lat="47.07936" lon="-0.79003">
        <ele>212.42</ele>
        <time>2018-08-11T13:06:00Z</time>
      </trkpt>
      <trkpt lat="47.07934" lon="-0.79008">
        <ele>212.438</ele>
        <time>2018-08-11T13:06:04Z</time>
      </trkpt>
      <trkpt lat="47.07931" lon="-0.79014">
        <ele>212.457</ele>
        <time>2018-08-11T13:06:07Z</time>
      </trkpt>
      <trkpt lat="47.07929" lon="-0.79018">
        <ele>212.475</ele>
        <time>2018-08-11T13:06:10Z</time>
      </trkpt>
      <trkpt lat="47.07926" lon="-0.79023">
        <ele>212.493</ele>
        <time>2018-08-11T13:06:13Z</time>
      </trkpt>
      <trkpt lat="47.07923" lon="-0.79026">
        <ele>212.505</ele>
        <time>2018-08-11T13:06:15Z</time>
      </trkpt>
      <trkpt lat="47.07918" lon="-0.79032">
        <ele>212.522</ele>
        <time>2018-08-11T13:06:18Z</time>
      </trkpt>
      <trkpt lat="47.07916" lon="-0.79035">
        <ele>212.533</ele>
        <time>2018-08-11T13:06:20Z</time>
      </trkpt>
      <trkpt lat="47.07913" lon="-0.79039">
        <ele>212.549</ele>
        <time>2018-08-11T13:06:23Z</time>
      </trkpt>
      <trkpt lat="47.07911" lon="-0.79046">
        <ele>212.58</ele>
        <time>2018-08-11T13:06:30Z</time>
      </trkpt>
      <trkpt lat="47.07907" lon="-0.79055">
        <ele>212.597</ele>
        <time>2018-08-11T13:06:34Z</time>
      </trkpt>
      <trkpt lat="47.07905" lon="-0.79063">
        <ele>212.614</ele>
        <time>2018-08-11T13:06:38Z</time>
      </trkpt>
      <trkpt lat="47.07903" lon="-0.79066">
        <ele>212.622</ele>
        <time>2018-08-11T13:06:40Z</time>
      </trkpt>
      <trkpt lat="47.07899" lon="-0.79071">
        <ele>212.635</ele>
        <time>2018-08-11T13:06:43Z</time>
      </trkpt>
      <trkpt lat="47.07896" lon="-0.79078">
        <ele>212.654</ele>
        <time>2018-08-11T13:06:47Z</time>
      </trkpt>
      <trkpt lat="47.07894" lon="-0.79084">
        <ele>212.667</ele>
        <time>2018-08-11T13:06:50Z</time>
      </trkpt>
      <trkpt lat="47.07892" lon="-0.79089">
        <ele>212.675</ele>
        <time>2018-08-11T13:06:52Z</time>
      </trkpt>
      <trkpt lat="47.07891" lon="-0.79093">
        <ele>212.678</ele>
        <time>2018-08-11T13:06:53Z</time>
      </trkpt>
      <trkpt lat="47.07888" lon="-0.79099">
        <ele>212.686</ele>
        <time>2018-08-11T13:06:55Z</time>
      </trkpt>
      <trkpt lat="47.07885" lon="-0.79104">
        <ele>212.695</ele>
        <time>2018-08-11T13:06:58Z</time>
      </trkpt>
      <trkpt lat="47.07882" lon="-0.79111">
        <ele>212.705</ele>
        <time>2018-08-11T13:07:01Z</time>
      </trkpt>
      <trkpt lat="47.07879" lon="-0.79118">
        <ele>212.713</ele>
        <time>2018-08-11T13:07:04Z</time>
      </trkpt>
      <trkpt lat="47.07877" lon="-0.79121">
        <ele>212.717</ele>
        <time>2018-08-11T13:07:06Z</time>
      </trkpt>
      <trkpt lat="47.07874" lon="-0.79127">
        <ele>212.723</ele>
        <time>2018-08-11T13:07:09Z</time>
      </trkpt>
      <trkpt lat="47.0787" lon="-0.79133">
        <ele>212.729</ele>
        <time>2018-08-11T13:07:12Z</time>
      </trkpt>
      <trkpt lat="47.07868" lon="-0.79136">
        <ele>212.734</ele>
        <time>2018-08-11T13:07:14Z</time>
      </trkpt>
      <trkpt lat="47.07866" lon="-0.79143">
        <ele>212.742</ele>
        <time>2018-08-11T13:07:18Z</time>
      </trkpt>
      <trkpt lat="47.07863" lon="-0.79149">
        <ele>212.746</ele>
        <time>2018-08-11T13:07:21Z</time>
      </trkpt>
      <trkpt lat="47.07859" lon="-0.79154">
        <ele>212.751</ele>
        <time>2018-08-11T13:07:24Z</time>
      </trkpt>
      <trkpt lat="47.07855" lon="-0.79161">
        <ele>212.755</ele>
        <time>2018-08-11T13:07:28Z</time>
      </trkpt>
      <trkpt lat="47.07852" lon="-0.79168">
        <ele>212.756</ele>
        <time>2018-08-11T13:07:32Z</time>
      </trkpt>
      <trkpt lat="47.07849" lon="-0.79174">
        <ele>212.755</ele>
        <time>2018-08-11T13:07:35Z</time>
      </trkpt>
      <trkpt lat="47.07847" lon="-0.79178">
        <ele>212.754</ele>
        <time>2018-08-11T13:07:37Z</time>
      </trkpt>
      <trkpt lat="47.07843" lon="-0.79182">
        <ele>212.75</ele>
        <time>2018-08-11T13:07:41Z</time>
      </trkpt>
      <trkpt lat="47.07841" lon="-0.79188">
        <ele>212.743</ele>
        <time>2018-08-11T13:07:44Z</time>
      </trkpt>
      <trkpt lat="47.0784" lon="-0.79192">
        <ele>212.735</ele>
        <time>2018-08-11T13:07:46Z</time>
      </trkpt>
      <trkpt lat="47.07836" lon="-0.79196">
        <ele>212.72</ele>
        <time>2018-08-11T13:07:49Z</time>
      </trkpt>
      <trkpt lat="47.07833" lon="-0.792">
        <ele>212.708</ele>
        <time>2018-08-11T13:07:51Z</time>
      </trkpt>
      <trkpt lat="47.0783" lon="-0.79207">
        <ele>212.686</ele>
        <time>2018-08-11T13:07:54Z</time>
      </trkpt>
      <trkpt lat="47.07828" lon="-0.79211">
        <ele>212.669</ele>
        <time>2018-08-11T13:07:56Z</time>
      </trkpt>
      <trkpt lat="47.07827" lon="-0.79215">
        <ele>212.65</ele>
        <time>2018-08-11T13:07:58Z</time>
      </trkpt>
      <trkpt lat="47.07823" lon="-0.79221">
        <ele>212.612</ele>
        <time>2018-08-11T13:08:02Z</time>
      </trkpt>
      <trkpt lat="47.07821" lon="-0.79225">
        <ele>212.594</ele>
        <time>2018-08-11T13:08:04Z</time>
      </trkpt>
      <trkpt lat="47.07817" lon="-0.7923">
        <ele>212.56</ele>
        <time>2018-08-11T13:08:08Z</time>
      </trkpt>
      <trkpt lat="47.07814" lon="-0.79233">
        <ele>212.544</ele>
        <time>2018-08-11T13:08:10Z</time>
      </trkpt>
      <trkpt lat="47.07811" lon="-0.7924">
        <ele>212.511</ele>
        <time>2018-08-11T13:08:14Z</time>
      </trkpt>
      <trkpt lat="47.07808" lon="-0.79248">
        <ele>212.476</ele>
        <time>2018-08-11T13:08:18Z</time>
      </trkpt>
      <trkpt lat="47.07807" lon="-0.79253">
        <ele>212.46</ele>
        <time>2018-08-11T13:08:20Z</time>
      </trkpt>
      <trkpt lat="47.07806" lon="-0.79256">
        <ele>212.453</ele>
        <time>2018-08-11T13:08:21Z</time>
      </trkpt>
      <trkpt lat="47.07804" lon="-0.79262">
        <ele>212.424</ele>
        <time>2018-08-11T13:08:25Z</time>
      </trkpt>
      <trkpt lat="47.07802" lon="-0.79267">
        <ele>212.409</ele>
        <time>2018-08-11T13:08:27Z</time>
      </trkpt>
      <trkpt lat="47.07798" lon="-0.79273">
        <ele>212.39</ele>
        <time>2018-08-11T13:08:30Z</time>
      </trkpt>
      <trkpt lat="47.07795" lon="-0.7928">
        <ele>212.374</ele>
        <time>2018-08-11T13:08:33Z</time>
      </trkpt>
      <trkpt lat="47.07792" lon="-0.79285">
        <ele>212.358</ele>
        <time>2018-08-11T13:08:36Z</time>
      </trkpt>
      <trkpt lat="47.07788" lon="-0.79289">
        <ele>212.342</ele>
        <time>2018-08-11T13:08:39Z</time>
      </trkpt>
      <trkpt lat="47.07784" lon="-0.79294">
        <ele>212.321</ele>
        <time>2018-08-11T13:08:43Z</time>
      </trkpt>
      <trkpt lat="47.07781" lon="-0.79299">
        <ele>212.298</ele>
        <time>2018-08-11T13:08:48Z</time>
      </trkpt>
      <trkpt lat="47.07779" lon="-0.79305">
        <ele>212.278</ele>
        <time>2018-08-11T13:08:52Z</time>
      </trkpt>
      <trkpt lat="47.07775" lon="-0.79311">
        <ele>212.264</ele>
        <time>2018-08-11T13:08:55Z</time>
      </trkpt>
      <trkpt lat="47.07773" lon="-0.79317">
        <ele>212.251</ele>
        <time>2018-08-11T13:08:58Z</time>
      </trkpt>
      <trkpt lat="47.07772" lon="-0.79321">
        <ele>212.244</ele>
        <time>2018-08-11T13:09:00Z</time>
      </trkpt>
      <trkpt lat="47.07768" lon="-0.79325">
        <ele>212.239</ele>
        <time>2018-08-11T13:09:02Z</time>
      </trkpt>
      <trkpt lat="47.07765" lon="-0.79332">
        <ele>212.226</ele>
        <time>2018-08-11T13:09:08Z</time>
      </trkpt>
      <trkpt lat="47.07764" lon="-0.79335">
        <ele>212.222</ele>
        <time>2018-08-11T13:09:10Z</time>
      </trkpt>
      <trkpt lat="47.07761" lon="-0.79345">
        <ele>212.218</ele>
        <time>2018-08-11T13:09:14Z</time>
      </trkpt>
      <trkpt lat="47.07758" lon="-0.7935">
        <ele>212.216</ele>
        <time>2018-08-11T13:09:16Z</time>
      </trkpt>
      <trkpt lat="47.07755" lon="-0.79357">
        <ele>212.217</ele>
        <time>2018-08-11T13:09:22Z</time>
      </trkpt>
      <trkpt lat="47.07754" lon="-0.79361">
        <ele>212.219</ele>
        <time>2018-08-11T13:09:25Z</time>
      </trkpt>
      <trkpt lat="47.07754" lon="-0.79369">
        <ele>212.225</ele>
        <time>2018-08-11T13:09:31Z</time>
      </trkpt>
      <trkpt lat="47.07752" lon="-0.79375">
        <ele>212.231</ele>
        <time>2018-08-11T13:09:35Z</time>
      </trkpt>
      <trkpt lat="47.07748" lon="-0.7938">
        <ele>212.238</ele>
        <time>2018-08-11T13:09:39Z</time>
      </trkpt>
      <trkpt lat="47.07747" lon="-0.79388">
        <ele>212.244</ele>
        <time>2018-08-11T13:09:42Z</time>
      </trkpt>
      <trkpt lat="47.07746" lon="-0.79398">
        <ele>212.25</ele>
        <time>2018-08-11T13:09:46Z</time>
      </trkpt>
      <trkpt lat="47.07742" lon="-0.79403">
        <ele>212.258</ele>
        <time>2018-08-11T13:09:49Z</time>
      </trkpt>
      <trkpt lat="47.07738" lon="-0.79412">
        <ele>212.271</ele>
        <time>2018-08-11T13:09:54Z</time>
      </trkpt>
      <trkpt lat="47.07734" lon="-0.79416">
        <ele>212.277</ele>
        <time>2018-08-11T13:09:56Z</time>
      </trkpt>
      <trkpt lat="47.07731" lon="-0.79419">
        <ele>212.28</ele>
        <time>2018-08-11T13:09:57Z</time>
      </trkpt>
      <trkpt lat="47.07729" lon="-0.79425">
        <ele>212.289</ele>
        <time>2018-08-11T13:10:00Z</time>
      </trkpt>
      <trkpt lat="47.07725" lon="-0.79432">
        <ele>212.297</ele>
        <time>2018-08-11T13:10:03Z</time>
      </trkpt>
      <trkpt lat="47.07724" lon="-0.79436">
        <ele>212.3</ele>
        <time>2018-08-11T13:10:04Z</time>
      </trkpt>
      <trkpt lat="47.07721" lon="-0.79441">
        <ele>212.308</ele>
        <time>2018-08-11T13:10:07Z</time>
      </trkpt>
      <trkpt lat="47.07718" lon="-0.79448">
        <ele>212.316</ele>
        <time>2018-08-11T13:10:10Z</time>
      </trkpt>
      <trkpt lat="47.07717" lon="-0.79452">
        <ele>212.318</ele>
        <time>2018-08-11T13:10:11Z</time>
      </trkpt>
      <trkpt lat="47.07715" lon="-0.79458">
        <ele>212.328</ele>
        <time>2018-08-11T13:10:14Z</time>
      </trkpt>
      <trkpt lat="47.07712" lon="-0.79465">
        <ele>212.337</ele>
        <time>2018-08-11T13:10:18Z</time>
      </trkpt>
      <trkpt lat="47.0771" lon="-0.79472">
        <ele>212.342</ele>
        <time>2018-08-11T13:10:23Z</time>
      </trkpt>
      <trkpt lat="47.07709" lon="-0.79477">
        <ele>212.343</ele>
        <time>2018-08-11T13:10:25Z</time>
      </trkpt>
      <trkpt lat="47.07709" lon="-0.7948">
        <ele>212.344</ele>
        <time>2018-08-11T13:10:28Z</time>
      </trkpt>
      <trkpt lat="47.07706" lon="-0.79486">
        <ele>212.344</ele>
        <time>2018-08-11T13:10:32Z</time>
      </trkpt>
      <trkpt lat="47.07703" lon="-0.79492">
        <ele>212.343</ele>
        <time>2018-08-11T13:10:35Z</time>
      </trkpt>
      <trkpt lat="47.07699" lon="-0.79499">
        <ele>212.341</ele>
        <time>2018-08-11T13:10:39Z</time>
      </trkpt>
      <trkpt lat="47.07697" lon="-0.79506">
        <ele>212.339</ele>
        <time>2018-08-11T13:10:43Z</time>
      </trkpt>
      <trkpt lat="47.07695" lon="-0.79511">
        <ele>212.333</ele>
        <time>2018-08-11T13:10:47Z</time>
      </trkpt>
      <trkpt lat="47.07692" lon="-0.79517">
        <ele>212.327</ele>
        <time>2018-08-11T13:10:50Z</time>
      </trkpt>
      <trkpt lat="47.0769" lon="-0.79523">
        <ele>212.321</ele>
        <time>2018-08-11T13:10:53Z</time>
      </trkpt>
      <trkpt lat="47.07687" lon="-0.79528">
        <ele>212.315</ele>
        <time>2018-08-11T13:10:56Z</time>
      </trkpt>
      <trkpt lat="47.07684" lon="-0.79534">
        <ele>212.309</ele>
        <time>2018-08-11T13:10:59Z</time>
      </trkpt>
      <trkpt lat="47.07683" lon="-0.79543">
        <ele>212.297</ele>
        <time>2018-08-11T13:11:03Z</time>
      </trkpt>
      <trkpt lat="47.07681" lon="-0.79551">
        <ele>212.284</ele>
        <time>2018-08-11T13:11:07Z</time>
      </trkpt>
      <trkpt lat="47.0768" lon="-0.79555">
        <ele>212.277</ele>
        <time>2018-08-11T13:11:09Z</time>
      </trkpt>
      <trkpt lat="47.0768" lon="-0.7956">
        <ele>212.271</ele>
        <time>2018-08-11T13:11:11Z</time>
      </trkpt>
      <trkpt lat="47.07676" lon="-0.79565">
        <ele>212.255</ele>
        <time>2018-08-11T13:11:16Z</time>
      </trkpt>
      <trkpt lat="47.07675" lon="-0.79568">
        <ele>212.243</ele>
        <time>2018-08-11T13:11:19Z</time>
      </trkpt>
      <trkpt lat="47.07672" lon="-0.79575">
        <ele>212.226</ele>
        <time>2018-08-11T13:11:23Z</time>
      </trkpt>
      <trkpt lat="47.0767" lon="-0.79583">
        <ele>212.212</ele>
        <time>2018-08-11T13:11:26Z</time>
      </trkpt>
      <trkpt lat="47.07666" lon="-0.7959">
        <ele>212.196</ele>
        <time>2018-08-11T13:11:29Z</time>
      </trkpt>
      <trkpt lat="47.07664" lon="-0.79594">
        <ele>212.177</ele>
        <time>2018-08-11T13:11:32Z</time>
      </trkpt>
      <trkpt lat="47.07662" lon="-0.79598">
        <ele>212.163</ele>
        <time>2018-08-11T13:11:34Z</time>
      </trkpt>
      <trkpt lat="47.07661" lon="-0.79602">
        <ele>212.15</ele>
        <time>2018-08-11T13:11:36Z</time>
      </trkpt>
      <trkpt lat="47.07659" lon="-0.79606">
        <ele>212.137</ele>
        <time>2018-08-11T13:11:38Z</time>
      </trkpt>
      <trkpt lat="47.07656" lon="-0.79613">
        <ele>212.118</ele>
        <time>2018-08-11T13:11:41Z</time>
      </trkpt>
      <trkpt lat="47.07655" lon="-0.79617">
        <ele>212.105</ele>
        <time>2018-08-11T13:11:43Z</time>
      </trkpt>
      <trkpt lat="47.07652" lon="-0.79623">
        <ele>212.086</ele>
        <time>2018-08-11T13:11:46Z</time>
      </trkpt>
      <trkpt lat="47.07648" lon="-0.79628">
        <ele>212.068</ele>
        <time>2018-08-11T13:11:49Z</time>
      </trkpt>
      <trkpt lat="47.07646" lon="-0.79631">
        <ele>212.058</ele>
        <time>2018-08-11T13:11:51Z</time>
      </trkpt>
      <trkpt lat="47.07644" lon="-0.79635">
        <ele>212.05</ele>
        <time>2018-08-11T13:11:53Z</time>
      </trkpt>
      <trkpt lat="47.0764" lon="-0.79643">
        <ele>212.032</ele>
        <time>2018-08-11T13:11:58Z</time>
      </trkpt>
      <trkpt lat="47.07638" lon="-0.7965">
        <ele>212.019</ele>
        <time>2018-08-11T13:12:01Z</time>
      </trkpt>
      <trkpt lat="47.07636" lon="-0.79657">
        <ele>211.995</ele>
        <time>2018-08-11T13:12:06Z</time>
      </trkpt>
      <trkpt lat="47.07632" lon="-0.79662">
        <ele>211.976</ele>
        <time>2018-08-11T13:12:10Z</time>
      </trkpt>
      <trkpt lat="47.07629" lon="-0.79668">
        <ele>211.959</ele>
        <time>2018-08-11T13:12:14Z</time>
      </trkpt>
      <trkpt lat="47.07627" lon="-0.79672">
        <ele>211.949</ele>
        <time>2018-08-11T13:12:16Z</time>
      </trkpt>
      <trkpt lat="47.07625" lon="-0.79678">
        <ele>211.932</ele>
        <time>2018-08-11T13:12:20Z</time>
      </trkpt>
      <trkpt lat="47.07622" lon="-0.79683">
        <ele>211.92</ele>
        <time>2018-08-11T13:12:23Z</time>
      </trkpt>
      <trkpt lat="47.07619" lon="-0.79688">
        <ele>211.912</ele>
        <time>2018-08-11T13:12:25Z</time>
      </trkpt>
      <trkpt lat="47.07617" lon="-0.79696">
        <ele>211.895</ele>
        <time>2018-08-11T13:12:29Z</time>
      </trkpt>
      <trkpt lat="47.07616" lon="-0.79701">
        <ele>211.886</ele>
        <time>2018-08-11T13:12:31Z</time>
      </trkpt>
      <trkpt lat="47.07613" lon="-0.79706">
        <ele>211.873</ele>
        <time>2018-08-11T13:12:34Z</time>
      </trkpt>
      <trkpt lat="47.07611" lon="-0.79708">
        <ele>211.864</ele>
        <time>2018-08-11T13:12:36Z</time>
      </trkpt>
      <trkpt lat="47.07608" lon="-0.79714">
        <ele>211.842</ele>
        <time>2018-08-11T13:12:41Z</time>
      </trkpt>
      <trkpt lat="47.07606" lon="-0.79719">
        <ele>211.829</ele>
        <time>2018-08-11T13:12:44Z</time>
      </trkpt>
      <trkpt lat="47.07604" lon="-0.79723">
        <ele>211.821</ele>
        <time>2018-08-11T13:12:46Z</time>
      </trkpt>
      <trkpt lat="47.07602" lon="-0.79727">
        <ele>211.812</ele>
        <time>2018-08-11T13:12:48Z</time>
      </trkpt>
      <trkpt lat="47.07601" lon="-0.7973">
        <ele>211.808</ele>
        <time>2018-08-11T13:12:49Z</time>
      </trkpt>
      <trkpt lat="47.07598" lon="-0.79735">
        <ele>211.799</ele>
        <time>2018-08-11T13:12:51Z</time>
      </trkpt>
      <trkpt lat="47.07596" lon="-0.79741">
        <ele>211.786</ele>
        <time>2018-08-11T13:12:54Z</time>
      </trkpt>
      <trkpt lat="47.07594" lon="-0.79747">
        <ele>211.778</ele>
        <time>2018-08-11T13:12:56Z</time>
      </trkpt>
      <trkpt lat="47.07593" lon="-0.7975">
        <ele>211.774</ele>
        <time>2018-08-11T13:12:57Z</time>
      </trkpt>
      <trkpt lat="47.07591" lon="-0.79755">
        <ele>211.763</ele>
        <time>2018-08-11T13:13:00Z</time>
      </trkpt>
      <trkpt lat="47.07587" lon="-0.7976">
        <ele>211.754</ele>
        <time>2018-08-11T13:13:03Z</time>
      </trkpt>
      <trkpt lat="47.07585" lon="-0.79766">
        <ele>211.747</ele>
        <time>2018-08-11T13:13:06Z</time>
      </trkpt>
      <trkpt lat="47.07583" lon="-0.79769">
        <ele>211.742</ele>
        <time>2018-08-11T13:13:08Z</time>
      </trkpt>
      <trkpt lat="47.07581" lon="-0.79774">
        <ele>211.737</ele>
        <time>2018-08-11T13:13:10Z</time>
      </trkpt>
      <trkpt lat="47.07579" lon="-0.79781">
        <ele>211.727</ele>
        <time>2018-08-11T13:13:14Z</time>
      </trkpt>
      <trkpt lat="47.07577" lon="-0.79788">
        <ele>211.717</ele>
        <time>2018-08-11T13:13:19Z</time>
      </trkpt>
      <trkpt lat="47.07575" lon="-0.79794">
        <ele>211.711</ele>
        <time>2018-08-11T13:13:23Z</time>
      </trkpt>
      <trkpt lat="47.07573" lon="-0.79797">
        <ele>211.708</ele>
        <time>2018-08-11T13:13:24Z</time>
      </trkpt>
      <trkpt lat="47.0757" lon="-0.79804">
        <ele>211.703</ele>
        <time>2018-08-11T13:13:27Z</time>
      </trkpt>
      <trkpt lat="47.07567" lon="-0.79809">
        <ele>211.697</ele>
        <time>2018-08-11T13:13:31Z</time>
      </trkpt>
      <trkpt lat="47.07564" lon="-0.79813">
        <ele>211.693</ele>
        <time>2018-08-11T13:13:34Z</time>
      </trkpt>
      <trkpt lat="47.07562" lon="-0.79816">
        <ele>211.69</ele>
        <time>2018-08-11T13:13:36Z</time>
      </trkpt>
      <trkpt lat="47.07559" lon="-0.79822">
        <ele>211.686</ele>
        <time>2018-08-11T13:13:41Z</time>
      </trkpt>
      <trkpt lat="47.07557" lon="-0.79825">
        <ele>211.684</ele>
        <time>2018-08-11T13:13:43Z</time>
      </trkpt>
      <trkpt lat="47.07556" lon="-0.79828">
        <ele>211.68</ele>
        <time>2018-08-11T13:13:45Z</time>
      </trkpt>
      <trkpt lat="47.07552" lon="-0.79836">
        <ele>211.671</ele>
        <time>2018-08-11T13:13:49Z</time>
      </trkpt>
      <trkpt lat="47.0755" lon="-0.79843">
        <ele>211.664</ele>
        <time>2018-08-11T13:13:52Z</time>
      </trkpt>
      <trkpt lat="47.07547" lon="-0.79849">
        <ele>211.657</ele>
        <time>2018-08-11T13:13:55Z</time>
      </trkpt>
      <trkpt lat="47.07545" lon="-0.79855">
        <ele>211.65</ele>
        <time>2018-08-11T13:13:58Z</time>
      </trkpt>
      <trkpt lat="47.07542" lon="-0.79862">
        <ele>211.64</ele>
        <time>2018-08-11T13:14:03Z</time>
      </trkpt>
      <trkpt lat="47.0754" lon="-0.79869">
        <ele>211.629</ele>
        <time>2018-08-11T13:14:07Z</time>
      </trkpt>
      <trkpt lat="47.07537" lon="-0.79875">
        <ele>211.617</ele>
        <time>2018-08-11T13:14:11Z</time>
      </trkpt>
      <trkpt lat="47.07535" lon="-0.7988">
        <ele>211.607</ele>
        <time>2018-08-11T13:14:14Z</time>
      </trkpt>
      <trkpt lat="47.07532" lon="-0.79886">
        <ele>211.599</ele>
        <time>2018-08-11T13:14:16Z</time>
      </trkpt>
      <trkpt lat="47.0753" lon="-0.79889">
        <ele>211.592</ele>
        <time>2018-08-11T13:14:18Z</time>
      </trkpt>
      <trkpt lat="47.07527" lon="-0.79896">
        <ele>211.576</ele>
        <time>2018-08-11T13:14:22Z</time>
      </trkpt>
      <trkpt lat="47.07524" lon="-0.79904">
        <ele>211.558</ele>
        <time>2018-08-11T13:14:27Z</time>
      </trkpt>
      <trkpt lat="47.07522" lon="-0.79908">
        <ele>211.55</ele>
        <time>2018-08-11T13:14:29Z</time>
      </trkpt>
      <trkpt lat="47.0752" lon="-0.79915">
        <ele>211.534</ele>
        <time>2018-08-11T13:14:33Z</time>
      </trkpt>
      <trkpt lat="47.07518" lon="-0.79924">
        <ele>211.518</ele>
        <time>2018-08-11T13:14:37Z</time>
      </trkpt>
      <trkpt lat="47.07514" lon="-0.7993">
        <ele>211.5</ele>
        <time>2018-08-11T13:14:41Z</time>
      </trkpt>
      <trkpt lat="47.07512" lon="-0.79934">
        <ele>211.489</ele>
        <time>2018-08-11T13:14:44Z</time>
      </trkpt>
      <trkpt lat="47.0751" lon="-0.79942">
        <ele>211.476</ele>
        <time>2018-08-11T13:14:48Z</time>
      </trkpt>
      <trkpt lat="47.07507" lon="-0.79948">
        <ele>211.467</ele>
        <time>2018-08-11T13:14:51Z</time>
      </trkpt>
      <trkpt lat="47.07506" lon="-0.79951">
        <ele>211.462</ele>
        <time>2018-08-11T13:14:53Z</time>
      </trkpt>
      <trkpt lat="47.07504" lon="-0.79955">
        <ele>211.457</ele>
        <time>2018-08-11T13:14:55Z</time>
      </trkpt>
      <trkpt lat="47.07502" lon="-0.79959">
        <ele>211.451</ele>
        <time>2018-08-11T13:14:57Z</time>
      </trkpt>
      <trkpt lat="47.075" lon="-0.79964">
        <ele>211.445</ele>
        <time>2018-08-11T13:14:59Z</time>
      </trkpt>
      <trkpt lat="47.07498" lon="-0.7997">
        <ele>211.434</ele>
        <time>2018-08-11T13:15:03Z</time>
      </trkpt>
      <trkpt lat="47.07497" lon="-0.79975">
        <ele>211.425</ele>
        <time>2018-08-11T13:15:06Z</time>
      </trkpt>
      <trkpt lat="47.07494" lon="-0.79982">
        <ele>211.418</ele>
        <time>2018-08-11T13:15:09Z</time>
      </trkpt>
      <trkpt lat="47.07492" lon="-0.79986">
        <ele>211.412</ele>
        <time>2018-08-11T13:15:12Z</time>
      </trkpt>
      <trkpt lat="47.07487" lon="-0.79992">
        <ele>211.406</ele>
        <time>2018-08-11T13:15:16Z</time>
      </trkpt>
      <trkpt lat="47.07484" lon="-0.79997">
        <ele>211.404</ele>
        <time>2018-08-11T13:15:18Z</time>
      </trkpt>
      <trkpt lat="47.07479" lon="-0.80006">
        <ele>211.394</ele>
        <time>2018-08-11T13:15:23Z</time>
      </trkpt>
      <trkpt lat="47.07478" lon="-0.80009">
        <ele>211.388</ele>
        <time>2018-08-11T13:15:25Z</time>
      </trkpt>
      <trkpt lat="47.07476" lon="-0.80013">
        <ele>211.382</ele>
        <time>2018-08-11T13:15:27Z</time>
      </trkpt>
      <trkpt lat="47.07474" lon="-0.80019">
        <ele>211.371</ele>
        <time>2018-08-11T13:15:30Z</time>
      </trkpt>
      <trkpt lat="47.07473" lon="-0.80023">
        <ele>211.364</ele>
        <time>2018-08-11T13:15:32Z</time>
      </trkpt>
      <trkpt lat="47.07471" lon="-0.80028">
        <ele>211.357</ele>
        <time>2018-08-11T13:15:34Z</time>
      </trkpt>
      <trkpt lat="47.07468" lon="-0.80033">
        <ele>211.341</ele>
        <time>2018-08-11T13:15:39Z</time>
      </trkpt>
      <trkpt lat="47.07466" lon="-0.80036">
        <ele>211.334</ele>
        <time>2018-08-11T13:15:41Z</time>
      </trkpt>
      <trkpt lat="47.07464" lon="-0.80042">
        <ele>211.323</ele>
        <time>2018-08-11T13:15:44Z</time>
      </trkpt>
      <trkpt lat="47.07462" lon="-0.80045">
        <ele>211.315</ele>
        <time>2018-08-11T13:15:46Z</time>
      </trkpt>
      <trkpt lat="47.0746" lon="-0.80051">
        <ele>211.3</ele>
        <time>2018-08-11T13:15:49Z</time>
      </trkpt>
      <trkpt lat="47.07458" lon="-0.80056">
        <ele>211.287</ele>
        <time>2018-08-11T13:15:51Z</time>
      </trkpt>
      <trkpt lat="47.07456" lon="-0.80064">
        <ele>211.25</ele>
        <time>2018-08-11T13:15:56Z</time>
      </trkpt>
      <trkpt lat="47.07454" lon="-0.80071">
        <ele>211.22</ele>
        <time>2018-08-11T13:15:59Z</time>
      </trkpt>
      <trkpt lat="47.0745" lon="-0.80077">
        <ele>211.181</ele>
        <time>2018-08-11T13:16:02Z</time>
      </trkpt>
      <trkpt lat="47.07448" lon="-0.80084">
        <ele>211.123</ele>
        <time>2018-08-11T13:16:06Z</time>
      </trkpt>
      <trkpt lat="47.07445" lon="-0.8009">
        <ele>211.077</ele>
        <time>2018-08-11T13:16:09Z</time>
      </trkpt>
      <trkpt lat="47.07442" lon="-0.80095">
        <ele>211.031</ele>
        <time>2018-08-11T13:16:12Z</time>
      </trkpt>
      <trkpt lat="47.07438" lon="-0.801">
        <ele>210.984</ele>
        <time>2018-08-11T13:16:15Z</time>
      </trkpt>
      <trkpt lat="47.07435" lon="-0.80107">
        <ele>210.938</ele>
        <time>2018-08-11T13:16:18Z</time>
      </trkpt>
      <trkpt lat="47.07433" lon="-0.8011">
        <ele>210.924</ele>
        <time>2018-08-11T13:16:19Z</time>
      </trkpt>
      <trkpt lat="47.0743" lon="-0.80115">
        <ele>210.857</ele>
        <time>2018-08-11T13:16:24Z</time>
      </trkpt>
      <trkpt lat="47.07427" lon="-0.80122">
        <ele>210.781</ele>
        <time>2018-08-11T13:16:30Z</time>
      </trkpt>
      <trkpt lat="47.07425" lon="-0.80129">
        <ele>210.706</ele>
        <time>2018-08-11T13:16:37Z</time>
      </trkpt>
      <trkpt lat="47.07422" lon="-0.80136">
        <ele>210.656</ele>
        <time>2018-08-11T13:16:42Z</time>
      </trkpt>
      <trkpt lat="47.07419" lon="-0.8014">
        <ele>210.627</ele>
        <time>2018-08-11T13:16:45Z</time>
      </trkpt>
      <trkpt lat="47.07416" lon="-0.80145">
        <ele>210.578</ele>
        <time>2018-08-11T13:16:50Z</time>
      </trkpt>
      <trkpt lat="47.07416" lon="-0.80145">
        <ele>141</ele>
        <time>2018-08-11T13:16:58Z</time>
      </trkpt>
      <trkpt lat="47.07416" lon="-0.80145">
        <ele>141</ele>
        <time>2018-08-11T13:18:12Z</time>
      </trkpt>
      <trkpt lat="47.07401" lon="-0.80184">
        <ele>209.722</ele>
        <time>2018-08-11T13:18:12Z</time>
      </trkpt>
      <trkpt lat="47.07397" lon="-0.80193">
        <ele>209.655</ele>
        <time>2018-08-11T13:18:15Z</time>
      </trkpt>
      <trkpt lat="47.07395" lon="-0.80199">
        <ele>209.611</ele>
        <time>2018-08-11T13:18:17Z</time>
      </trkpt>
      <trkpt lat="47.07392" lon="-0.80205">
        <ele>209.568</ele>
        <time>2018-08-11T13:18:19Z</time>
      </trkpt>
      <trkpt lat="47.07389" lon="-0.80214">
        <ele>209.484</ele>
        <time>2018-08-11T13:18:23Z</time>
      </trkpt>
      <trkpt lat="47.07388" lon="-0.80217">
        <ele>209.443</ele>
        <time>2018-08-11T13:18:25Z</time>
      </trkpt>
      <trkpt lat="47.07383" lon="-0.80226">
        <ele>209.383</ele>
        <time>2018-08-11T13:18:28Z</time>
      </trkpt>
      <trkpt lat="47.0738" lon="-0.80232">
        <ele>209.329</ele>
        <time>2018-08-11T13:18:31Z</time>
      </trkpt>
      <trkpt lat="47.07379" lon="-0.80235">
        <ele>209.312</ele>
        <time>2018-08-11T13:18:32Z</time>
      </trkpt>
      <trkpt lat="47.07376" lon="-0.8024">
        <ele>209.21</ele>
        <time>2018-08-11T13:18:38Z</time>
      </trkpt>
      <trkpt lat="47.07374" lon="-0.80243">
        <ele>209.195</ele>
        <time>2018-08-11T13:18:39Z</time>
      </trkpt>
      <trkpt lat="47.07372" lon="-0.8025">
        <ele>209.163</ele>
        <time>2018-08-11T13:18:41Z</time>
      </trkpt>
      <trkpt lat="47.07369" lon="-0.80258">
        <ele>209.101</ele>
        <time>2018-08-11T13:18:45Z</time>
      </trkpt>
      <trkpt lat="47.07365" lon="-0.80265">
        <ele>209.044</ele>
        <time>2018-08-11T13:18:49Z</time>
      </trkpt>
      <trkpt lat="47.07363" lon="-0.80272">
        <ele>208.976</ele>
        <time>2018-08-11T13:18:54Z</time>
      </trkpt>
      <trkpt lat="47.07362" lon="-0.80275">
        <ele>208.948</ele>
        <time>2018-08-11T13:18:56Z</time>
      </trkpt>
      <trkpt lat="47.07359" lon="-0.80281">
        <ele>208.892</ele>
        <time>2018-08-11T13:19:00Z</time>
      </trkpt>
      <trkpt lat="47.07358" lon="-0.80288">
        <ele>208.838</ele>
        <time>2018-08-11T13:19:04Z</time>
      </trkpt>
      <trkpt lat="47.07355" lon="-0.80295">
        <ele>208.776</ele>
        <time>2018-08-11T13:19:09Z</time>
      </trkpt>
      <trkpt lat="47.07352" lon="-0.803">
        <ele>208.739</ele>
        <time>2018-08-11T13:19:13Z</time>
      </trkpt>
      <trkpt lat="47.07348" lon="-0.80306">
        <ele>208.704</ele>
        <time>2018-08-11T13:19:16Z</time>
      </trkpt>
      <trkpt lat="47.07344" lon="-0.80312">
        <ele>208.67</ele>
        <time>2018-08-11T13:19:19Z</time>
      </trkpt>
      <trkpt lat="47.07343" lon="-0.8032">
        <ele>208.638</ele>
        <time>2018-08-11T13:19:22Z</time>
      </trkpt>
      <trkpt lat="47.07341" lon="-0.80328">
        <ele>208.607</ele>
        <time>2018-08-11T13:19:25Z</time>
      </trkpt>
      <trkpt lat="47.07338" lon="-0.80334">
        <ele>208.578</ele>
        <time>2018-08-11T13:19:28Z</time>
      </trkpt>
      <trkpt lat="47.07337" lon="-0.80338">
        <ele>208.56</ele>
        <time>2018-08-11T13:19:30Z</time>
      </trkpt>
      <trkpt lat="47.07335" lon="-0.80343">
        <ele>208.543</ele>
        <time>2018-08-11T13:19:32Z</time>
      </trkpt>
      <trkpt lat="47.07333" lon="-0.80349">
        <ele>208.501</ele>
        <time>2018-08-11T13:19:37Z</time>
      </trkpt>
      <trkpt lat="47.07331" lon="-0.80354">
        <ele>208.466</ele>
        <time>2018-08-11T13:19:41Z</time>
      </trkpt>
      <trkpt lat="47.07329" lon="-0.80361">
        <ele>208.432</ele>
        <time>2018-08-11T13:19:45Z</time>
      </trkpt>
      <trkpt lat="47.07324" lon="-0.80372">
        <ele>208.394</ele>
        <time>2018-08-11T13:19:50Z</time>
      </trkpt>
      <trkpt lat="47.07323" lon="-0.8038">
        <ele>208.364</ele>
        <time>2018-08-11T13:19:54Z</time>
      </trkpt>
      <trkpt lat="47.07321" lon="-0.80384">
        <ele>208.348</ele>
        <time>2018-08-11T13:19:57Z</time>
      </trkpt>
      <trkpt lat="47.07321" lon="-0.80392">
        <ele>208.316</ele>
        <time>2018-08-11T13:20:01Z</time>
      </trkpt>
      <trkpt lat="47.07317" lon="-0.80399">
        <ele>208.273</ele>
        <time>2018-08-11T13:20:06Z</time>
      </trkpt>
      <trkpt lat="47.07314" lon="-0.80409">
        <ele>208.248</ele>
        <time>2018-08-11T13:20:09Z</time>
      </trkpt>
      <trkpt lat="47.0731" lon="-0.80415">
        <ele>208.211</ele>
        <time>2018-08-11T13:20:14Z</time>
      </trkpt>
      <trkpt lat="47.07308" lon="-0.80422">
        <ele>208.192</ele>
        <time>2018-08-11T13:20:17Z</time>
      </trkpt>
      <trkpt lat="47.07305" lon="-0.8043">
        <ele>208.157</ele>
        <time>2018-08-11T13:20:22Z</time>
      </trkpt>
      <trkpt lat="47.07301" lon="-0.80437">
        <ele>208.138</ele>
        <time>2018-08-11T13:20:25Z</time>
      </trkpt>
      <trkpt lat="47.07298" lon="-0.80442">
        <ele>208.124</ele>
        <time>2018-08-11T13:20:27Z</time>
      </trkpt>
      <trkpt lat="47.07296" lon="-0.80448">
        <ele>208.102</ele>
        <time>2018-08-11T13:20:30Z</time>
      </trkpt>
      <trkpt lat="47.07292" lon="-0.80453">
        <ele>208.062</ele>
        <time>2018-08-11T13:20:35Z</time>
      </trkpt>
      <trkpt lat="47.07289" lon="-0.80461">
        <ele>208.012</ele>
        <time>2018-08-11T13:20:40Z</time>
      </trkpt>
      <trkpt lat="47.07288" lon="-0.80464">
        <ele>207.992</ele>
        <time>2018-08-11T13:20:42Z</time>
      </trkpt>
      <trkpt lat="47.07286" lon="-0.80469">
        <ele>207.961</ele>
        <time>2018-08-11T13:20:45Z</time>
      </trkpt>
      <trkpt lat="47.07282" lon="-0.80474">
        <ele>207.915</ele>
        <time>2018-08-11T13:20:49Z</time>
      </trkpt>
      <trkpt lat="47.07278" lon="-0.80481">
        <ele>207.876</ele>
        <time>2018-08-11T13:20:52Z</time>
      </trkpt>
      <trkpt lat="47.07275" lon="-0.80485">
        <ele>207.848</ele>
        <time>2018-08-11T13:20:54Z</time>
      </trkpt>
      <trkpt lat="47.07274" lon="-0.80488">
        <ele>207.816</ele>
        <time>2018-08-11T13:20:56Z</time>
      </trkpt>
      <trkpt lat="47.07272" lon="-0.80492">
        <ele>207.769</ele>
        <time>2018-08-11T13:20:59Z</time>
      </trkpt>
      <trkpt lat="47.0727" lon="-0.80494">
        <ele>207.737</ele>
        <time>2018-08-11T13:21:01Z</time>
      </trkpt>
      <trkpt lat="47.07268" lon="-0.80497">
        <ele>207.706</ele>
        <time>2018-08-11T13:21:03Z</time>
      </trkpt>
      <trkpt lat="47.07267" lon="-0.80503">
        <ele>207.599</ele>
        <time>2018-08-11T13:21:10Z</time>
      </trkpt>
      <trkpt lat="47.07267" lon="-0.80503">
        <ele>132.5</ele>
        <time>2018-08-11T13:21:17Z</time>
      </trkpt>
      <trkpt lat="47.07267" lon="-0.80503">
        <ele>132.5</ele>
        <time>2018-08-11T13:22:03Z</time>
      </trkpt>
      <trkpt lat="47.07273" lon="-0.80549">
        <ele>206.84</ele>
        <time>2018-08-11T13:22:03Z</time>
      </trkpt>
      <trkpt lat="47.07273" lon="-0.80553">
        <ele>206.792</ele>
        <time>2018-08-11T13:22:07Z</time>
      </trkpt>
      <trkpt lat="47.07272" lon="-0.80561">
        <ele>206.723</ele>
        <time>2018-08-11T13:22:12Z</time>
      </trkpt>
      <trkpt lat="47.07273" lon="-0.80569">
        <ele>206.671</ele>
        <time>2018-08-11T13:22:15Z</time>
      </trkpt>
      <trkpt lat="47.07274" lon="-0.80574">
        <ele>206.621</ele>
        <time>2018-08-11T13:22:18Z</time>
      </trkpt>
      <trkpt lat="47.07274" lon="-0.80577">
        <ele>206.586</ele>
        <time>2018-08-11T13:22:21Z</time>
      </trkpt>
      <trkpt lat="47.07274" lon="-0.80577">
        <ele>130.1</ele>
        <time>2018-08-11T13:22:28Z</time>
      </trkpt>
      <trkpt lat="47.07274" lon="-0.80577">
        <ele>130.1</ele>
        <time>2018-08-11T13:22:33Z</time>
      </trkpt>
      <trkpt lat="47.07282" lon="-0.80588">
        <ele>206.399</ele>
        <time>2018-08-11T13:22:33Z</time>
      </trkpt>
      <trkpt lat="47.07285" lon="-0.80594">
        <ele>206.379</ele>
        <time>2018-08-11T13:22:36Z</time>
      </trkpt>
      <trkpt lat="47.07287" lon="-0.80599">
        <ele>206.308</ele>
        <time>2018-08-11T13:22:42Z</time>
      </trkpt>
      <trkpt lat="47.07289" lon="-0.80601">
        <ele>206.274</ele>
        <time>2018-08-11T13:22:44Z</time>
      </trkpt>
      <trkpt lat="47.07291" lon="-0.80609">
        <ele>206.194</ele>
        <time>2018-08-11T13:22:50Z</time>
      </trkpt>
      <trkpt lat="47.07289" lon="-0.80615">
        <ele>206.147</ele>
        <time>2018-08-11T13:22:53Z</time>
      </trkpt>
      <trkpt lat="47.07289" lon="-0.80615">
        <ele>130.2</ele>
        <time>2018-08-11T13:23:00Z</time>
      </trkpt>
      <trkpt lat="47.07289" lon="-0.80615">
        <ele>130.2</ele>
        <time>2018-08-11T13:23:17Z</time>
      </trkpt>
      <trkpt lat="47.07305" lon="-0.80627">
        <ele>205.76</ele>
        <time>2018-08-11T13:23:17Z</time>
      </trkpt>
      <trkpt lat="47.0731" lon="-0.80629">
        <ele>205.698</ele>
        <time>2018-08-11T13:23:20Z</time>
      </trkpt>
      <trkpt lat="47.07315" lon="-0.8063">
        <ele>205.658</ele>
        <time>2018-08-11T13:23:22Z</time>
      </trkpt>
      <trkpt lat="47.07318" lon="-0.80631">
        <ele>205.62</ele>
        <time>2018-08-11T13:23:24Z</time>
      </trkpt>
      <trkpt lat="47.07321" lon="-0.80632">
        <ele>205.582</ele>
        <time>2018-08-11T13:23:26Z</time>
      </trkpt>
      <trkpt lat="47.07326" lon="-0.80635">
        <ele>205.525</ele>
        <time>2018-08-11T13:23:29Z</time>
      </trkpt>
      <trkpt lat="47.07331" lon="-0.80636">
        <ele>205.448</ele>
        <time>2018-08-11T13:23:33Z</time>
      </trkpt>
      <trkpt lat="47.07335" lon="-0.8064">
        <ele>205.355</ele>
        <time>2018-08-11T13:23:38Z</time>
      </trkpt>
      <trkpt lat="47.0734" lon="-0.80641">
        <ele>205.299</ele>
        <time>2018-08-11T13:23:41Z</time>
      </trkpt>
      <trkpt lat="47.07345" lon="-0.8064">
        <ele>205.239</ele>
        <time>2018-08-11T13:23:44Z</time>
      </trkpt>
      <trkpt lat="47.07351" lon="-0.80639">
        <ele>205.157</ele>
        <time>2018-08-11T13:23:48Z</time>
      </trkpt>
      <trkpt lat="47.07356" lon="-0.8064">
        <ele>205.098</ele>
        <time>2018-08-11T13:23:51Z</time>
      </trkpt>
      <trkpt lat="47.07362" lon="-0.8064">
        <ele>205.02</ele>
        <time>2018-08-11T13:23:55Z</time>
      </trkpt>
      <trkpt lat="47.07366" lon="-0.80641">
        <ele>204.98</ele>
        <time>2018-08-11T13:23:57Z</time>
      </trkpt>
      <trkpt lat="47.07368" lon="-0.80642">
        <ele>204.938</ele>
        <time>2018-08-11T13:23:59Z</time>
      </trkpt>
      <trkpt lat="47.07374" lon="-0.80641">
        <ele>204.855</ele>
        <time>2018-08-11T13:24:03Z</time>
      </trkpt>
      <trkpt lat="47.07376" lon="-0.80641">
        <ele>204.815</ele>
        <time>2018-08-11T13:24:05Z</time>
      </trkpt>
      <trkpt lat="47.07381" lon="-0.80641">
        <ele>204.775</ele>
        <time>2018-08-11T13:24:07Z</time>
      </trkpt>
      <trkpt lat="47.07384" lon="-0.80641">
        <ele>204.755</ele>
        <time>2018-08-11T13:24:08Z</time>
      </trkpt>
      <trkpt lat="47.0739" lon="-0.8064">
        <ele>204.698</ele>
        <time>2018-08-11T13:24:11Z</time>
      </trkpt>
      <trkpt lat="47.07394" lon="-0.8064">
        <ele>204.607</ele>
        <time>2018-08-11T13:24:17Z</time>
      </trkpt>
      <trkpt lat="47.07399" lon="-0.80642">
        <ele>204.54</ele>
        <time>2018-08-11T13:24:21Z</time>
      </trkpt>
      <trkpt lat="47.07402" lon="-0.80642">
        <ele>204.524</ele>
        <time>2018-08-11T13:24:22Z</time>
      </trkpt>
      <trkpt lat="47.07407" lon="-0.80645">
        <ele>204.461</ele>
        <time>2018-08-11T13:24:26Z</time>
      </trkpt>
      <trkpt lat="47.0741" lon="-0.80646">
        <ele>204.428</ele>
        <time>2018-08-11T13:24:28Z</time>
      </trkpt>
      <trkpt lat="47.07414" lon="-0.8065">
        <ele>204.363</ele>
        <time>2018-08-11T13:24:32Z</time>
      </trkpt>
      <trkpt lat="47.07419" lon="-0.80655">
        <ele>204.298</ele>
        <time>2018-08-11T13:24:36Z</time>
      </trkpt>
      <trkpt lat="47.07424" lon="-0.80659">
        <ele>204.233</ele>
        <time>2018-08-11T13:24:40Z</time>
      </trkpt>
      <trkpt lat="47.07428" lon="-0.80664">
        <ele>204.169</ele>
        <time>2018-08-11T13:24:44Z</time>
      </trkpt>
      <trkpt lat="47.0743" lon="-0.80667">
        <ele>204.138</ele>
        <time>2018-08-11T13:24:46Z</time>
      </trkpt>
      <trkpt lat="47.07433" lon="-0.80674">
        <ele>204.094</ele>
        <time>2018-08-11T13:24:49Z</time>
      </trkpt>
      <trkpt lat="47.07434" lon="-0.80678">
        <ele>204.065</ele>
        <time>2018-08-11T13:24:51Z</time>
      </trkpt>
      <trkpt lat="47.07438" lon="-0.80683">
        <ele>204.008</ele>
        <time>2018-08-11T13:24:55Z</time>
      </trkpt>
      <trkpt lat="47.07441" lon="-0.80689">
        <ele>203.967</ele>
        <time>2018-08-11T13:24:58Z</time>
      </trkpt>
      <trkpt lat="47.07442" lon="-0.80697">
        <ele>203.928</ele>
        <time>2018-08-11T13:25:01Z</time>
      </trkpt>
      <trkpt lat="47.07442" lon="-0.80703">
        <ele>203.892</ele>
        <time>2018-08-11T13:25:04Z</time>
      </trkpt>
      <trkpt lat="47.07441" lon="-0.8071">
        <ele>203.846</ele>
        <time>2018-08-11T13:25:08Z</time>
      </trkpt>
      <trkpt lat="47.07441" lon="-0.80717">
        <ele>203.824</ele>
        <time>2018-08-11T13:25:10Z</time>
      </trkpt>
      <trkpt lat="47.0744" lon="-0.80725">
        <ele>203.792</ele>
        <time>2018-08-11T13:25:13Z</time>
      </trkpt>
      <trkpt lat="47.0744" lon="-0.8073">
        <ele>203.76</ele>
        <time>2018-08-11T13:25:16Z</time>
      </trkpt>
      <trkpt lat="47.07439" lon="-0.80737">
        <ele>203.718</ele>
        <time>2018-08-11T13:25:20Z</time>
      </trkpt>
      <trkpt lat="47.07439" lon="-0.80746">
        <ele>203.686</ele>
        <time>2018-08-11T13:25:23Z</time>
      </trkpt>
      <trkpt lat="47.07436" lon="-0.80754">
        <ele>203.643</ele>
        <time>2018-08-11T13:25:27Z</time>
      </trkpt>
      <trkpt lat="47.07433" lon="-0.8076">
        <ele>203.613</ele>
        <time>2018-08-11T13:25:30Z</time>
      </trkpt>
      <trkpt lat="47.07431" lon="-0.80767">
        <ele>203.573</ele>
        <time>2018-08-11T13:25:34Z</time>
      </trkpt>
      <trkpt lat="47.07431" lon="-0.80775">
        <ele>203.529</ele>
        <time>2018-08-11T13:25:38Z</time>
      </trkpt>
      <trkpt lat="47.07431" lon="-0.80778">
        <ele>203.507</ele>
        <time>2018-08-11T13:25:40Z</time>
      </trkpt>
      <trkpt lat="47.0743" lon="-0.80788">
        <ele>203.462</ele>
        <time>2018-08-11T13:25:44Z</time>
      </trkpt>
      <trkpt lat="47.07429" lon="-0.80795">
        <ele>203.425</ele>
        <time>2018-08-11T13:25:47Z</time>
      </trkpt>
      <trkpt lat="47.07428" lon="-0.808">
        <ele>203.399</ele>
        <time>2018-08-11T13:25:49Z</time>
      </trkpt>
      <trkpt lat="47.07427" lon="-0.80807">
        <ele>203.331</ele>
        <time>2018-08-11T13:25:54Z</time>
      </trkpt>
      <trkpt lat="47.07426" lon="-0.80814">
        <ele>203.259</ele>
        <time>2018-08-11T13:25:59Z</time>
      </trkpt>
      <trkpt lat="47.07425" lon="-0.80818">
        <ele>203.228</ele>
        <time>2018-08-11T13:26:01Z</time>
      </trkpt>
      <trkpt lat="47.07424" lon="-0.80823">
        <ele>203.18</ele>
        <time>2018-08-11T13:26:04Z</time>
      </trkpt>
      <trkpt lat="47.07424" lon="-0.8083">
        <ele>203.111</ele>
        <time>2018-08-11T13:26:08Z</time>
      </trkpt>
      <trkpt lat="47.07424" lon="-0.80837">
        <ele>203.043</ele>
        <time>2018-08-11T13:26:12Z</time>
      </trkpt>
      <trkpt lat="47.07425" lon="-0.80844">
        <ele>202.973</ele>
        <time>2018-08-11T13:26:16Z</time>
      </trkpt>
      <trkpt lat="47.07426" lon="-0.80848">
        <ele>202.955</ele>
        <time>2018-08-11T13:26:17Z</time>
      </trkpt>
      <trkpt lat="47.07427" lon="-0.80854">
        <ele>202.921</ele>
        <time>2018-08-11T13:26:19Z</time>
      </trkpt>
      <trkpt lat="47.07427" lon="-0.80862">
        <ele>202.868</ele>
        <time>2018-08-11T13:26:22Z</time>
      </trkpt>
      <trkpt lat="47.07427" lon="-0.80865">
        <ele>202.851</ele>
        <time>2018-08-11T13:26:23Z</time>
      </trkpt>
      <trkpt lat="47.07428" lon="-0.80872">
        <ele>202.797</ele>
        <time>2018-08-11T13:26:26Z</time>
      </trkpt>
      <trkpt lat="47.07428" lon="-0.80878">
        <ele>202.743</ele>
        <time>2018-08-11T13:26:29Z</time>
      </trkpt>
      <trkpt lat="47.07428" lon="-0.80884">
        <ele>202.688</ele>
        <time>2018-08-11T13:26:32Z</time>
      </trkpt>
      <trkpt lat="47.07427" lon="-0.80891">
        <ele>202.631</ele>
        <time>2018-08-11T13:26:35Z</time>
      </trkpt>
      <trkpt lat="47.07426" lon="-0.80896">
        <ele>202.591</ele>
        <time>2018-08-11T13:26:37Z</time>
      </trkpt>
      <trkpt lat="47.07425" lon="-0.809">
        <ele>202.571</ele>
        <time>2018-08-11T13:26:38Z</time>
      </trkpt>
      <trkpt lat="47.07424" lon="-0.80906">
        <ele>202.53</ele>
        <time>2018-08-11T13:26:40Z</time>
      </trkpt>
      <trkpt lat="47.07423" lon="-0.8091">
        <ele>202.489</ele>
        <time>2018-08-11T13:26:42Z</time>
      </trkpt>
      <trkpt lat="47.07423" lon="-0.80914">
        <ele>202.447</ele>
        <time>2018-08-11T13:26:44Z</time>
      </trkpt>
      <trkpt lat="47.07421" lon="-0.80921">
        <ele>202.385</ele>
        <time>2018-08-11T13:26:47Z</time>
      </trkpt>
      <trkpt lat="47.07421" lon="-0.80926">
        <ele>202.343</ele>
        <time>2018-08-11T13:26:49Z</time>
      </trkpt>
      <trkpt lat="47.0742" lon="-0.80931">
        <ele>202.302</ele>
        <time>2018-08-11T13:26:51Z</time>
      </trkpt>
      <trkpt lat="47.07419" lon="-0.80935">
        <ele>202.262</ele>
        <time>2018-08-11T13:26:53Z</time>
      </trkpt>
      <trkpt lat="47.07419" lon="-0.8094">
        <ele>202.222</ele>
        <time>2018-08-11T13:26:55Z</time>
      </trkpt>
      <trkpt lat="47.07418" lon="-0.80944">
        <ele>202.162</ele>
        <time>2018-08-11T13:26:58Z</time>
      </trkpt>
      <trkpt lat="47.07418" lon="-0.80947">
        <ele>202.122</ele>
        <time>2018-08-11T13:27:00Z</time>
      </trkpt>
      <trkpt lat="47.07417" lon="-0.80954">
        <ele>202.041</ele>
        <time>2018-08-11T13:27:04Z</time>
      </trkpt>
      <trkpt lat="47.07417" lon="-0.80958">
        <ele>202</ele>
        <time>2018-08-11T13:27:06Z</time>
      </trkpt>
      <trkpt lat="47.07416" lon="-0.80965">
        <ele>201.915</ele>
        <time>2018-08-11T13:27:10Z</time>
      </trkpt>
      <trkpt lat="47.07418" lon="-0.80973">
        <ele>201.815</ele>
        <time>2018-08-11T13:27:14Z</time>
      </trkpt>
      <trkpt lat="47.07418" lon="-0.80977">
        <ele>201.76</ele>
        <time>2018-08-11T13:27:16Z</time>
      </trkpt>
      <trkpt lat="47.07419" lon="-0.80981">
        <ele>201.703</ele>
        <time>2018-08-11T13:27:18Z</time>
      </trkpt>
      <trkpt lat="47.07419" lon="-0.80986">
        <ele>201.644</ele>
        <time>2018-08-11T13:27:20Z</time>
      </trkpt>
      <trkpt lat="47.07419" lon="-0.80991">
        <ele>201.583</ele>
        <time>2018-08-11T13:27:22Z</time>
      </trkpt>
      <trkpt lat="47.07421" lon="-0.80997">
        <ele>201.458</ele>
        <time>2018-08-11T13:27:26Z</time>
      </trkpt>
      <trkpt lat="47.07421" lon="-0.81005">
        <ele>201.333</ele>
        <time>2018-08-11T13:27:30Z</time>
      </trkpt>
      <trkpt lat="47.07422" lon="-0.81012">
        <ele>201.214</ele>
        <time>2018-08-11T13:27:34Z</time>
      </trkpt>
      <trkpt lat="47.07423" lon="-0.81016">
        <ele>201.156</ele>
        <time>2018-08-11T13:27:36Z</time>
      </trkpt>
      <trkpt lat="47.07424" lon="-0.81021">
        <ele>201.098</ele>
        <time>2018-08-11T13:27:38Z</time>
      </trkpt>
      <trkpt lat="47.07424" lon="-0.81025">
        <ele>201.04</ele>
        <time>2018-08-11T13:27:40Z</time>
      </trkpt>
      <trkpt lat="47.07425" lon="-0.81028">
        <ele>200.981</ele>
        <time>2018-08-11T13:27:42Z</time>
      </trkpt>
      <trkpt lat="47.07424" lon="-0.81035">
        <ele>200.87</ele>
        <time>2018-08-11T13:27:46Z</time>
      </trkpt>
      <trkpt lat="47.07424" lon="-0.8104">
        <ele>200.788</ele>
        <time>2018-08-11T13:27:49Z</time>
      </trkpt>
      <trkpt lat="47.07424" lon="-0.81044">
        <ele>200.732</ele>
        <time>2018-08-11T13:27:51Z</time>
      </trkpt>
      <trkpt lat="47.07425" lon="-0.8105">
        <ele>200.649</ele>
        <time>2018-08-11T13:27:54Z</time>
      </trkpt>
      <trkpt lat="47.07426" lon="-0.81057">
        <ele>200.568</ele>
        <time>2018-08-11T13:27:57Z</time>
      </trkpt>
      <trkpt lat="47.07428" lon="-0.81064">
        <ele>200.458</ele>
        <time>2018-08-11T13:28:01Z</time>
      </trkpt>
      <trkpt lat="47.07429" lon="-0.81071">
        <ele>200.377</ele>
        <time>2018-08-11T13:28:04Z</time>
      </trkpt>
      <trkpt lat="47.0743" lon="-0.81076">
        <ele>200.323</ele>
        <time>2018-08-11T13:28:06Z</time>
      </trkpt>
      <trkpt lat="47.0743" lon="-0.8108">
        <ele>200.272</ele>
        <time>2018-08-11T13:28:08Z</time>
      </trkpt>
      <trkpt lat="47.07433" lon="-0.81086">
        <ele>200.171</ele>
        <time>2018-08-11T13:28:12Z</time>
      </trkpt>
      <trkpt lat="47.07434" lon="-0.81094">
        <ele>200.096</ele>
        <time>2018-08-11T13:28:15Z</time>
      </trkpt>
      <trkpt lat="47.07433" lon="-0.81102">
        <ele>200.003</ele>
        <time>2018-08-11T13:28:19Z</time>
      </trkpt>
      <trkpt lat="47.07433" lon="-0.8111">
        <ele>199.912</ele>
        <time>2018-08-11T13:28:23Z</time>
      </trkpt>
      <trkpt lat="47.07433" lon="-0.81115">
        <ele>199.866</ele>
        <time>2018-08-11T13:28:25Z</time>
      </trkpt>
      <trkpt lat="47.07432" lon="-0.81122">
        <ele>199.822</ele>
        <time>2018-08-11T13:28:27Z</time>
      </trkpt>
      <trkpt lat="47.07431" lon="-0.81129">
        <ele>199.757</ele>
        <time>2018-08-11T13:28:30Z</time>
      </trkpt>
      <trkpt lat="47.07432" lon="-0.81138">
        <ele>199.651</ele>
        <time>2018-08-11T13:28:35Z</time>
      </trkpt>
      <trkpt lat="47.07431" lon="-0.81146">
        <ele>199.613</ele>
        <time>2018-08-11T13:28:37Z</time>
      </trkpt>
      <trkpt lat="47.07432" lon="-0.81153">
        <ele>199.535</ele>
        <time>2018-08-11T13:28:41Z</time>
      </trkpt>
      <trkpt lat="47.07433" lon="-0.81158">
        <ele>199.476</ele>
        <time>2018-08-11T13:28:44Z</time>
      </trkpt>
      <trkpt lat="47.07432" lon="-0.81166">
        <ele>199.403</ele>
        <time>2018-08-11T13:28:48Z</time>
      </trkpt>
      <trkpt lat="47.07432" lon="-0.81171">
        <ele>199.349</ele>
        <time>2018-08-11T13:28:51Z</time>
      </trkpt>
      <trkpt lat="47.07431" lon="-0.81178">
        <ele>199.295</ele>
        <time>2018-08-11T13:28:54Z</time>
      </trkpt>
      <trkpt lat="47.07432" lon="-0.81186">
        <ele>199.207</ele>
        <time>2018-08-11T13:28:59Z</time>
      </trkpt>
      <trkpt lat="47.07432" lon="-0.81194">
        <ele>199.157</ele>
        <time>2018-08-11T13:29:02Z</time>
      </trkpt>
      <trkpt lat="47.07433" lon="-0.81198">
        <ele>199.123</ele>
        <time>2018-08-11T13:29:04Z</time>
      </trkpt>
      <trkpt lat="47.07433" lon="-0.81202">
        <ele>199.09</ele>
        <time>2018-08-11T13:29:06Z</time>
      </trkpt>
      <trkpt lat="47.07432" lon="-0.81211">
        <ele>199.012</ele>
        <time>2018-08-11T13:29:11Z</time>
      </trkpt>
      <trkpt lat="47.07432" lon="-0.81218">
        <ele>198.968</ele>
        <time>2018-08-11T13:29:14Z</time>
      </trkpt>
      <trkpt lat="47.07431" lon="-0.81223">
        <ele>198.941</ele>
        <time>2018-08-11T13:29:16Z</time>
      </trkpt>
      <trkpt lat="47.07432" lon="-0.8123">
        <ele>198.901</ele>
        <time>2018-08-11T13:29:19Z</time>
      </trkpt>
      <trkpt lat="47.07432" lon="-0.81238">
        <ele>198.851</ele>
        <time>2018-08-11T13:29:23Z</time>
      </trkpt>
      <trkpt lat="47.07434" lon="-0.81245">
        <ele>198.802</ele>
        <time>2018-08-11T13:29:27Z</time>
      </trkpt>
      <trkpt lat="47.07435" lon="-0.81253">
        <ele>198.755</ele>
        <time>2018-08-11T13:29:31Z</time>
      </trkpt>
      <trkpt lat="47.07436" lon="-0.81257">
        <ele>198.731</ele>
        <time>2018-08-11T13:29:33Z</time>
      </trkpt>
      <trkpt lat="47.07437" lon="-0.81264">
        <ele>198.684</ele>
        <time>2018-08-11T13:29:37Z</time>
      </trkpt>
      <trkpt lat="47.07437" lon="-0.81274">
        <ele>198.638</ele>
        <time>2018-08-11T13:29:41Z</time>
      </trkpt>
      <trkpt lat="47.07439" lon="-0.81283">
        <ele>198.602</ele>
        <time>2018-08-11T13:29:44Z</time>
      </trkpt>
      <trkpt lat="47.0744" lon="-0.8129">
        <ele>198.566</ele>
        <time>2018-08-11T13:29:47Z</time>
      </trkpt>
      <trkpt lat="47.07441" lon="-0.81294">
        <ele>198.555</ele>
        <time>2018-08-11T13:29:48Z</time>
      </trkpt>
      <trkpt lat="47.0744" lon="-0.813">
        <ele>198.523</ele>
        <time>2018-08-11T13:29:51Z</time>
      </trkpt>
      <trkpt lat="47.07441" lon="-0.81305">
        <ele>198.502</ele>
        <time>2018-08-11T13:29:53Z</time>
      </trkpt>
      <trkpt lat="47.07439" lon="-0.81311">
        <ele>198.47</ele>
        <time>2018-08-11T13:29:56Z</time>
      </trkpt>
      <trkpt lat="47.07438" lon="-0.81316">
        <ele>198.438</ele>
        <time>2018-08-11T13:29:59Z</time>
      </trkpt>
      <trkpt lat="47.07439" lon="-0.81323">
        <ele>198.395</ele>
        <time>2018-08-11T13:30:03Z</time>
      </trkpt>
      <trkpt lat="47.0744" lon="-0.81327">
        <ele>198.372</ele>
        <time>2018-08-11T13:30:05Z</time>
      </trkpt>
      <trkpt lat="47.0744" lon="-0.81331">
        <ele>198.349</ele>
        <time>2018-08-11T13:30:07Z</time>
      </trkpt>
      <trkpt lat="47.0744" lon="-0.81338">
        <ele>198.316</ele>
        <time>2018-08-11T13:30:10Z</time>
      </trkpt>
      <trkpt lat="47.07442" lon="-0.81345">
        <ele>198.281</ele>
        <time>2018-08-11T13:30:13Z</time>
      </trkpt>
      <trkpt lat="47.07442" lon="-0.8135">
        <ele>198.257</ele>
        <time>2018-08-11T13:30:15Z</time>
      </trkpt>
      <trkpt lat="47.07441" lon="-0.81356">
        <ele>198.206</ele>
        <time>2018-08-11T13:30:19Z</time>
      </trkpt>
      <trkpt lat="47.0744" lon="-0.81364">
        <ele>198.168</ele>
        <time>2018-08-11T13:30:22Z</time>
      </trkpt>
      <trkpt lat="47.07439" lon="-0.8137">
        <ele>198.128</ele>
        <time>2018-08-11T13:30:25Z</time>
      </trkpt>
      <trkpt lat="47.07439" lon="-0.81378">
        <ele>198.089</ele>
        <time>2018-08-11T13:30:28Z</time>
      </trkpt>
      <trkpt lat="47.0744" lon="-0.81385">
        <ele>198.047</ele>
        <time>2018-08-11T13:30:31Z</time>
      </trkpt>
      <trkpt lat="47.07441" lon="-0.8139">
        <ele>198.019</ele>
        <time>2018-08-11T13:30:33Z</time>
      </trkpt>
      <trkpt lat="47.07441" lon="-0.81395">
        <ele>197.988</ele>
        <time>2018-08-11T13:30:35Z</time>
      </trkpt>
      <trkpt lat="47.07441" lon="-0.81403">
        <ele>197.922</ele>
        <time>2018-08-11T13:30:39Z</time>
      </trkpt>
      <trkpt lat="47.07441" lon="-0.81409">
        <ele>197.853</ele>
        <time>2018-08-11T13:30:43Z</time>
      </trkpt>
      <trkpt lat="47.07441" lon="-0.81416">
        <ele>197.798</ele>
        <time>2018-08-11T13:30:46Z</time>
      </trkpt>
      <trkpt lat="47.07443" lon="-0.81424">
        <ele>197.718</ele>
        <time>2018-08-11T13:30:50Z</time>
      </trkpt>
      <trkpt lat="47.07444" lon="-0.81432">
        <ele>197.65</ele>
        <time>2018-08-11T13:30:53Z</time>
      </trkpt>
      <trkpt lat="47.07445" lon="-0.81436">
        <ele>197.58</ele>
        <time>2018-08-11T13:30:56Z</time>
      </trkpt>
      <trkpt lat="47.07445" lon="-0.8144">
        <ele>197.51</ele>
        <time>2018-08-11T13:30:59Z</time>
      </trkpt>
      <trkpt lat="47.07445" lon="-0.81448">
        <ele>197.438</ele>
        <time>2018-08-11T13:31:02Z</time>
      </trkpt>
      <trkpt lat="47.07445" lon="-0.81455">
        <ele>197.366</ele>
        <time>2018-08-11T13:31:05Z</time>
      </trkpt>
      <trkpt lat="47.07443" lon="-0.81463">
        <ele>197.269</ele>
        <time>2018-08-11T13:31:09Z</time>
      </trkpt>
      <trkpt lat="47.0744" lon="-0.8147">
        <ele>197.195</ele>
        <time>2018-08-11T13:31:12Z</time>
      </trkpt>
      <trkpt lat="47.07436" lon="-0.81475">
        <ele>197.123</ele>
        <time>2018-08-11T13:31:15Z</time>
      </trkpt>
      <trkpt lat="47.07433" lon="-0.8148">
        <ele>197.053</ele>
        <time>2018-08-11T13:31:18Z</time>
      </trkpt>
      <trkpt lat="47.07429" lon="-0.81487">
        <ele>196.938</ele>
        <time>2018-08-11T13:31:23Z</time>
      </trkpt>
      <trkpt lat="47.07426" lon="-0.81493">
        <ele>196.847</ele>
        <time>2018-08-11T13:31:27Z</time>
      </trkpt>
      <trkpt lat="47.07423" lon="-0.81497">
        <ele>196.803</ele>
        <time>2018-08-11T13:31:29Z</time>
      </trkpt>
      <trkpt lat="47.07418" lon="-0.815">
        <ele>196.718</ele>
        <time>2018-08-11T13:31:33Z</time>
      </trkpt>
      <trkpt lat="47.07413" lon="-0.815">
        <ele>196.637</ele>
        <time>2018-08-11T13:31:37Z</time>
      </trkpt>
      <trkpt lat="47.0741" lon="-0.815">
        <ele>196.598</ele>
        <time>2018-08-11T13:31:39Z</time>
      </trkpt>
      <trkpt lat="47.07405" lon="-0.81498">
        <ele>196.517</ele>
        <time>2018-08-11T13:31:43Z</time>
      </trkpt>
      <trkpt lat="47.07402" lon="-0.81497">
        <ele>196.476</ele>
        <time>2018-08-11T13:31:45Z</time>
      </trkpt>
      <trkpt lat="47.07397" lon="-0.81497">
        <ele>196.395</ele>
        <time>2018-08-11T13:31:49Z</time>
      </trkpt>
      <trkpt lat="47.07394" lon="-0.81497">
        <ele>196.354</ele>
        <time>2018-08-11T13:31:51Z</time>
      </trkpt>
      <trkpt lat="47.0739" lon="-0.81494">
        <ele>196.258</ele>
        <time>2018-08-11T13:31:56Z</time>
      </trkpt>
      <trkpt lat="47.07386" lon="-0.81491">
        <ele>196.182</ele>
        <time>2018-08-11T13:32:00Z</time>
      </trkpt>
      <trkpt lat="47.07381" lon="-0.8149">
        <ele>196.127</ele>
        <time>2018-08-11T13:32:03Z</time>
      </trkpt>
      <trkpt lat="47.07375" lon="-0.8149">
        <ele>196.058</ele>
        <time>2018-08-11T13:32:07Z</time>
      </trkpt>
      <trkpt lat="47.07371" lon="-0.8149">
        <ele>196.008</ele>
        <time>2018-08-11T13:32:10Z</time>
      </trkpt>
      <trkpt lat="47.07365" lon="-0.81489">
        <ele>195.945</ele>
        <time>2018-08-11T13:32:14Z</time>
      </trkpt>
      <trkpt lat="47.0736" lon="-0.81488">
        <ele>195.896</ele>
        <time>2018-08-11T13:32:17Z</time>
      </trkpt>
      <trkpt lat="47.07355" lon="-0.81486">
        <ele>195.847</ele>
        <time>2018-08-11T13:32:20Z</time>
      </trkpt>
      <trkpt lat="47.0735" lon="-0.81486">
        <ele>195.781</ele>
        <time>2018-08-11T13:32:24Z</time>
      </trkpt>
      <trkpt lat="47.07347" lon="-0.81485">
        <ele>195.747</ele>
        <time>2018-08-11T13:32:26Z</time>
      </trkpt>
      <trkpt lat="47.07344" lon="-0.81485">
        <ele>195.713</ele>
        <time>2018-08-11T13:32:28Z</time>
      </trkpt>
      <trkpt lat="47.07339" lon="-0.81485">
        <ele>195.641</ele>
        <time>2018-08-11T13:32:32Z</time>
      </trkpt>
      <trkpt lat="47.07334" lon="-0.81484">
        <ele>195.567</ele>
        <time>2018-08-11T13:32:36Z</time>
      </trkpt>
      <trkpt lat="47.07331" lon="-0.81483">
        <ele>195.529</ele>
        <time>2018-08-11T13:32:38Z</time>
      </trkpt>
      <trkpt lat="47.07328" lon="-0.81483">
        <ele>195.49</ele>
        <time>2018-08-11T13:32:40Z</time>
      </trkpt>
      <trkpt lat="47.07323" lon="-0.81482">
        <ele>195.411</ele>
        <time>2018-08-11T13:32:44Z</time>
      </trkpt>
      <trkpt lat="47.07318" lon="-0.81482">
        <ele>195.348</ele>
        <time>2018-08-11T13:32:47Z</time>
      </trkpt>
      <trkpt lat="47.07315" lon="-0.81481">
        <ele>195.305</ele>
        <time>2018-08-11T13:32:49Z</time>
      </trkpt>
      <trkpt lat="47.07312" lon="-0.81481">
        <ele>195.261</ele>
        <time>2018-08-11T13:32:51Z</time>
      </trkpt>
      <trkpt lat="47.07309" lon="-0.8148">
        <ele>195.216</ele>
        <time>2018-08-11T13:32:53Z</time>
      </trkpt>
      <trkpt lat="47.07305" lon="-0.8148">
        <ele>195.125</ele>
        <time>2018-08-11T13:32:57Z</time>
      </trkpt>
      <trkpt lat="47.07299" lon="-0.81479">
        <ele>195.036</ele>
        <time>2018-08-11T13:33:01Z</time>
      </trkpt>
      <trkpt lat="47.07296" lon="-0.81479">
        <ele>194.991</ele>
        <time>2018-08-11T13:33:03Z</time>
      </trkpt>
      <trkpt lat="47.07293" lon="-0.81478">
        <ele>194.945</ele>
        <time>2018-08-11T13:33:05Z</time>
      </trkpt>
      <trkpt lat="47.07289" lon="-0.81476">
        <ele>194.854</ele>
        <time>2018-08-11T13:33:09Z</time>
      </trkpt>
      <trkpt lat="47.07282" lon="-0.81474">
        <ele>194.762</ele>
        <time>2018-08-11T13:33:13Z</time>
      </trkpt>
      <trkpt lat="47.07279" lon="-0.81474">
        <ele>194.717</ele>
        <time>2018-08-11T13:33:15Z</time>
      </trkpt>
      <trkpt lat="47.07274" lon="-0.81474">
        <ele>194.625</ele>
        <time>2018-08-11T13:33:19Z</time>
      </trkpt>
      <trkpt lat="47.07272" lon="-0.81474">
        <ele>194.578</ele>
        <time>2018-08-11T13:33:21Z</time>
      </trkpt>
      <trkpt lat="47.07269" lon="-0.81474">
        <ele>194.53</ele>
        <time>2018-08-11T13:33:23Z</time>
      </trkpt>
      <trkpt lat="47.07266" lon="-0.81474">
        <ele>194.482</ele>
        <time>2018-08-11T13:33:25Z</time>
      </trkpt>
      <trkpt lat="47.07263" lon="-0.81474">
        <ele>194.434</ele>
        <time>2018-08-11T13:33:27Z</time>
      </trkpt>
      <trkpt lat="47.07258" lon="-0.81473">
        <ele>194.362</ele>
        <time>2018-08-11T13:33:30Z</time>
      </trkpt>
      <trkpt lat="47.07253" lon="-0.81471">
        <ele>194.288</ele>
        <time>2018-08-11T13:33:33Z</time>
      </trkpt>
      <trkpt lat="47.07249" lon="-0.8147">
        <ele>194.213</ele>
        <time>2018-08-11T13:33:36Z</time>
      </trkpt>
      <trkpt lat="47.07246" lon="-0.81469">
        <ele>194.163</ele>
        <time>2018-08-11T13:33:38Z</time>
      </trkpt>
      <trkpt lat="47.07244" lon="-0.81468">
        <ele>194.112</ele>
        <time>2018-08-11T13:33:40Z</time>
      </trkpt>
      <trkpt lat="47.07239" lon="-0.81468">
        <ele>194.008</ele>
        <time>2018-08-11T13:33:44Z</time>
      </trkpt>
      <trkpt lat="47.07233" lon="-0.81467">
        <ele>193.902</ele>
        <time>2018-08-11T13:33:48Z</time>
      </trkpt>
      <trkpt lat="47.07229" lon="-0.81467">
        <ele>193.821</ele>
        <time>2018-08-11T13:33:51Z</time>
      </trkpt>
      <trkpt lat="47.07225" lon="-0.81467">
        <ele>193.738</ele>
        <time>2018-08-11T13:33:54Z</time>
      </trkpt>
      <trkpt lat="47.07223" lon="-0.81467">
        <ele>193.681</ele>
        <time>2018-08-11T13:33:56Z</time>
      </trkpt>
      <trkpt lat="47.07221" lon="-0.81467">
        <ele>193.625</ele>
        <time>2018-08-11T13:33:58Z</time>
      </trkpt>
      <trkpt lat="47.07215" lon="-0.81465">
        <ele>193.514</ele>
        <time>2018-08-11T13:34:02Z</time>
      </trkpt>
      <trkpt lat="47.07212" lon="-0.81465">
        <ele>193.459</ele>
        <time>2018-08-11T13:34:04Z</time>
      </trkpt>
      <trkpt lat="47.07209" lon="-0.81464">
        <ele>193.405</ele>
        <time>2018-08-11T13:34:06Z</time>
      </trkpt>
      <trkpt lat="47.07206" lon="-0.81463">
        <ele>193.352</ele>
        <time>2018-08-11T13:34:08Z</time>
      </trkpt>
      <trkpt lat="47.072" lon="-0.81463">
        <ele>193.247</ele>
        <time>2018-08-11T13:34:12Z</time>
      </trkpt>
      <trkpt lat="47.07198" lon="-0.81463">
        <ele>193.196</ele>
        <time>2018-08-11T13:34:14Z</time>
      </trkpt>
      <trkpt lat="47.07195" lon="-0.81463">
        <ele>193.145</ele>
        <time>2018-08-11T13:34:16Z</time>
      </trkpt>
      <trkpt lat="47.07191" lon="-0.81462">
        <ele>193.068</ele>
        <time>2018-08-11T13:34:19Z</time>
      </trkpt>
      <trkpt lat="47.07188" lon="-0.81461">
        <ele>193.018</ele>
        <time>2018-08-11T13:34:21Z</time>
      </trkpt>
      <trkpt lat="47.07185" lon="-0.8146">
        <ele>192.968</ele>
        <time>2018-08-11T13:34:23Z</time>
      </trkpt>
      <trkpt lat="47.07182" lon="-0.81459">
        <ele>192.919</ele>
        <time>2018-08-11T13:34:25Z</time>
      </trkpt>
      <trkpt lat="47.07179" lon="-0.81458">
        <ele>192.871</ele>
        <time>2018-08-11T13:34:27Z</time>
      </trkpt>
      <trkpt lat="47.07174" lon="-0.81458">
        <ele>192.777</ele>
        <time>2018-08-11T13:34:31Z</time>
      </trkpt>
      <trkpt lat="47.07171" lon="-0.81457">
        <ele>192.731</ele>
        <time>2018-08-11T13:34:33Z</time>
      </trkpt>
      <trkpt lat="47.07165" lon="-0.81456">
        <ele>192.64</ele>
        <time>2018-08-11T13:34:37Z</time>
      </trkpt>
      <trkpt lat="47.07163" lon="-0.81455">
        <ele>192.594</ele>
        <time>2018-08-11T13:34:39Z</time>
      </trkpt>
      <trkpt lat="47.0716" lon="-0.81455">
        <ele>192.549</ele>
        <time>2018-08-11T13:34:41Z</time>
      </trkpt>
      <trkpt lat="47.07156" lon="-0.81454">
        <ele>192.458</ele>
        <time>2018-08-11T13:34:45Z</time>
      </trkpt>
      <trkpt lat="47.07149" lon="-0.81454">
        <ele>192.369</ele>
        <time>2018-08-11T13:34:49Z</time>
      </trkpt>
      <trkpt lat="47.07146" lon="-0.81453">
        <ele>192.326</ele>
        <time>2018-08-11T13:34:51Z</time>
      </trkpt>
      <trkpt lat="47.07141" lon="-0.81451">
        <ele>192.264</ele>
        <time>2018-08-11T13:34:54Z</time>
      </trkpt>
      <trkpt lat="47.07138" lon="-0.81451">
        <ele>192.224</ele>
        <time>2018-08-11T13:34:56Z</time>
      </trkpt>
      <trkpt lat="47.07133" lon="-0.8145">
        <ele>192.148</ele>
        <time>2018-08-11T13:35:00Z</time>
      </trkpt>
      <trkpt lat="47.0713" lon="-0.8145">
        <ele>192.11</ele>
        <time>2018-08-11T13:35:02Z</time>
      </trkpt>
      <trkpt lat="47.07127" lon="-0.8145">
        <ele>192.072</ele>
        <time>2018-08-11T13:35:04Z</time>
      </trkpt>
      <trkpt lat="47.07124" lon="-0.8145">
        <ele>192.035</ele>
        <time>2018-08-11T13:35:06Z</time>
      </trkpt>
      <trkpt lat="47.0712" lon="-0.81449">
        <ele>191.979</ele>
        <time>2018-08-11T13:35:09Z</time>
      </trkpt>
      <trkpt lat="47.07117" lon="-0.81448">
        <ele>191.943</ele>
        <time>2018-08-11T13:35:11Z</time>
      </trkpt>
      <trkpt lat="47.07112" lon="-0.81447">
        <ele>191.87</ele>
        <time>2018-08-11T13:35:15Z</time>
      </trkpt>
      <trkpt lat="47.07109" lon="-0.81446">
        <ele>191.834</ele>
        <time>2018-08-11T13:35:17Z</time>
      </trkpt>
      <trkpt lat="47.07106" lon="-0.81446">
        <ele>191.799</ele>
        <time>2018-08-11T13:35:19Z</time>
      </trkpt>
      <trkpt lat="47.07104" lon="-0.81445">
        <ele>191.764</ele>
        <time>2018-08-11T13:35:21Z</time>
      </trkpt>
      <trkpt lat="47.07101" lon="-0.81445">
        <ele>191.729</ele>
        <time>2018-08-11T13:35:23Z</time>
      </trkpt>
      <trkpt lat="47.07095" lon="-0.81445">
        <ele>191.659</ele>
        <time>2018-08-11T13:35:27Z</time>
      </trkpt>
      <trkpt lat="47.07092" lon="-0.81446">
        <ele>191.624</ele>
        <time>2018-08-11T13:35:29Z</time>
      </trkpt>
      <trkpt lat="47.07089" lon="-0.81446">
        <ele>191.589</ele>
        <time>2018-08-11T13:35:31Z</time>
      </trkpt>
      <trkpt lat="47.07087" lon="-0.81446">
        <ele>191.553</ele>
        <time>2018-08-11T13:35:33Z</time>
      </trkpt>
      <trkpt lat="47.07081" lon="-0.81448">
        <ele>191.483</ele>
        <time>2018-08-11T13:35:37Z</time>
      </trkpt>
      <trkpt lat="47.07078" lon="-0.81449">
        <ele>191.449</ele>
        <time>2018-08-11T13:35:39Z</time>
      </trkpt>
      <trkpt lat="47.07076" lon="-0.8145">
        <ele>191.416</ele>
        <time>2018-08-11T13:35:41Z</time>
      </trkpt>
      <trkpt lat="47.07073" lon="-0.81451">
        <ele>191.384</ele>
        <time>2018-08-11T13:35:43Z</time>
      </trkpt>
      <trkpt lat="47.0707" lon="-0.81452">
        <ele>191.353</ele>
        <time>2018-08-11T13:35:45Z</time>
      </trkpt>
      <trkpt lat="47.07067" lon="-0.81454">
        <ele>191.308</ele>
        <time>2018-08-11T13:35:48Z</time>
      </trkpt>
      <trkpt lat="47.07064" lon="-0.81455">
        <ele>191.279</ele>
        <time>2018-08-11T13:35:50Z</time>
      </trkpt>
      <trkpt lat="47.07059" lon="-0.81458">
        <ele>191.224</ele>
        <time>2018-08-11T13:35:54Z</time>
      </trkpt>
      <trkpt lat="47.07057" lon="-0.8146">
        <ele>191.198</ele>
        <time>2018-08-11T13:35:56Z</time>
      </trkpt>
      <trkpt lat="47.07054" lon="-0.81461">
        <ele>191.172</ele>
        <time>2018-08-11T13:35:58Z</time>
      </trkpt>
      <trkpt lat="47.0705" lon="-0.81463">
        <ele>191.134</ele>
        <time>2018-08-11T13:36:01Z</time>
      </trkpt>
      <trkpt lat="47.07047" lon="-0.81465">
        <ele>191.11</ele>
        <time>2018-08-11T13:36:03Z</time>
      </trkpt>
      <trkpt lat="47.07043" lon="-0.81468">
        <ele>191.075</ele>
        <time>2018-08-11T13:36:06Z</time>
      </trkpt>
      <trkpt lat="47.07038" lon="-0.81472">
        <ele>191.033</ele>
        <time>2018-08-11T13:36:10Z</time>
      </trkpt>
      <trkpt lat="47.07036" lon="-0.81474">
        <ele>191.014</ele>
        <time>2018-08-11T13:36:12Z</time>
      </trkpt>
      <trkpt lat="47.07034" lon="-0.81476">
        <ele>190.996</ele>
        <time>2018-08-11T13:36:14Z</time>
      </trkpt>
      <trkpt lat="47.07032" lon="-0.81478">
        <ele>190.978</ele>
        <time>2018-08-11T13:36:16Z</time>
      </trkpt>
      <trkpt lat="47.07029" lon="-0.8148">
        <ele>190.962</ele>
        <time>2018-08-11T13:36:18Z</time>
      </trkpt>
      <trkpt lat="47.07026" lon="-0.81483">
        <ele>190.947</ele>
        <time>2018-08-11T13:36:20Z</time>
      </trkpt>
      <trkpt lat="47.07024" lon="-0.81485">
        <ele>190.932</ele>
        <time>2018-08-11T13:36:22Z</time>
      </trkpt>
      <trkpt lat="47.07022" lon="-0.81487">
        <ele>190.919</ele>
        <time>2018-08-11T13:36:24Z</time>
      </trkpt>
      <trkpt lat="47.07017" lon="-0.81489">
        <ele>190.884</ele>
        <time>2018-08-11T13:36:29Z</time>
      </trkpt>
      <trkpt lat="47.07011" lon="-0.8149">
        <ele>190.857</ele>
        <time>2018-08-11T13:36:33Z</time>
      </trkpt>
      <trkpt lat="47.07007" lon="-0.81492">
        <ele>190.835</ele>
        <time>2018-08-11T13:36:36Z</time>
      </trkpt>
      <trkpt lat="47.07001" lon="-0.81496">
        <ele>190.807</ele>
        <time>2018-08-11T13:36:40Z</time>
      </trkpt>
      <trkpt lat="47.06999" lon="-0.81497">
        <ele>190.793</ele>
        <time>2018-08-11T13:36:42Z</time>
      </trkpt>
      <trkpt lat="47.06996" lon="-0.81499">
        <ele>190.779</ele>
        <time>2018-08-11T13:36:44Z</time>
      </trkpt>
      <trkpt lat="47.06994" lon="-0.81501">
        <ele>190.765</ele>
        <time>2018-08-11T13:36:46Z</time>
      </trkpt>
      <trkpt lat="47.06992" lon="-0.81503">
        <ele>190.752</ele>
        <time>2018-08-11T13:36:48Z</time>
      </trkpt>
      <trkpt lat="47.0699" lon="-0.81505">
        <ele>190.739</ele>
        <time>2018-08-11T13:36:50Z</time>
      </trkpt>
      <trkpt lat="47.06985" lon="-0.81508">
        <ele>190.711</ele>
        <time>2018-08-11T13:36:54Z</time>
      </trkpt>
      <trkpt lat="47.06982" lon="-0.8151">
        <ele>190.697</ele>
        <time>2018-08-11T13:36:56Z</time>
      </trkpt>
      <trkpt lat="47.06979" lon="-0.81512">
        <ele>190.682</ele>
        <time>2018-08-11T13:36:58Z</time>
      </trkpt>
      <trkpt lat="47.06976" lon="-0.81513">
        <ele>190.667</ele>
        <time>2018-08-11T13:37:00Z</time>
      </trkpt>
      <trkpt lat="47.06972" lon="-0.81514">
        <ele>190.645</ele>
        <time>2018-08-11T13:37:03Z</time>
      </trkpt>
      <trkpt lat="47.06969" lon="-0.81515">
        <ele>190.63</ele>
        <time>2018-08-11T13:37:05Z</time>
      </trkpt>
      <trkpt lat="47.06965" lon="-0.81518">
        <ele>190.599</ele>
        <time>2018-08-11T13:37:09Z</time>
      </trkpt>
      <trkpt lat="47.06961" lon="-0.81521">
        <ele>190.576</ele>
        <time>2018-08-11T13:37:12Z</time>
      </trkpt>
      <trkpt lat="47.06958" lon="-0.81523">
        <ele>190.561</ele>
        <time>2018-08-11T13:37:14Z</time>
      </trkpt>
      <trkpt lat="47.06953" lon="-0.81525">
        <ele>190.53</ele>
        <time>2018-08-11T13:37:18Z</time>
      </trkpt>
      <trkpt lat="47.0695" lon="-0.81526">
        <ele>190.515</ele>
        <time>2018-08-11T13:37:20Z</time>
      </trkpt>
      <trkpt lat="47.06945" lon="-0.81529">
        <ele>190.483</ele>
        <time>2018-08-11T13:37:24Z</time>
      </trkpt>
      <trkpt lat="47.0694" lon="-0.8153">
        <ele>190.452</ele>
        <time>2018-08-11T13:37:28Z</time>
      </trkpt>
      <trkpt lat="47.06935" lon="-0.81534">
        <ele>190.42</ele>
        <time>2018-08-11T13:37:32Z</time>
      </trkpt>
      <trkpt lat="47.0693" lon="-0.81539">
        <ele>190.388</ele>
        <time>2018-08-11T13:37:36Z</time>
      </trkpt>
      <trkpt lat="47.06926" lon="-0.81542">
        <ele>190.356</ele>
        <time>2018-08-11T13:37:40Z</time>
      </trkpt>
      <trkpt lat="47.06924" lon="-0.81544">
        <ele>190.34</ele>
        <time>2018-08-11T13:37:42Z</time>
      </trkpt>
      <trkpt lat="47.06921" lon="-0.81546">
        <ele>190.325</ele>
        <time>2018-08-11T13:37:44Z</time>
      </trkpt>
      <trkpt lat="47.06918" lon="-0.81549">
        <ele>190.31</ele>
        <time>2018-08-11T13:37:46Z</time>
      </trkpt>
      <trkpt lat="47.06915" lon="-0.81551">
        <ele>190.295</ele>
        <time>2018-08-11T13:37:48Z</time>
      </trkpt>
      <trkpt lat="47.06912" lon="-0.81552">
        <ele>190.279</ele>
        <time>2018-08-11T13:37:50Z</time>
      </trkpt>
      <trkpt lat="47.06909" lon="-0.81555">
        <ele>190.256</ele>
        <time>2018-08-11T13:37:53Z</time>
      </trkpt>
      <trkpt lat="47.06904" lon="-0.81559">
        <ele>190.224</ele>
        <time>2018-08-11T13:37:57Z</time>
      </trkpt>
      <trkpt lat="47.06899" lon="-0.81563">
        <ele>190.193</ele>
        <time>2018-08-11T13:38:01Z</time>
      </trkpt>
      <trkpt lat="47.06894" lon="-0.81565">
        <ele>190.163</ele>
        <time>2018-08-11T13:38:05Z</time>
      </trkpt>
      <trkpt lat="47.06888" lon="-0.81564">
        <ele>190.131</ele>
        <time>2018-08-11T13:38:09Z</time>
      </trkpt>
      <trkpt lat="47.06884" lon="-0.81558">
        <ele>190.1</ele>
        <time>2018-08-11T13:38:13Z</time>
      </trkpt>
      <trkpt lat="47.0688" lon="-0.81552">
        <ele>190.067</ele>
        <time>2018-08-11T13:38:17Z</time>
      </trkpt>
      <trkpt lat="47.06878" lon="-0.81549">
        <ele>190.049</ele>
        <time>2018-08-11T13:38:19Z</time>
      </trkpt>
      <trkpt lat="47.06874" lon="-0.81542">
        <ele>190.011</ele>
        <time>2018-08-11T13:38:23Z</time>
      </trkpt>
      <trkpt lat="47.0687" lon="-0.81538">
        <ele>189.982</ele>
        <time>2018-08-11T13:38:26Z</time>
      </trkpt>
      <trkpt lat="47.06866" lon="-0.81535">
        <ele>189.949</ele>
        <time>2018-08-11T13:38:29Z</time>
      </trkpt>
      <trkpt lat="47.06864" lon="-0.81533">
        <ele>189.924</ele>
        <time>2018-08-11T13:38:31Z</time>
      </trkpt>
      <trkpt lat="47.0686" lon="-0.81528">
        <ele>189.875</ele>
        <time>2018-08-11T13:38:35Z</time>
      </trkpt>
      <trkpt lat="47.06858" lon="-0.81526">
        <ele>189.851</ele>
        <time>2018-08-11T13:38:37Z</time>
      </trkpt>
      <trkpt lat="47.06856" lon="-0.81523">
        <ele>189.827</ele>
        <time>2018-08-11T13:38:39Z</time>
      </trkpt>
      <trkpt lat="47.06853" lon="-0.8152">
        <ele>189.794</ele>
        <time>2018-08-11T13:38:42Z</time>
      </trkpt>
      <trkpt lat="47.06851" lon="-0.81518">
        <ele>189.773</ele>
        <time>2018-08-11T13:38:44Z</time>
      </trkpt>
      <trkpt lat="47.06849" lon="-0.81516">
        <ele>189.753</ele>
        <time>2018-08-11T13:38:46Z</time>
      </trkpt>
      <trkpt lat="47.06846" lon="-0.81511">
        <ele>189.727</ele>
        <time>2018-08-11T13:38:49Z</time>
      </trkpt>
      <trkpt lat="47.06842" lon="-0.81509">
        <ele>189.7</ele>
        <time>2018-08-11T13:38:52Z</time>
      </trkpt>
      <trkpt lat="47.06839" lon="-0.81507">
        <ele>189.683</ele>
        <time>2018-08-11T13:38:54Z</time>
      </trkpt>
      <trkpt lat="47.06835" lon="-0.81505">
        <ele>189.666</ele>
        <time>2018-08-11T13:38:56Z</time>
      </trkpt>
      <trkpt lat="47.06832" lon="-0.81503">
        <ele>189.65</ele>
        <time>2018-08-11T13:38:58Z</time>
      </trkpt>
      <trkpt lat="47.0683" lon="-0.81501">
        <ele>189.634</ele>
        <time>2018-08-11T13:39:00Z</time>
      </trkpt>
      <trkpt lat="47.06825" lon="-0.815">
        <ele>189.605</ele>
        <time>2018-08-11T13:39:04Z</time>
      </trkpt>
      <trkpt lat="47.0682" lon="-0.81496">
        <ele>189.578</ele>
        <time>2018-08-11T13:39:08Z</time>
      </trkpt>
      <trkpt lat="47.06816" lon="-0.81492">
        <ele>189.559</ele>
        <time>2018-08-11T13:39:11Z</time>
      </trkpt>
      <trkpt lat="47.06811" lon="-0.81489">
        <ele>189.534</ele>
        <time>2018-08-11T13:39:15Z</time>
      </trkpt>
      <trkpt lat="47.06807" lon="-0.81485">
        <ele>189.51</ele>
        <time>2018-08-11T13:39:19Z</time>
      </trkpt>
      <trkpt lat="47.06804" lon="-0.81482">
        <ele>189.492</ele>
        <time>2018-08-11T13:39:22Z</time>
      </trkpt>
      <trkpt lat="47.06799" lon="-0.8148">
        <ele>189.475</ele>
        <time>2018-08-11T13:39:25Z</time>
      </trkpt>
      <trkpt lat="47.06796" lon="-0.81478">
        <ele>189.463</ele>
        <time>2018-08-11T13:39:27Z</time>
      </trkpt>
      <trkpt lat="47.06792" lon="-0.81474">
        <ele>189.446</ele>
        <time>2018-08-11T13:39:30Z</time>
      </trkpt>
      <trkpt lat="47.06788" lon="-0.81469">
        <ele>189.424</ele>
        <time>2018-08-11T13:39:34Z</time>
      </trkpt>
      <trkpt lat="47.06786" lon="-0.81466">
        <ele>189.414</ele>
        <time>2018-08-11T13:39:36Z</time>
      </trkpt>
      <trkpt lat="47.06783" lon="-0.81463">
        <ele>189.405</ele>
        <time>2018-08-11T13:39:38Z</time>
      </trkpt>
      <trkpt lat="47.06779" lon="-0.8146">
        <ele>189.392</ele>
        <time>2018-08-11T13:39:41Z</time>
      </trkpt>
      <trkpt lat="47.06776" lon="-0.81458">
        <ele>189.382</ele>
        <time>2018-08-11T13:39:43Z</time>
      </trkpt>
      <trkpt lat="47.06771" lon="-0.81454">
        <ele>189.365</ele>
        <time>2018-08-11T13:39:47Z</time>
      </trkpt>
      <trkpt lat="47.06767" lon="-0.8145">
        <ele>189.348</ele>
        <time>2018-08-11T13:39:51Z</time>
      </trkpt>
      <trkpt lat="47.06763" lon="-0.81447">
        <ele>189.337</ele>
        <time>2018-08-11T13:39:54Z</time>
      </trkpt>
      <trkpt lat="47.06759" lon="-0.81444">
        <ele>189.324</ele>
        <time>2018-08-11T13:39:57Z</time>
      </trkpt>
      <trkpt lat="47.06756" lon="-0.81442">
        <ele>189.314</ele>
        <time>2018-08-11T13:39:59Z</time>
      </trkpt>
      <trkpt lat="47.06752" lon="-0.81437">
        <ele>189.291</ele>
        <time>2018-08-11T13:40:03Z</time>
      </trkpt>
      <trkpt lat="47.06749" lon="-0.81433">
        <ele>189.273</ele>
        <time>2018-08-11T13:40:06Z</time>
      </trkpt>
      <trkpt lat="47.06745" lon="-0.81429">
        <ele>189.248</ele>
        <time>2018-08-11T13:40:10Z</time>
      </trkpt>
      <trkpt lat="47.06742" lon="-0.81426">
        <ele>189.225</ele>
        <time>2018-08-11T13:40:13Z</time>
      </trkpt>
      <trkpt lat="47.0674" lon="-0.81424">
        <ele>189.208</ele>
        <time>2018-08-11T13:40:15Z</time>
      </trkpt>
      <trkpt lat="47.06736" lon="-0.81419">
        <ele>189.181</ele>
        <time>2018-08-11T13:40:18Z</time>
      </trkpt>
      <trkpt lat="47.06732" lon="-0.81415">
        <ele>189.146</ele>
        <time>2018-08-11T13:40:22Z</time>
      </trkpt>
      <trkpt lat="47.06729" lon="-0.8141">
        <ele>189.109</ele>
        <time>2018-08-11T13:40:26Z</time>
      </trkpt>
      <trkpt lat="47.06726" lon="-0.81404">
        <ele>189.07</ele>
        <time>2018-08-11T13:40:30Z</time>
      </trkpt>
      <trkpt lat="47.06724" lon="-0.81396">
        <ele>189.034</ele>
        <time>2018-08-11T13:40:34Z</time>
      </trkpt>
      <trkpt lat="47.0672" lon="-0.81391">
        <ele>189.003</ele>
        <time>2018-08-11T13:40:38Z</time>
      </trkpt>
      <trkpt lat="47.06716" lon="-0.81387">
        <ele>188.979</ele>
        <time>2018-08-11T13:40:41Z</time>
      </trkpt>
      <trkpt lat="47.06713" lon="-0.81384">
        <ele>188.964</ele>
        <time>2018-08-11T13:40:43Z</time>
      </trkpt>
      <trkpt lat="47.06709" lon="-0.81382">
        <ele>188.925</ele>
        <time>2018-08-11T13:40:51Z</time>
      </trkpt>
      <trkpt lat="47.06707" lon="-0.81381">
        <ele>188.896</ele>
        <time>2018-08-11T13:40:55Z</time>
      </trkpt>
      <trkpt lat="47.06704" lon="-0.8138">
        <ele>188.874</ele>
        <time>2018-08-11T13:40:57Z</time>
      </trkpt>
      <trkpt lat="47.06699" lon="-0.81381">
        <ele>188.831</ele>
        <time>2018-08-11T13:41:01Z</time>
      </trkpt>
      <trkpt lat="47.06696" lon="-0.81382">
        <ele>188.811</ele>
        <time>2018-08-11T13:41:03Z</time>
      </trkpt>
      <trkpt lat="47.06693" lon="-0.81383">
        <ele>188.781</ele>
        <time>2018-08-11T13:41:06Z</time>
      </trkpt>
      <trkpt lat="47.0669" lon="-0.81384">
        <ele>188.753</ele>
        <time>2018-08-11T13:41:09Z</time>
      </trkpt>
      <trkpt lat="47.06685" lon="-0.81387">
        <ele>188.717</ele>
        <time>2018-08-11T13:41:13Z</time>
      </trkpt>
      <trkpt lat="47.06682" lon="-0.81389">
        <ele>188.692</ele>
        <time>2018-08-11T13:41:16Z</time>
      </trkpt>
      <trkpt lat="47.06678" lon="-0.81389">
        <ele>188.66</ele>
        <time>2018-08-11T13:41:20Z</time>
      </trkpt>
      <trkpt lat="47.06672" lon="-0.81387">
        <ele>188.625</ele>
        <time>2018-08-11T13:41:24Z</time>
      </trkpt>
      <trkpt lat="47.06668" lon="-0.81385">
        <ele>188.584</ele>
        <time>2018-08-11T13:41:29Z</time>
      </trkpt>
      <trkpt lat="47.06662" lon="-0.81383">
        <ele>188.541</ele>
        <time>2018-08-11T13:41:34Z</time>
      </trkpt>
      <trkpt lat="47.06657" lon="-0.81379">
        <ele>188.516</ele>
        <time>2018-08-11T13:41:37Z</time>
      </trkpt>
      <trkpt lat="47.06652" lon="-0.81376">
        <ele>188.491</ele>
        <time>2018-08-11T13:41:40Z</time>
      </trkpt>
      <trkpt lat="47.06649" lon="-0.8137">
        <ele>188.456</ele>
        <time>2018-08-11T13:41:44Z</time>
      </trkpt>
      <trkpt lat="47.06648" lon="-0.81363">
        <ele>188.431</ele>
        <time>2018-08-11T13:41:47Z</time>
      </trkpt>
      <trkpt lat="47.0665" lon="-0.81356">
        <ele>188.407</ele>
        <time>2018-08-11T13:41:50Z</time>
      </trkpt>
      <trkpt lat="47.06653" lon="-0.81348">
        <ele>188.385</ele>
        <time>2018-08-11T13:41:53Z</time>
      </trkpt>
      <trkpt lat="47.06655" lon="-0.81342">
        <ele>188.364</ele>
        <time>2018-08-11T13:41:56Z</time>
      </trkpt>
      <trkpt lat="47.06656" lon="-0.81338">
        <ele>188.351</ele>
        <time>2018-08-11T13:41:58Z</time>
      </trkpt>
      <trkpt lat="47.06658" lon="-0.81333">
        <ele>188.337</ele>
        <time>2018-08-11T13:42:00Z</time>
      </trkpt>
      <trkpt lat="47.0666" lon="-0.81329">
        <ele>188.323</ele>
        <time>2018-08-11T13:42:02Z</time>
      </trkpt>
      <trkpt lat="47.06662" lon="-0.81323">
        <ele>188.306</ele>
        <time>2018-08-11T13:42:05Z</time>
      </trkpt>
      <trkpt lat="47.06664" lon="-0.81318">
        <ele>188.293</ele>
        <time>2018-08-11T13:42:07Z</time>
      </trkpt>
      <trkpt lat="47.06665" lon="-0.81314">
        <ele>188.279</ele>
        <time>2018-08-11T13:42:09Z</time>
      </trkpt>
      <trkpt lat="47.06666" lon="-0.8131">
        <ele>188.266</ele>
        <time>2018-08-11T13:42:11Z</time>
      </trkpt>
      <trkpt lat="47.06669" lon="-0.81302">
        <ele>188.241</ele>
        <time>2018-08-11T13:42:15Z</time>
      </trkpt>
      <trkpt lat="47.0667" lon="-0.81298">
        <ele>188.229</ele>
        <time>2018-08-11T13:42:17Z</time>
      </trkpt>
      <trkpt lat="47.06672" lon="-0.81292">
        <ele>188.212</ele>
        <time>2018-08-11T13:42:20Z</time>
      </trkpt>
      <trkpt lat="47.06673" lon="-0.81286">
        <ele>188.195</ele>
        <time>2018-08-11T13:42:23Z</time>
      </trkpt>
      <trkpt lat="47.06675" lon="-0.81281">
        <ele>188.182</ele>
        <time>2018-08-11T13:42:25Z</time>
      </trkpt>
      <trkpt lat="47.06678" lon="-0.81275">
        <ele>188.159</ele>
        <time>2018-08-11T13:42:29Z</time>
      </trkpt>
      <trkpt lat="47.0668" lon="-0.8127">
        <ele>188.142</ele>
        <time>2018-08-11T13:42:32Z</time>
      </trkpt>
      <trkpt lat="47.06682" lon="-0.81263">
        <ele>188.125</ele>
        <time>2018-08-11T13:42:35Z</time>
      </trkpt>
      <trkpt lat="47.06684" lon="-0.81259">
        <ele>188.114</ele>
        <time>2018-08-11T13:42:37Z</time>
      </trkpt>
      <trkpt lat="47.06685" lon="-0.81251">
        <ele>188.091</ele>
        <time>2018-08-11T13:42:41Z</time>
      </trkpt>
      <trkpt lat="47.0668" lon="-0.81246">
        <ele>188.06</ele>
        <time>2018-08-11T13:42:45Z</time>
      </trkpt>
      <trkpt lat="47.06677" lon="-0.81243">
        <ele>188.043</ele>
        <time>2018-08-11T13:42:47Z</time>
      </trkpt>
      <trkpt lat="47.06675" lon="-0.81241">
        <ele>188.024</ele>
        <time>2018-08-11T13:42:49Z</time>
      </trkpt>
      <trkpt lat="47.06672" lon="-0.81238">
        <ele>188.004</ele>
        <time>2018-08-11T13:42:51Z</time>
      </trkpt>
      <trkpt lat="47.06669" lon="-0.81234">
        <ele>187.959</ele>
        <time>2018-08-11T13:42:55Z</time>
      </trkpt>
      <trkpt lat="47.06665" lon="-0.81229">
        <ele>187.912</ele>
        <time>2018-08-11T13:42:59Z</time>
      </trkpt>
      <trkpt lat="47.06664" lon="-0.81227">
        <ele>187.887</ele>
        <time>2018-08-11T13:43:01Z</time>
      </trkpt>
      <trkpt lat="47.06661" lon="-0.8122">
        <ele>187.827</ele>
        <time>2018-08-11T13:43:06Z</time>
      </trkpt>
      <trkpt lat="47.06657" lon="-0.81216">
        <ele>187.774</ele>
        <time>2018-08-11T13:43:11Z</time>
      </trkpt>
      <trkpt lat="47.06657" lon="-0.81216">
        <ele>187.774</ele>
        <time>2018-08-11T13:43:19Z</time>
      </trkpt>
      <trkpt lat="47.06657" lon="-0.81216">
        <ele>130.3</ele>
        <time>2018-08-11T13:43:19Z</time>
      </trkpt>
      <trkpt lat="47.06657" lon="-0.81216">
        <ele>130.3</ele>
        <time>2018-08-11T13:43:38Z</time>
      </trkpt>
      <trkpt lat="47.06678" lon="-0.81216">
        <ele>187.615</ele>
        <time>2018-08-11T13:43:38Z</time>
      </trkpt>
      <trkpt lat="47.06683" lon="-0.8121">
        <ele>187.589</ele>
        <time>2018-08-11T13:43:41Z</time>
      </trkpt>
      <trkpt lat="47.06696" lon="-0.8121">
        <ele>187.537</ele>
        <time>2018-08-11T13:43:47Z</time>
      </trkpt>
      <trkpt lat="47.06701" lon="-0.81208">
        <ele>187.494</ele>
        <time>2018-08-11T13:43:52Z</time>
      </trkpt>
      <trkpt lat="47.06701" lon="-0.81208">
        <ele>129.9</ele>
        <time>2018-08-11T13:43:57Z</time>
      </trkpt>
      <trkpt lat="47.06701" lon="-0.81208">
        <ele>129.9</ele>
        <time>2018-08-11T13:44:00Z</time>
      </trkpt>
      <trkpt lat="47.06709" lon="-0.81207">
        <ele>187.429</ele>
        <time>2018-08-11T13:44:00Z</time>
      </trkpt>
      <trkpt lat="47.06714" lon="-0.81206">
        <ele>187.406</ele>
        <time>2018-08-11T13:44:03Z</time>
      </trkpt>
      <trkpt lat="47.0672" lon="-0.81206">
        <ele>187.367</ele>
        <time>2018-08-11T13:44:08Z</time>
      </trkpt>
      <trkpt lat="47.06723" lon="-0.81207">
        <ele>187.345</ele>
        <time>2018-08-11T13:44:11Z</time>
      </trkpt>
      <trkpt lat="47.06725" lon="-0.81207">
        <ele>187.33</ele>
        <time>2018-08-11T13:44:13Z</time>
      </trkpt>
      <trkpt lat="47.06731" lon="-0.8121">
        <ele>187.309</ele>
        <time>2018-08-11T13:44:16Z</time>
      </trkpt>
      <trkpt lat="47.06735" lon="-0.81216">
        <ele>187.283</ele>
        <time>2018-08-11T13:44:20Z</time>
      </trkpt>
      <trkpt lat="47.06736" lon="-0.81222">
        <ele>187.271</ele>
        <time>2018-08-11T13:44:22Z</time>
      </trkpt>
      <trkpt lat="47.06735" lon="-0.81231">
        <ele>187.255</ele>
        <time>2018-08-11T13:44:25Z</time>
      </trkpt>
      <trkpt lat="47.06734" lon="-0.81235">
        <ele>187.247</ele>
        <time>2018-08-11T13:44:27Z</time>
      </trkpt>
      <trkpt lat="47.06733" lon="-0.81242">
        <ele>187.236</ele>
        <time>2018-08-11T13:44:30Z</time>
      </trkpt>
      <trkpt lat="47.06733" lon="-0.81246">
        <ele>187.229</ele>
        <time>2018-08-11T13:44:32Z</time>
      </trkpt>
      <trkpt lat="47.06733" lon="-0.8125">
        <ele>187.219</ele>
        <time>2018-08-11T13:44:35Z</time>
      </trkpt>
      <trkpt lat="47.06732" lon="-0.81254">
        <ele>187.213</ele>
        <time>2018-08-11T13:44:37Z</time>
      </trkpt>
      <trkpt lat="47.06731" lon="-0.81258">
        <ele>187.204</ele>
        <time>2018-08-11T13:44:40Z</time>
      </trkpt>
      <trkpt lat="47.06729" lon="-0.81265">
        <ele>187.195</ele>
        <time>2018-08-11T13:44:44Z</time>
      </trkpt>
      <trkpt lat="47.06728" lon="-0.81272">
        <ele>187.188</ele>
        <time>2018-08-11T13:44:47Z</time>
      </trkpt>
      <trkpt lat="47.06728" lon="-0.81278">
        <ele>187.179</ele>
        <time>2018-08-11T13:44:51Z</time>
      </trkpt>
      <trkpt lat="47.06729" lon="-0.81285">
        <ele>187.167</ele>
        <time>2018-08-11T13:44:56Z</time>
      </trkpt>
      <trkpt lat="47.06726" lon="-0.81291">
        <ele>187.159</ele>
        <time>2018-08-11T13:45:00Z</time>
      </trkpt>
      <trkpt lat="47.06722" lon="-0.81296">
        <ele>187.151</ele>
        <time>2018-08-11T13:45:03Z</time>
      </trkpt>
      <trkpt lat="47.0672" lon="-0.81302">
        <ele>187.143</ele>
        <time>2018-08-11T13:45:06Z</time>
      </trkpt>
      <trkpt lat="47.06717" lon="-0.8131">
        <ele>187.135</ele>
        <time>2018-08-11T13:45:09Z</time>
      </trkpt>
      <trkpt lat="47.06716" lon="-0.81317">
        <ele>187.12</ele>
        <time>2018-08-11T13:45:14Z</time>
      </trkpt>
      <trkpt lat="47.06715" lon="-0.81321">
        <ele>187.117</ele>
        <time>2018-08-11T13:45:16Z</time>
      </trkpt>
      <trkpt lat="47.06713" lon="-0.81329">
        <ele>187.114</ele>
        <time>2018-08-11T13:45:20Z</time>
      </trkpt>
      <trkpt lat="47.06712" lon="-0.81333">
        <ele>187.114</ele>
        <time>2018-08-11T13:45:22Z</time>
      </trkpt>
      <trkpt lat="47.0671" lon="-0.81337">
        <ele>187.115</ele>
        <time>2018-08-11T13:45:24Z</time>
      </trkpt>
      <trkpt lat="47.0671" lon="-0.8134">
        <ele>187.117</ele>
        <time>2018-08-11T13:45:26Z</time>
      </trkpt>
      <trkpt lat="47.06709" lon="-0.81347">
        <ele>187.127</ele>
        <time>2018-08-11T13:45:31Z</time>
      </trkpt>
      <trkpt lat="47.06708" lon="-0.81354">
        <ele>187.142</ele>
        <time>2018-08-11T13:45:35Z</time>
      </trkpt>
      <trkpt lat="47.06706" lon="-0.81361">
        <ele>187.16</ele>
        <time>2018-08-11T13:45:39Z</time>
      </trkpt>
      <trkpt lat="47.06705" lon="-0.81368">
        <ele>187.182</ele>
        <time>2018-08-11T13:45:43Z</time>
      </trkpt>
      <trkpt lat="47.06704" lon="-0.81372">
        <ele>187.194</ele>
        <time>2018-08-11T13:45:45Z</time>
      </trkpt>
      <trkpt lat="47.06703" lon="-0.81379">
        <ele>187.219</ele>
        <time>2018-08-11T13:45:49Z</time>
      </trkpt>
      <trkpt lat="47.06702" lon="-0.81385">
        <ele>187.246</ele>
        <time>2018-08-11T13:45:53Z</time>
      </trkpt>
      <trkpt lat="47.06702" lon="-0.81389">
        <ele>187.258</ele>
        <time>2018-08-11T13:45:56Z</time>
      </trkpt>
      <trkpt lat="47.06702" lon="-0.81389">
        <ele>130.7</ele>
        <time>2018-08-11T13:46:03Z</time>
      </trkpt>
      <trkpt lat="47.06702" lon="-0.81389">
        <ele>130.7</ele>
        <time>2018-08-11T13:46:30Z</time>
      </trkpt>
    </trkseg>
  </trk>
</gpx>